<?xml version="1.0" encoding="UTF-8" standalone="no" ?>
<gpx xmlns="http://www.topografix.com/GPX/1/1" xmlns:xsi="http://www.w3.org/2001/XMLSchema-instance" xsi:schemaLocation="http://www.topografix.com/GPX/1/1 http://www.topografix.com/GPX/1/1/gpx.xsd" version="1.1" creator="VisuGPX - https://www.visugpx.com">
  <metadata>
    <name>TOURETTES SUR LOUP – PUY DE TOURRETTE et de NAOURI</name>
    <desc><![CDATA[Départ à Tourrettes sur Loup au parking du Pré Neuf - Chapelle St-Raphaël - Gué du Malvan - GR 51- B137- prendre la route sur 400m - quitter la route en direction de l'écomusée à la côte 957m - B177 - Puy de Tourrettes - Puy de Naouri - Descendre B172 - B171 - Retour au parking]]></desc>
  </metadata>
  <trk>
    <name><![CDATA[r]]></name>
    <extensions>
      <line xmlns="http://www.topografix.com/GPX/gpx_style/0/2">
        <color>0000FF</color>
        <width>4</width>
      </line>
    </extensions>
    <trkseg>
      <trkpt lat="43.71881" lon="7.06379">
        <ele>401</ele>
        <time>2024-11-27T14:47:45.099Z</time>
        <extensions>
          <visugpx:TrkExtension xmlns:visugpx="https://www.visugpx.com/editgpx/">
            <visugpx:node>5</visugpx:node>
            </visugpx:TrkExtension>
        </extensions>
      </trkpt>
      <trkpt lat="43.71881" lon="7.06379">
        <ele>401</ele>
        <time>2024-11-27T14:47:45.099Z</time>
      </trkpt>
      <trkpt lat="43.71888" lon="7.06384">
        <ele>401.7</ele>
        <time>2024-11-27T14:47:38.000Z</time>
      </trkpt>
      <trkpt lat="43.71895" lon="7.0639">
        <ele>404.1</ele>
        <time>2024-11-27T14:47:22.000Z</time>
      </trkpt>
      <trkpt lat="43.71899" lon="7.06403">
        <ele>406.3</ele>
        <time>2024-11-27T14:47:13.000Z</time>
      </trkpt>
      <trkpt lat="43.71903" lon="7.06414">
        <ele>407.6</ele>
        <time>2024-11-27T14:47:05.000Z</time>
      </trkpt>
      <trkpt lat="43.71906" lon="7.06427">
        <ele>408.8</ele>
        <time>2024-11-27T14:46:56.000Z</time>
      </trkpt>
      <trkpt lat="43.71911" lon="7.06439">
        <ele>410.9</ele>
        <time>2024-11-27T14:46:48.000Z</time>
      </trkpt>
      <trkpt lat="43.71915" lon="7.06452">
        <ele>412.8</ele>
        <time>2024-11-27T14:46:42.000Z</time>
      </trkpt>
      <trkpt lat="43.71919" lon="7.06464">
        <ele>415.4</ele>
        <time>2024-11-27T14:46:34.000Z</time>
      </trkpt>
      <trkpt lat="43.71926" lon="7.06474">
        <ele>418.2</ele>
        <time>2024-11-27T14:46:28.000Z</time>
      </trkpt>
      <trkpt lat="43.71926" lon="7.06486">
        <ele>422.5</ele>
        <time>2024-11-27T14:46:20.000Z</time>
      </trkpt>
      <trkpt lat="43.71931" lon="7.06497">
        <ele>424.8</ele>
        <time>2024-11-27T14:46:12.000Z</time>
      </trkpt>
      <trkpt lat="43.71934" lon="7.06512">
        <ele>428.8</ele>
        <time>2024-11-27T14:46:03.000Z</time>
      </trkpt>
      <trkpt lat="43.71937" lon="7.06525">
        <ele>432.2</ele>
        <time>2024-11-27T14:45:55.000Z</time>
      </trkpt>
      <trkpt lat="43.71941" lon="7.06537">
        <ele>434.2</ele>
        <time>2024-11-27T14:45:50.000Z</time>
      </trkpt>
      <trkpt lat="43.71946" lon="7.06547">
        <ele>433</ele>
        <time>2024-11-27T14:45:42.000Z</time>
      </trkpt>
      <trkpt lat="43.71951" lon="7.06561">
        <ele>436.1</ele>
        <time>2024-11-27T14:45:33.000Z</time>
      </trkpt>
      <trkpt lat="43.71953" lon="7.06574">
        <ele>440.2</ele>
        <time>2024-11-27T14:45:25.000Z</time>
      </trkpt>
      <trkpt lat="43.71956" lon="7.06587">
        <ele>443.9</ele>
        <time>2024-11-27T14:45:16.000Z</time>
      </trkpt>
      <trkpt lat="43.71959" lon="7.066">
        <ele>445.8</ele>
        <time>2024-11-27T14:45:09.000Z</time>
      </trkpt>
      <trkpt lat="43.71962" lon="7.06613">
        <ele>441.4</ele>
        <time>2024-11-27T14:44:59.000Z</time>
      </trkpt>
      <trkpt lat="43.71968" lon="7.06624">
        <ele>438.7</ele>
        <time>2024-11-27T14:44:52.000Z</time>
      </trkpt>
      <trkpt lat="43.71975" lon="7.06631">
        <ele>438.2</ele>
        <time>2024-11-27T14:44:45.000Z</time>
      </trkpt>
      <trkpt lat="43.71981" lon="7.0664">
        <ele>434.1</ele>
        <time>2024-11-27T14:44:36.000Z</time>
      </trkpt>
      <trkpt lat="43.71989" lon="7.06648">
        <ele>428.3</ele>
        <time>2024-11-27T14:44:28.000Z</time>
      </trkpt>
      <trkpt lat="43.71997" lon="7.06656">
        <ele>430.7</ele>
        <time>2024-11-27T14:44:19.000Z</time>
      </trkpt>
      <trkpt lat="43.72004" lon="7.06664">
        <ele>431.9</ele>
        <time>2024-11-27T14:44:14.000Z</time>
      </trkpt>
      <trkpt lat="43.72012" lon="7.06672">
        <ele>432.2</ele>
        <time>2024-11-27T14:44:04.000Z</time>
      </trkpt>
      <trkpt lat="43.7202" lon="7.06678">
        <ele>432.8</ele>
        <time>2024-11-27T14:43:55.000Z</time>
      </trkpt>
      <trkpt lat="43.7203" lon="7.06681">
        <ele>432.4</ele>
        <time>2024-11-27T14:43:45.000Z</time>
      </trkpt>
      <trkpt lat="43.72039" lon="7.06682">
        <ele>434.2</ele>
        <time>2024-11-27T14:43:38.000Z</time>
      </trkpt>
      <trkpt lat="43.72049" lon="7.06682">
        <ele>435.7</ele>
        <time>2024-11-27T14:43:32.000Z</time>
      </trkpt>
      <trkpt lat="43.72058" lon="7.06681">
        <ele>438</ele>
        <time>2024-11-27T14:43:22.000Z</time>
      </trkpt>
      <trkpt lat="43.72067" lon="7.0668">
        <ele>437.9</ele>
        <time>2024-11-27T14:43:17.000Z</time>
      </trkpt>
      <trkpt lat="43.72079" lon="7.0668">
        <ele>438</ele>
        <time>2024-11-27T14:43:10.000Z</time>
      </trkpt>
      <trkpt lat="43.72089" lon="7.0668">
        <ele>440.6</ele>
        <time>2024-11-27T14:43:03.000Z</time>
      </trkpt>
      <trkpt lat="43.72099" lon="7.06684">
        <ele>440.3</ele>
        <time>2024-11-27T14:42:56.000Z</time>
      </trkpt>
      <trkpt lat="43.72108" lon="7.06686">
        <ele>440.3</ele>
        <time>2024-11-27T14:42:46.000Z</time>
      </trkpt>
      <trkpt lat="43.72117" lon="7.06689">
        <ele>440.1</ele>
        <time>2024-11-27T14:42:42.000Z</time>
      </trkpt>
      <trkpt lat="43.72127" lon="7.0669">
        <ele>440.9</ele>
        <time>2024-11-27T14:42:36.000Z</time>
      </trkpt>
      <trkpt lat="43.72136" lon="7.06692">
        <ele>441.6</ele>
        <time>2024-11-27T14:42:28.000Z</time>
      </trkpt>
      <trkpt lat="43.72146" lon="7.06693">
        <ele>445.8</ele>
        <time>2024-11-27T14:42:17.000Z</time>
      </trkpt>
      <trkpt lat="43.72148" lon="7.06693">
        <ele>446.3</ele>
        <time>2024-11-27T14:42:16.000Z</time>
      </trkpt>
      <trkpt lat="43.72149" lon="7.06692">
        <ele>446.8</ele>
        <time>2024-11-27T14:42:15.000Z</time>
      </trkpt>
      <trkpt lat="43.7215" lon="7.06692">
        <ele>446.8</ele>
        <time>2024-11-27T14:42:14.000Z</time>
      </trkpt>
      <trkpt lat="43.7215" lon="7.06694">
        <ele>447</ele>
        <time>2024-11-27T14:42:12.000Z</time>
      </trkpt>
      <trkpt lat="43.72151" lon="7.06695">
        <ele>447.3</ele>
        <time>2024-11-27T14:42:09.000Z</time>
      </trkpt>
      <trkpt lat="43.7216" lon="7.06692">
        <ele>449.2</ele>
        <time>2024-11-27T14:41:57.000Z</time>
      </trkpt>
      <trkpt lat="43.72167" lon="7.06707">
        <ele>446.2</ele>
        <time>2024-11-27T14:41:49.000Z</time>
      </trkpt>
      <trkpt lat="43.72177" lon="7.06714">
        <ele>439.5</ele>
        <time>2024-11-27T14:41:35.000Z</time>
      </trkpt>
      <trkpt lat="43.72187" lon="7.0672">
        <ele>436.8</ele>
        <time>2024-11-27T14:41:29.000Z</time>
      </trkpt>
      <trkpt lat="43.72196" lon="7.06721">
        <ele>439.3</ele>
        <time>2024-11-27T14:41:22.000Z</time>
      </trkpt>
      <trkpt lat="43.72206" lon="7.06722">
        <ele>443.9</ele>
        <time>2024-11-27T14:41:11.000Z</time>
      </trkpt>
      <trkpt lat="43.72217" lon="7.06726">
        <ele>443.2</ele>
        <time>2024-11-27T14:41:01.000Z</time>
      </trkpt>
      <trkpt lat="43.72227" lon="7.06729">
        <ele>440.5</ele>
        <time>2024-11-27T14:40:56.000Z</time>
      </trkpt>
      <trkpt lat="43.72236" lon="7.06734">
        <ele>441</ele>
        <time>2024-11-27T14:40:52.000Z</time>
      </trkpt>
      <trkpt lat="43.72246" lon="7.06732">
        <ele>442.8</ele>
        <time>2024-11-27T14:40:43.000Z</time>
      </trkpt>
      <trkpt lat="43.72256" lon="7.06734">
        <ele>447.5</ele>
        <time>2024-11-27T14:40:34.000Z</time>
      </trkpt>
      <trkpt lat="43.72265" lon="7.06734">
        <ele>448.7</ele>
        <time>2024-11-27T14:40:24.000Z</time>
      </trkpt>
      <trkpt lat="43.72274" lon="7.06741">
        <ele>449.3</ele>
        <time>2024-11-27T14:40:20.000Z</time>
      </trkpt>
      <trkpt lat="43.72284" lon="7.06738">
        <ele>451.1</ele>
        <time>2024-11-27T14:40:12.000Z</time>
      </trkpt>
      <trkpt lat="43.72294" lon="7.06736">
        <ele>454.8</ele>
        <time>2024-11-27T14:40:04.000Z</time>
      </trkpt>
      <trkpt lat="43.72303" lon="7.06736">
        <ele>454.8</ele>
        <time>2024-11-27T14:39:56.000Z</time>
      </trkpt>
      <trkpt lat="43.72314" lon="7.06734">
        <ele>460.7</ele>
        <time>2024-11-27T14:39:48.000Z</time>
      </trkpt>
      <trkpt lat="43.72323" lon="7.06732">
        <ele>463.3</ele>
        <time>2024-11-27T14:39:39.000Z</time>
      </trkpt>
      <trkpt lat="43.72332" lon="7.06728">
        <ele>464.2</ele>
        <time>2024-11-27T14:39:31.000Z</time>
      </trkpt>
      <trkpt lat="43.72342" lon="7.06725">
        <ele>465.5</ele>
        <time>2024-11-27T14:39:23.000Z</time>
      </trkpt>
      <trkpt lat="43.72352" lon="7.06723">
        <ele>464.7</ele>
        <time>2024-11-27T14:39:12.000Z</time>
      </trkpt>
      <trkpt lat="43.72362" lon="7.06723">
        <ele>466.4</ele>
        <time>2024-11-27T14:39:05.000Z</time>
      </trkpt>
      <trkpt lat="43.72371" lon="7.06722">
        <ele>465.9</ele>
        <time>2024-11-27T14:38:57.000Z</time>
      </trkpt>
      <trkpt lat="43.72383" lon="7.06722">
        <ele>467.9</ele>
        <time>2024-11-27T14:38:52.000Z</time>
      </trkpt>
      <trkpt lat="43.72392" lon="7.06718">
        <ele>470.7</ele>
        <time>2024-11-27T14:38:41.000Z</time>
      </trkpt>
      <trkpt lat="43.72401" lon="7.06721">
        <ele>469.9</ele>
        <time>2024-11-27T14:38:35.000Z</time>
      </trkpt>
      <trkpt lat="43.7241" lon="7.06719">
        <ele>480.1</ele>
        <time>2024-11-27T14:38:26.000Z</time>
      </trkpt>
      <trkpt lat="43.72421" lon="7.06719">
        <ele>483.8</ele>
        <time>2024-11-27T14:38:18.000Z</time>
      </trkpt>
      <trkpt lat="43.7243" lon="7.06714">
        <ele>484.8</ele>
        <time>2024-11-27T14:38:07.000Z</time>
      </trkpt>
      <trkpt lat="43.72439" lon="7.06715">
        <ele>486.8</ele>
        <time>2024-11-27T14:38:01.000Z</time>
      </trkpt>
      <trkpt lat="43.72448" lon="7.06721">
        <ele>486.2</ele>
        <time>2024-11-27T14:37:50.000Z</time>
      </trkpt>
      <trkpt lat="43.72457" lon="7.06721">
        <ele>487.8</ele>
        <time>2024-11-27T14:37:42.000Z</time>
      </trkpt>
      <trkpt lat="43.72467" lon="7.06724">
        <ele>493</ele>
        <time>2024-11-27T14:37:33.000Z</time>
      </trkpt>
      <trkpt lat="43.72477" lon="7.06729">
        <ele>500</ele>
        <time>2024-11-27T14:37:24.000Z</time>
      </trkpt>
      <trkpt lat="43.72486" lon="7.0673">
        <ele>502.1</ele>
        <time>2024-11-27T14:37:16.000Z</time>
      </trkpt>
      <trkpt lat="43.72495" lon="7.06731">
        <ele>502.1</ele>
        <time>2024-11-27T14:37:07.000Z</time>
      </trkpt>
      <trkpt lat="43.72504" lon="7.06728">
        <ele>501.9</ele>
        <time>2024-11-27T14:37:02.000Z</time>
      </trkpt>
      <trkpt lat="43.72514" lon="7.06726">
        <ele>502.7</ele>
        <time>2024-11-27T14:36:51.000Z</time>
      </trkpt>
      <trkpt lat="43.72525" lon="7.06726">
        <ele>508.5</ele>
        <time>2024-11-27T14:36:42.000Z</time>
      </trkpt>
      <trkpt lat="43.72533" lon="7.06735">
        <ele>512.1</ele>
        <time>2024-11-27T14:36:33.000Z</time>
      </trkpt>
      <trkpt lat="43.72541" lon="7.06742">
        <ele>513</ele>
        <time>2024-11-27T14:36:26.000Z</time>
      </trkpt>
      <trkpt lat="43.72544" lon="7.06754">
        <ele>512.1</ele>
        <time>2024-11-27T14:36:17.000Z</time>
      </trkpt>
      <trkpt lat="43.72553" lon="7.06761">
        <ele>510.9</ele>
        <time>2024-11-27T14:36:09.000Z</time>
      </trkpt>
      <trkpt lat="43.7256" lon="7.06769">
        <ele>514.3</ele>
        <time>2024-11-27T14:36:00.000Z</time>
      </trkpt>
      <trkpt lat="43.72566" lon="7.06782">
        <ele>511.4</ele>
        <time>2024-11-27T14:35:49.000Z</time>
      </trkpt>
      <trkpt lat="43.72573" lon="7.06791">
        <ele>511.7</ele>
        <time>2024-11-27T14:35:41.000Z</time>
      </trkpt>
      <trkpt lat="43.7258" lon="7.06801">
        <ele>510.4</ele>
        <time>2024-11-27T14:35:35.000Z</time>
      </trkpt>
      <trkpt lat="43.72589" lon="7.06806">
        <ele>508.5</ele>
        <time>2024-11-27T14:35:30.000Z</time>
      </trkpt>
      <trkpt lat="43.72598" lon="7.0681">
        <ele>506.6</ele>
        <time>2024-11-27T14:35:25.000Z</time>
      </trkpt>
      <trkpt lat="43.72608" lon="7.06816">
        <ele>511.3</ele>
        <time>2024-11-27T14:35:14.000Z</time>
      </trkpt>
      <trkpt lat="43.72618" lon="7.06817">
        <ele>512.1</ele>
        <time>2024-11-27T14:35:02.000Z</time>
      </trkpt>
      <trkpt lat="43.72628" lon="7.06817">
        <ele>515.7</ele>
        <time>2024-11-27T14:34:51.000Z</time>
      </trkpt>
      <trkpt lat="43.72638" lon="7.06815">
        <ele>516.6</ele>
        <time>2024-11-27T14:34:44.000Z</time>
      </trkpt>
      <trkpt lat="43.72647" lon="7.06818">
        <ele>519.4</ele>
        <time>2024-11-27T14:34:32.000Z</time>
      </trkpt>
      <trkpt lat="43.72655" lon="7.06826">
        <ele>522.2</ele>
        <time>2024-11-27T14:34:22.000Z</time>
      </trkpt>
      <trkpt lat="43.72661" lon="7.06836">
        <ele>527.9</ele>
        <time>2024-11-27T14:34:13.000Z</time>
      </trkpt>
      <trkpt lat="43.72662" lon="7.06848">
        <ele>530.9</ele>
        <time>2024-11-27T14:34:06.000Z</time>
      </trkpt>
      <trkpt lat="43.72671" lon="7.06853">
        <ele>537.6</ele>
        <time>2024-11-27T14:33:53.000Z</time>
      </trkpt>
      <trkpt lat="43.72673" lon="7.06841">
        <ele>544</ele>
        <time>2024-11-27T14:33:44.000Z</time>
      </trkpt>
      <trkpt lat="43.72674" lon="7.06839">
        <ele>544.1</ele>
        <time>2024-11-27T14:33:43.000Z</time>
      </trkpt>
      <trkpt lat="43.72674" lon="7.06836">
        <ele>543.7</ele>
        <time>2024-11-27T14:33:37.000Z</time>
      </trkpt>
      <trkpt lat="43.72675" lon="7.06836">
        <ele>543.6</ele>
        <time>2024-11-27T14:33:36.000Z</time>
      </trkpt>
      <trkpt lat="43.72675" lon="7.06836">
        <ele>543.5</ele>
        <time>2024-11-27T14:33:35.000Z</time>
      </trkpt>
      <trkpt lat="43.72675" lon="7.06836">
        <ele>543.3</ele>
        <time>2024-11-27T14:33:34.000Z</time>
      </trkpt>
      <trkpt lat="43.72675" lon="7.06836">
        <ele>543</ele>
        <time>2024-11-27T14:33:33.000Z</time>
      </trkpt>
      <trkpt lat="43.72675" lon="7.06836">
        <ele>542.8</ele>
        <time>2024-11-27T14:33:32.000Z</time>
      </trkpt>
      <trkpt lat="43.72676" lon="7.06837">
        <ele>542.6</ele>
        <time>2024-11-27T14:33:31.000Z</time>
      </trkpt>
      <trkpt lat="43.7268" lon="7.06843">
        <ele>533.7</ele>
        <time>2024-11-27T14:33:16.000Z</time>
      </trkpt>
      <trkpt lat="43.72687" lon="7.06853">
        <ele>534.7</ele>
        <time>2024-11-27T14:33:07.000Z</time>
      </trkpt>
      <trkpt lat="43.72689" lon="7.06866">
        <ele>536.8</ele>
        <time>2024-11-27T14:32:59.000Z</time>
      </trkpt>
      <trkpt lat="43.72691" lon="7.06879">
        <ele>538.6</ele>
        <time>2024-11-27T14:32:52.000Z</time>
      </trkpt>
      <trkpt lat="43.72694" lon="7.06892">
        <ele>539.8</ele>
        <time>2024-11-27T14:32:43.000Z</time>
      </trkpt>
      <trkpt lat="43.72699" lon="7.06903">
        <ele>541.9</ele>
        <time>2024-11-27T14:32:36.000Z</time>
      </trkpt>
      <trkpt lat="43.72706" lon="7.06912">
        <ele>545.2</ele>
        <time>2024-11-27T14:32:27.000Z</time>
      </trkpt>
      <trkpt lat="43.72713" lon="7.06921">
        <ele>549.7</ele>
        <time>2024-11-27T14:32:16.000Z</time>
      </trkpt>
      <trkpt lat="43.72721" lon="7.06928">
        <ele>549.6</ele>
        <time>2024-11-27T14:32:09.000Z</time>
      </trkpt>
      <trkpt lat="43.72727" lon="7.06939">
        <ele>559.5</ele>
        <time>2024-11-27T14:31:56.000Z</time>
      </trkpt>
      <trkpt lat="43.72736" lon="7.06943">
        <ele>563.2</ele>
        <time>2024-11-27T14:31:47.000Z</time>
      </trkpt>
      <trkpt lat="43.72744" lon="7.06951">
        <ele>570.5</ele>
        <time>2024-11-27T14:31:31.000Z</time>
      </trkpt>
      <trkpt lat="43.72745" lon="7.06965">
        <ele>568.1</ele>
        <time>2024-11-27T14:31:24.000Z</time>
      </trkpt>
      <trkpt lat="43.72744" lon="7.0698">
        <ele>565.6</ele>
        <time>2024-11-27T14:31:16.000Z</time>
      </trkpt>
      <trkpt lat="43.72742" lon="7.06993">
        <ele>560.8</ele>
        <time>2024-11-27T14:31:10.000Z</time>
      </trkpt>
      <trkpt lat="43.7274" lon="7.07007">
        <ele>566.4</ele>
        <time>2024-11-27T14:31:00.000Z</time>
      </trkpt>
      <trkpt lat="43.7274" lon="7.07019">
        <ele>565</ele>
        <time>2024-11-27T14:30:48.000Z</time>
      </trkpt>
      <trkpt lat="43.72745" lon="7.07032">
        <ele>564.2</ele>
        <time>2024-11-27T14:30:44.000Z</time>
      </trkpt>
      <trkpt lat="43.7275" lon="7.07047">
        <ele>564.3</ele>
        <time>2024-11-27T14:30:33.000Z</time>
      </trkpt>
      <trkpt lat="43.72746" lon="7.07059">
        <ele>569.7</ele>
        <time>2024-11-27T14:30:23.000Z</time>
      </trkpt>
      <trkpt lat="43.7274" lon="7.07069">
        <ele>575.2</ele>
        <time>2024-11-27T14:30:14.000Z</time>
      </trkpt>
      <trkpt lat="43.72738" lon="7.07082">
        <ele>583.1</ele>
        <time>2024-11-27T14:30:03.000Z</time>
      </trkpt>
      <trkpt lat="43.72739" lon="7.07096">
        <ele>583.1</ele>
        <time>2024-11-27T14:29:55.000Z</time>
      </trkpt>
      <trkpt lat="43.72744" lon="7.07107">
        <ele>582.2</ele>
        <time>2024-11-27T14:29:45.000Z</time>
      </trkpt>
      <trkpt lat="43.72749" lon="7.07118">
        <ele>581.4</ele>
        <time>2024-11-27T14:29:40.000Z</time>
      </trkpt>
      <trkpt lat="43.72753" lon="7.07132">
        <ele>585.3</ele>
        <time>2024-11-27T14:29:30.000Z</time>
      </trkpt>
      <trkpt lat="43.7276" lon="7.07142">
        <ele>585</ele>
        <time>2024-11-27T14:29:24.000Z</time>
      </trkpt>
      <trkpt lat="43.72768" lon="7.07149">
        <ele>585.1</ele>
        <time>2024-11-27T14:29:15.000Z</time>
      </trkpt>
      <trkpt lat="43.72778" lon="7.07155">
        <ele>587.8</ele>
        <time>2024-11-27T14:29:03.000Z</time>
      </trkpt>
      <trkpt lat="43.72783" lon="7.07145">
        <ele>592.8</ele>
        <time>2024-11-27T14:28:53.000Z</time>
      </trkpt>
      <trkpt lat="43.72792" lon="7.07138">
        <ele>598.1</ele>
        <time>2024-11-27T14:28:43.000Z</time>
      </trkpt>
      <trkpt lat="43.72799" lon="7.07146">
        <ele>602.4</ele>
        <time>2024-11-27T14:28:37.000Z</time>
      </trkpt>
      <trkpt lat="43.72807" lon="7.07139">
        <ele>604.7</ele>
        <time>2024-11-27T14:28:29.000Z</time>
      </trkpt>
      <trkpt lat="43.72813" lon="7.07129">
        <ele>606.5</ele>
        <time>2024-11-27T14:28:21.000Z</time>
      </trkpt>
      <trkpt lat="43.72822" lon="7.07126">
        <ele>610.2</ele>
        <time>2024-11-27T14:28:10.000Z</time>
      </trkpt>
      <trkpt lat="43.72831" lon="7.0713">
        <ele>610.7</ele>
        <time>2024-11-27T14:28:04.000Z</time>
      </trkpt>
      <trkpt lat="43.7284" lon="7.0713">
        <ele>613.9</ele>
        <time>2024-11-27T14:27:57.000Z</time>
      </trkpt>
      <trkpt lat="43.72851" lon="7.0713">
        <ele>616.1</ele>
        <time>2024-11-27T14:27:51.000Z</time>
      </trkpt>
      <trkpt lat="43.72861" lon="7.0713">
        <ele>621</ele>
        <time>2024-11-27T14:27:42.000Z</time>
      </trkpt>
      <trkpt lat="43.72871" lon="7.07133">
        <ele>622.1</ele>
        <time>2024-11-27T14:27:32.000Z</time>
      </trkpt>
      <trkpt lat="43.72879" lon="7.07127">
        <ele>624.8</ele>
        <time>2024-11-27T14:27:18.000Z</time>
      </trkpt>
      <trkpt lat="43.72888" lon="7.07122">
        <ele>628.2</ele>
        <time>2024-11-27T14:27:10.000Z</time>
      </trkpt>
      <trkpt lat="43.72898" lon="7.07121">
        <ele>629.4</ele>
        <time>2024-11-27T14:27:02.000Z</time>
      </trkpt>
      <trkpt lat="43.72907" lon="7.07113">
        <ele>632.3</ele>
        <time>2024-11-27T14:26:55.000Z</time>
      </trkpt>
      <trkpt lat="43.72916" lon="7.0711">
        <ele>637.6</ele>
        <time>2024-11-27T14:26:45.000Z</time>
      </trkpt>
      <trkpt lat="43.72924" lon="7.07103">
        <ele>638.5</ele>
        <time>2024-11-27T14:26:40.000Z</time>
      </trkpt>
      <trkpt lat="43.72928" lon="7.07092">
        <ele>639.4</ele>
        <time>2024-11-27T14:26:22.000Z</time>
      </trkpt>
      <trkpt lat="43.72936" lon="7.07084">
        <ele>643.7</ele>
        <time>2024-11-27T14:26:14.000Z</time>
      </trkpt>
      <trkpt lat="43.72942" lon="7.07074">
        <ele>644.3</ele>
        <time>2024-11-27T14:26:08.000Z</time>
      </trkpt>
      <trkpt lat="43.72948" lon="7.07065">
        <ele>646.1</ele>
        <time>2024-11-27T14:25:59.000Z</time>
      </trkpt>
      <trkpt lat="43.72958" lon="7.07058">
        <ele>645.5</ele>
        <time>2024-11-27T14:25:52.000Z</time>
      </trkpt>
      <trkpt lat="43.72966" lon="7.0705">
        <ele>645.1</ele>
        <time>2024-11-27T14:25:44.000Z</time>
      </trkpt>
      <trkpt lat="43.72973" lon="7.07041">
        <ele>645.5</ele>
        <time>2024-11-27T14:25:37.000Z</time>
      </trkpt>
      <trkpt lat="43.72979" lon="7.07029">
        <ele>646.9</ele>
        <time>2024-11-27T14:25:28.000Z</time>
      </trkpt>
      <trkpt lat="43.72981" lon="7.07016">
        <ele>649.9</ele>
        <time>2024-11-27T14:25:18.000Z</time>
      </trkpt>
      <trkpt lat="43.72987" lon="7.07006">
        <ele>654.6</ele>
        <time>2024-11-27T14:25:10.000Z</time>
      </trkpt>
      <trkpt lat="43.72996" lon="7.07008">
        <ele>658</ele>
        <time>2024-11-27T14:25:03.000Z</time>
      </trkpt>
      <trkpt lat="43.73004" lon="7.07014">
        <ele>659.9</ele>
        <time>2024-11-27T14:24:56.000Z</time>
      </trkpt>
      <trkpt lat="43.73011" lon="7.07022">
        <ele>660.3</ele>
        <time>2024-11-27T14:24:46.000Z</time>
      </trkpt>
      <trkpt lat="43.73021" lon="7.07022">
        <ele>661.7</ele>
        <time>2024-11-27T14:24:37.000Z</time>
      </trkpt>
      <trkpt lat="43.73031" lon="7.07022">
        <ele>664</ele>
        <time>2024-11-27T14:24:29.000Z</time>
      </trkpt>
      <trkpt lat="43.73039" lon="7.07017">
        <ele>666.5</ele>
        <time>2024-11-27T14:24:21.000Z</time>
      </trkpt>
      <trkpt lat="43.73047" lon="7.07008">
        <ele>668.1</ele>
        <time>2024-11-27T14:24:10.000Z</time>
      </trkpt>
      <trkpt lat="43.73054" lon="7.07">
        <ele>668.4</ele>
        <time>2024-11-27T14:24:03.000Z</time>
      </trkpt>
      <trkpt lat="43.73062" lon="7.06994">
        <ele>668.5</ele>
        <time>2024-11-27T14:23:56.000Z</time>
      </trkpt>
      <trkpt lat="43.73068" lon="7.06984">
        <ele>672.8</ele>
        <time>2024-11-27T14:23:50.000Z</time>
      </trkpt>
      <trkpt lat="43.73076" lon="7.06975">
        <ele>679.9</ele>
        <time>2024-11-27T14:23:43.000Z</time>
      </trkpt>
      <trkpt lat="43.73085" lon="7.06967">
        <ele>682.6</ele>
        <time>2024-11-27T14:23:32.000Z</time>
      </trkpt>
      <trkpt lat="43.7309" lon="7.06957">
        <ele>683.3</ele>
        <time>2024-11-27T14:23:25.000Z</time>
      </trkpt>
      <trkpt lat="43.73093" lon="7.06944">
        <ele>686.2</ele>
        <time>2024-11-27T14:23:17.000Z</time>
      </trkpt>
      <trkpt lat="43.731" lon="7.06935">
        <ele>690.1</ele>
        <time>2024-11-27T14:23:08.000Z</time>
      </trkpt>
      <trkpt lat="43.73101" lon="7.06921">
        <ele>690.9</ele>
        <time>2024-11-27T14:23:04.000Z</time>
      </trkpt>
      <trkpt lat="43.73103" lon="7.06909">
        <ele>691</ele>
        <time>2024-11-27T14:22:59.000Z</time>
      </trkpt>
      <trkpt lat="43.731" lon="7.06897">
        <ele>690.7</ele>
        <time>2024-11-27T14:22:52.000Z</time>
      </trkpt>
      <trkpt lat="43.73099" lon="7.06895">
        <ele>690.6</ele>
        <time>2024-11-27T14:22:51.000Z</time>
      </trkpt>
      <trkpt lat="43.73099" lon="7.06893">
        <ele>689.9</ele>
        <time>2024-11-27T14:22:47.000Z</time>
      </trkpt>
      <trkpt lat="43.73099" lon="7.06893">
        <ele>689.8</ele>
        <time>2024-11-27T14:22:46.000Z</time>
      </trkpt>
      <trkpt lat="43.73101" lon="7.06886">
        <ele>693.9</ele>
        <time>2024-11-27T14:22:26.000Z</time>
      </trkpt>
      <trkpt lat="43.73108" lon="7.06896">
        <ele>694.9</ele>
        <time>2024-11-27T14:22:19.000Z</time>
      </trkpt>
      <trkpt lat="43.73115" lon="7.06908">
        <ele>694.6</ele>
        <time>2024-11-27T14:22:10.000Z</time>
      </trkpt>
      <trkpt lat="43.73127" lon="7.069">
        <ele>696.2</ele>
        <time>2024-11-27T14:21:54.000Z</time>
      </trkpt>
      <trkpt lat="43.73132" lon="7.06889">
        <ele>696.3</ele>
        <time>2024-11-27T14:21:45.000Z</time>
      </trkpt>
      <trkpt lat="43.73132" lon="7.06889">
        <ele>696.4</ele>
        <time>2024-11-27T14:21:44.000Z</time>
      </trkpt>
      <trkpt lat="43.73133" lon="7.06889">
        <ele>696.5</ele>
        <time>2024-11-27T14:21:43.000Z</time>
      </trkpt>
      <trkpt lat="43.73133" lon="7.0689">
        <ele>696.6</ele>
        <time>2024-11-27T14:21:42.000Z</time>
      </trkpt>
      <trkpt lat="43.73134" lon="7.06889">
        <ele>696.6</ele>
        <time>2024-11-27T14:21:41.000Z</time>
      </trkpt>
      <trkpt lat="43.73135" lon="7.06889">
        <ele>698.8</ele>
        <time>2024-11-27T14:21:35.000Z</time>
      </trkpt>
      <trkpt lat="43.73143" lon="7.06895">
        <ele>706.4</ele>
        <time>2024-11-27T14:21:27.000Z</time>
      </trkpt>
      <trkpt lat="43.7315" lon="7.06902">
        <ele>711.8</ele>
        <time>2024-11-27T14:21:18.000Z</time>
      </trkpt>
      <trkpt lat="43.73159" lon="7.06905">
        <ele>717</ele>
        <time>2024-11-27T14:21:04.000Z</time>
      </trkpt>
      <trkpt lat="43.73168" lon="7.069">
        <ele>719</ele>
        <time>2024-11-27T14:20:45.000Z</time>
      </trkpt>
      <trkpt lat="43.73164" lon="7.06889">
        <ele>719.3</ele>
        <time>2024-11-27T14:20:39.000Z</time>
      </trkpt>
      <trkpt lat="43.73157" lon="7.06881">
        <ele>719.3</ele>
        <time>2024-11-27T14:20:31.000Z</time>
      </trkpt>
      <trkpt lat="43.7315" lon="7.0687">
        <ele>719.4</ele>
        <time>2024-11-27T14:20:22.000Z</time>
      </trkpt>
      <trkpt lat="43.73141" lon="7.06863">
        <ele>721.3</ele>
        <time>2024-11-27T14:20:12.000Z</time>
      </trkpt>
      <trkpt lat="43.73136" lon="7.06853">
        <ele>723</ele>
        <time>2024-11-27T14:20:06.000Z</time>
      </trkpt>
      <trkpt lat="43.73134" lon="7.06842">
        <ele>724.4</ele>
      </trkpt>
      <trkpt lat="43.73139" lon="7.06839">
        <ele>727.5</ele>
      </trkpt>
      <trkpt lat="43.73146" lon="7.0684">
        <ele>730.1</ele>
      </trkpt>
      <trkpt lat="43.73164" lon="7.06832">
        <ele>739.2</ele>
      </trkpt>
      <trkpt lat="43.73143" lon="7.06801">
        <ele>743</ele>
        <time>2024-11-27T14:18:44.000Z</time>
      </trkpt>
      <trkpt lat="43.73141" lon="7.06771">
        <ele>751.7</ele>
      </trkpt>
      <trkpt lat="43.73145" lon="7.06742">
        <ele>758.3</ele>
      </trkpt>
      <trkpt lat="43.73165" lon="7.0675">
        <ele>763</ele>
        <time>2024-11-27T14:17:40.000Z</time>
      </trkpt>
      <trkpt lat="43.73171" lon="7.0674">
        <ele>763.3</ele>
        <time>2024-11-27T14:17:32.000Z</time>
      </trkpt>
      <trkpt lat="43.73178" lon="7.06731">
        <ele>764.5</ele>
        <time>2024-11-27T14:17:23.000Z</time>
      </trkpt>
      <trkpt lat="43.73182" lon="7.06719">
        <ele>768.6</ele>
        <time>2024-11-27T14:17:09.000Z</time>
      </trkpt>
      <trkpt lat="43.73188" lon="7.06709">
        <ele>769.7</ele>
        <time>2024-11-27T14:17:01.000Z</time>
      </trkpt>
      <trkpt lat="43.73195" lon="7.06702">
        <ele>771</ele>
        <time>2024-11-27T14:16:48.000Z</time>
      </trkpt>
      <trkpt lat="43.73203" lon="7.06693">
        <ele>771.3</ele>
        <time>2024-11-27T14:16:35.000Z</time>
      </trkpt>
      <trkpt lat="43.73203" lon="7.06693">
        <ele>771.4</ele>
        <time>2024-11-27T14:16:34.000Z</time>
      </trkpt>
      <trkpt lat="43.73204" lon="7.06693">
        <ele>771.4</ele>
        <time>2024-11-27T14:16:33.000Z</time>
      </trkpt>
      <trkpt lat="43.73204" lon="7.06692">
        <ele>771.4</ele>
        <time>2024-11-27T14:16:32.000Z</time>
      </trkpt>
      <trkpt lat="43.73204" lon="7.06691">
        <ele>771.5</ele>
        <time>2024-11-27T14:16:31.000Z</time>
      </trkpt>
      <trkpt lat="43.73205" lon="7.06691">
        <ele>771.6</ele>
        <time>2024-11-27T14:16:30.000Z</time>
      </trkpt>
      <trkpt lat="43.73204" lon="7.06688">
        <ele>774.9</ele>
        <time>2024-11-27T14:16:21.000Z</time>
      </trkpt>
      <trkpt lat="43.73208" lon="7.06676">
        <ele>777.4</ele>
        <time>2024-11-27T14:16:08.000Z</time>
      </trkpt>
      <trkpt lat="43.73214" lon="7.06667">
        <ele>780</ele>
        <time>2024-11-27T14:16:00.000Z</time>
      </trkpt>
      <trkpt lat="43.73219" lon="7.06656">
        <ele>783.2</ele>
        <time>2024-11-27T14:15:51.000Z</time>
      </trkpt>
      <trkpt lat="43.73228" lon="7.06658">
        <ele>784.1</ele>
        <time>2024-11-27T14:15:44.000Z</time>
      </trkpt>
      <trkpt lat="43.73252" lon="7.06656">
        <ele>786.7</ele>
      </trkpt>
      <trkpt lat="43.73285" lon="7.06627">
        <ele>795</ele>
      </trkpt>
      <trkpt lat="43.73304" lon="7.06598">
        <ele>801.6</ele>
      </trkpt>
      <trkpt lat="43.73319" lon="7.06605">
        <ele>804</ele>
      </trkpt>
      <trkpt lat="43.73337" lon="7.06632">
        <ele>805</ele>
      </trkpt>
      <trkpt lat="43.73354" lon="7.06641">
        <ele>809.8</ele>
        <time>2024-11-27T14:12:42.000Z</time>
      </trkpt>
      <trkpt lat="43.73355" lon="7.06642">
        <ele>809.9</ele>
        <time>2024-11-27T14:12:41.000Z</time>
      </trkpt>
      <trkpt lat="43.73355" lon="7.06642">
        <ele>809.9</ele>
        <time>2024-11-27T14:12:40.000Z</time>
      </trkpt>
      <trkpt lat="43.73356" lon="7.06642">
        <ele>809.9</ele>
        <time>2024-11-27T14:12:39.000Z</time>
      </trkpt>
      <trkpt lat="43.73383" lon="7.06658">
        <ele>811.2</ele>
      </trkpt>
      <trkpt lat="43.73395" lon="7.06642">
        <ele>822.7</ele>
        <time>2024-11-27T14:10:24.000Z</time>
      </trkpt>
      <trkpt lat="43.73402" lon="7.0665">
        <ele>822.9</ele>
        <time>2024-11-27T14:10:18.000Z</time>
      </trkpt>
      <trkpt lat="43.73408" lon="7.0666">
        <ele>823.8</ele>
        <time>2024-11-27T14:10:11.000Z</time>
      </trkpt>
      <trkpt lat="43.73414" lon="7.0667">
        <ele>824.7</ele>
        <time>2024-11-27T14:10:04.000Z</time>
      </trkpt>
      <trkpt lat="43.73418" lon="7.06682">
        <ele>825.8</ele>
        <time>2024-11-27T14:09:57.000Z</time>
      </trkpt>
      <trkpt lat="43.73424" lon="7.06692">
        <ele>826.4</ele>
        <time>2024-11-27T14:09:50.000Z</time>
      </trkpt>
      <trkpt lat="43.7343" lon="7.06703">
        <ele>826.7</ele>
        <time>2024-11-27T14:09:42.000Z</time>
      </trkpt>
      <trkpt lat="43.73436" lon="7.06713">
        <ele>827.1</ele>
        <time>2024-11-27T14:09:34.000Z</time>
      </trkpt>
      <trkpt lat="43.73445" lon="7.06719">
        <ele>827.3</ele>
        <time>2024-11-27T14:09:26.000Z</time>
      </trkpt>
      <trkpt lat="43.7345" lon="7.06729">
        <ele>827.2</ele>
        <time>2024-11-27T14:09:19.000Z</time>
      </trkpt>
      <trkpt lat="43.73454" lon="7.06741">
        <ele>827.1</ele>
        <time>2024-11-27T14:09:12.000Z</time>
      </trkpt>
      <trkpt lat="43.7346" lon="7.06751">
        <ele>826.1</ele>
        <time>2024-11-27T14:09:05.000Z</time>
      </trkpt>
      <trkpt lat="43.73465" lon="7.06762">
        <ele>824.4</ele>
        <time>2024-11-27T14:08:57.000Z</time>
      </trkpt>
      <trkpt lat="43.73468" lon="7.06774">
        <ele>823.8</ele>
        <time>2024-11-27T14:08:50.000Z</time>
      </trkpt>
      <trkpt lat="43.73473" lon="7.06786">
        <ele>823.7</ele>
        <time>2024-11-27T14:08:43.000Z</time>
      </trkpt>
      <trkpt lat="43.73477" lon="7.06797">
        <ele>823.7</ele>
        <time>2024-11-27T14:08:36.000Z</time>
      </trkpt>
      <trkpt lat="43.73485" lon="7.06807">
        <ele>823.8</ele>
        <time>2024-11-27T14:08:28.000Z</time>
      </trkpt>
      <trkpt lat="43.73492" lon="7.06814">
        <ele>823.7</ele>
        <time>2024-11-27T14:08:21.000Z</time>
      </trkpt>
      <trkpt lat="43.73499" lon="7.06823">
        <ele>823.6</ele>
        <time>2024-11-27T14:08:13.000Z</time>
      </trkpt>
      <trkpt lat="43.73507" lon="7.06832">
        <ele>823.6</ele>
        <time>2024-11-27T14:08:05.000Z</time>
      </trkpt>
      <trkpt lat="43.73514" lon="7.06839">
        <ele>823.7</ele>
        <time>2024-11-27T14:07:58.000Z</time>
      </trkpt>
      <trkpt lat="43.73522" lon="7.06845">
        <ele>823.7</ele>
        <time>2024-11-27T14:07:51.000Z</time>
      </trkpt>
      <trkpt lat="43.7353" lon="7.06852">
        <ele>824.7</ele>
        <time>2024-11-27T14:07:44.000Z</time>
      </trkpt>
      <trkpt lat="43.73538" lon="7.06857">
        <ele>826.6</ele>
        <time>2024-11-27T14:07:36.000Z</time>
      </trkpt>
      <trkpt lat="43.73545" lon="7.06867">
        <ele>824.1</ele>
        <time>2024-11-27T14:07:26.000Z</time>
      </trkpt>
      <trkpt lat="43.73547" lon="7.0688">
        <ele>823.3</ele>
        <time>2024-11-27T14:07:21.000Z</time>
      </trkpt>
      <trkpt lat="43.7355" lon="7.06892">
        <ele>822.7</ele>
        <time>2024-11-27T14:07:14.000Z</time>
      </trkpt>
      <trkpt lat="43.73556" lon="7.06902">
        <ele>822.6</ele>
        <time>2024-11-27T14:07:08.000Z</time>
      </trkpt>
      <trkpt lat="43.73559" lon="7.06915">
        <ele>822.8</ele>
        <time>2024-11-27T14:07:01.000Z</time>
      </trkpt>
      <trkpt lat="43.73563" lon="7.06926">
        <ele>822.8</ele>
        <time>2024-11-27T14:06:52.000Z</time>
      </trkpt>
      <trkpt lat="43.73565" lon="7.06939">
        <ele>822.9</ele>
        <time>2024-11-27T14:06:45.000Z</time>
      </trkpt>
      <trkpt lat="43.73568" lon="7.06951">
        <ele>823.1</ele>
        <time>2024-11-27T14:06:38.000Z</time>
      </trkpt>
      <trkpt lat="43.73576" lon="7.06959">
        <ele>823.7</ele>
        <time>2024-11-27T14:06:30.000Z</time>
      </trkpt>
      <trkpt lat="43.73583" lon="7.06968">
        <ele>823.7</ele>
        <time>2024-11-27T14:06:22.000Z</time>
      </trkpt>
      <trkpt lat="43.73591" lon="7.06973">
        <ele>823.7</ele>
        <time>2024-11-27T14:06:15.000Z</time>
      </trkpt>
      <trkpt lat="43.73601" lon="7.06978">
        <ele>823.9</ele>
        <time>2024-11-27T14:06:07.000Z</time>
      </trkpt>
      <trkpt lat="43.7361" lon="7.06982">
        <ele>824.4</ele>
        <time>2024-11-27T14:06:00.000Z</time>
      </trkpt>
      <trkpt lat="43.7362" lon="7.06983">
        <ele>825.4</ele>
        <time>2024-11-27T14:05:53.000Z</time>
      </trkpt>
      <trkpt lat="43.7363" lon="7.06985">
        <ele>826.2</ele>
        <time>2024-11-27T14:05:46.000Z</time>
      </trkpt>
      <trkpt lat="43.7364" lon="7.06983">
        <ele>826.9</ele>
        <time>2024-11-27T14:05:39.000Z</time>
      </trkpt>
      <trkpt lat="43.73649" lon="7.06985">
        <ele>827</ele>
        <time>2024-11-27T14:05:31.000Z</time>
      </trkpt>
      <trkpt lat="43.73659" lon="7.06986">
        <ele>827.1</ele>
        <time>2024-11-27T14:05:24.000Z</time>
      </trkpt>
      <trkpt lat="43.73669" lon="7.06989">
        <ele>828.9</ele>
        <time>2024-11-27T14:05:17.000Z</time>
      </trkpt>
      <trkpt lat="43.73678" lon="7.06996">
        <ele>831.1</ele>
        <time>2024-11-27T14:05:10.000Z</time>
      </trkpt>
      <trkpt lat="43.73686" lon="7.06999">
        <ele>832.1</ele>
        <time>2024-11-27T14:04:59.000Z</time>
      </trkpt>
      <trkpt lat="43.73694" lon="7.07007">
        <ele>831.3</ele>
        <time>2024-11-27T14:04:50.000Z</time>
      </trkpt>
      <trkpt lat="43.737" lon="7.07017">
        <ele>830</ele>
        <time>2024-11-27T14:04:41.000Z</time>
      </trkpt>
      <trkpt lat="43.7371" lon="7.0702">
        <ele>825.1</ele>
        <time>2024-11-27T14:04:31.000Z</time>
      </trkpt>
      <trkpt lat="43.73711" lon="7.0702">
        <ele>824.4</ele>
        <time>2024-11-27T14:04:30.000Z</time>
      </trkpt>
      <trkpt lat="43.73711" lon="7.0702">
        <ele>823.7</ele>
        <time>2024-11-27T14:04:29.000Z</time>
      </trkpt>
      <trkpt lat="43.73715" lon="7.07024">
        <ele>820.3</ele>
        <time>2024-11-27T14:04:14.000Z</time>
      </trkpt>
      <trkpt lat="43.73715" lon="7.07024">
        <ele>820.2</ele>
        <time>2024-11-27T14:04:13.000Z</time>
      </trkpt>
      <trkpt lat="43.73715" lon="7.07024">
        <ele>820.2</ele>
        <time>2024-11-27T14:04:12.000Z</time>
      </trkpt>
      <trkpt lat="43.73715" lon="7.07024">
        <ele>820.1</ele>
        <time>2024-11-27T14:04:11.000Z</time>
      </trkpt>
      <trkpt lat="43.73715" lon="7.07024">
        <ele>820</ele>
        <time>2024-11-27T14:04:10.000Z</time>
      </trkpt>
      <trkpt lat="43.73715" lon="7.07024">
        <ele>820</ele>
        <time>2024-11-27T14:04:09.000Z</time>
      </trkpt>
      <trkpt lat="43.73715" lon="7.07024">
        <ele>819.9</ele>
        <time>2024-11-27T14:04:08.000Z</time>
      </trkpt>
      <trkpt lat="43.73716" lon="7.07024">
        <ele>819.8</ele>
        <time>2024-11-27T14:04:07.000Z</time>
      </trkpt>
      <trkpt lat="43.73721" lon="7.07022">
        <ele>819.4</ele>
        <time>2024-11-27T14:03:57.000Z</time>
      </trkpt>
      <trkpt lat="43.7373" lon="7.07021">
        <ele>819.4</ele>
        <time>2024-11-27T14:03:47.000Z</time>
      </trkpt>
      <trkpt lat="43.73731" lon="7.07021">
        <ele>819.4</ele>
        <time>2024-11-27T14:03:46.000Z</time>
      </trkpt>
      <trkpt lat="43.73732" lon="7.07022">
        <ele>819.5</ele>
        <time>2024-11-27T14:03:45.000Z</time>
      </trkpt>
      <trkpt lat="43.73733" lon="7.07022">
        <ele>820</ele>
        <time>2024-11-27T14:03:39.000Z</time>
      </trkpt>
      <trkpt lat="43.73732" lon="7.07022">
        <ele>820</ele>
        <time>2024-11-27T14:03:38.000Z</time>
      </trkpt>
      <trkpt lat="43.73732" lon="7.07022">
        <ele>820.1</ele>
        <time>2024-11-27T14:03:37.000Z</time>
      </trkpt>
      <trkpt lat="43.73732" lon="7.07022">
        <ele>820.2</ele>
        <time>2024-11-27T14:03:36.000Z</time>
      </trkpt>
      <trkpt lat="43.73732" lon="7.07022">
        <ele>820.3</ele>
        <time>2024-11-27T14:03:35.000Z</time>
      </trkpt>
      <trkpt lat="43.73733" lon="7.07022">
        <ele>820.4</ele>
        <time>2024-11-27T14:03:34.000Z</time>
      </trkpt>
      <trkpt lat="43.73733" lon="7.07022">
        <ele>820.5</ele>
        <time>2024-11-27T14:03:33.000Z</time>
      </trkpt>
      <trkpt lat="43.73727" lon="7.0702">
        <ele>821.1</ele>
        <time>2024-11-27T14:03:19.000Z</time>
      </trkpt>
      <trkpt lat="43.73718" lon="7.07023">
        <ele>820.1</ele>
        <time>2024-11-27T14:03:03.000Z</time>
      </trkpt>
      <trkpt lat="43.73727" lon="7.07022">
        <ele>818.2</ele>
        <time>2024-11-27T14:02:52.000Z</time>
      </trkpt>
      <trkpt lat="43.73737" lon="7.07021">
        <ele>817.6</ele>
        <time>2024-11-27T14:02:43.000Z</time>
      </trkpt>
      <trkpt lat="43.73745" lon="7.07019">
        <ele>817.3</ele>
        <time>2024-11-27T14:02:35.000Z</time>
      </trkpt>
      <trkpt lat="43.73755" lon="7.07015">
        <ele>816.9</ele>
        <time>2024-11-27T14:02:26.000Z</time>
      </trkpt>
      <trkpt lat="43.73764" lon="7.07019">
        <ele>816.8</ele>
        <time>2024-11-27T14:02:17.000Z</time>
      </trkpt>
      <trkpt lat="43.73765" lon="7.07019">
        <ele>816.8</ele>
        <time>2024-11-27T14:02:16.000Z</time>
      </trkpt>
      <trkpt lat="43.73768" lon="7.07022">
        <ele>816.9</ele>
        <time>2024-11-27T14:02:12.000Z</time>
      </trkpt>
      <trkpt lat="43.73768" lon="7.07022">
        <ele>816.9</ele>
        <time>2024-11-27T14:02:11.000Z</time>
      </trkpt>
      <trkpt lat="43.73766" lon="7.0702">
        <ele>817.2</ele>
        <time>2024-11-27T14:02:04.000Z</time>
      </trkpt>
      <trkpt lat="43.7376" lon="7.07011">
        <ele>818.4</ele>
        <time>2024-11-27T14:01:55.000Z</time>
      </trkpt>
      <trkpt lat="43.73752" lon="7.07004">
        <ele>820.5</ele>
        <time>2024-11-27T14:01:48.000Z</time>
      </trkpt>
      <trkpt lat="43.73745" lon="7.06995">
        <ele>822.4</ele>
        <time>2024-11-27T14:01:41.000Z</time>
      </trkpt>
      <trkpt lat="43.73741" lon="7.06981">
        <ele>826</ele>
        <time>2024-11-27T14:01:34.000Z</time>
      </trkpt>
      <trkpt lat="43.73735" lon="7.0697">
        <ele>828.5</ele>
        <time>2024-11-27T14:01:26.000Z</time>
      </trkpt>
      <trkpt lat="43.73734" lon="7.06957">
        <ele>830.4</ele>
        <time>2024-11-27T14:01:18.000Z</time>
      </trkpt>
      <trkpt lat="43.73734" lon="7.06943">
        <ele>831.9</ele>
        <time>2024-11-27T14:01:11.000Z</time>
      </trkpt>
      <trkpt lat="43.73738" lon="7.06932">
        <ele>832.6</ele>
        <time>2024-11-27T14:01:04.000Z</time>
      </trkpt>
      <trkpt lat="43.73742" lon="7.06919">
        <ele>833.2</ele>
        <time>2024-11-27T14:00:53.000Z</time>
      </trkpt>
      <trkpt lat="43.73747" lon="7.06908">
        <ele>833.6</ele>
        <time>2024-11-27T14:00:45.000Z</time>
      </trkpt>
      <trkpt lat="43.73742" lon="7.06896">
        <ele>834.9</ele>
        <time>2024-11-27T14:00:37.000Z</time>
      </trkpt>
      <trkpt lat="43.73751" lon="7.06889">
        <ele>837.1</ele>
        <time>2024-11-27T14:00:27.000Z</time>
      </trkpt>
      <trkpt lat="43.73751" lon="7.06886">
        <ele>836.9</ele>
        <time>2024-11-27T14:00:04.000Z</time>
      </trkpt>
      <trkpt lat="43.73751" lon="7.06886">
        <ele>837</ele>
        <time>2024-11-27T14:00:03.000Z</time>
      </trkpt>
      <trkpt lat="43.73751" lon="7.06886">
        <ele>836.9</ele>
        <time>2024-11-27T14:00:02.000Z</time>
      </trkpt>
      <trkpt lat="43.73751" lon="7.06885">
        <ele>836.2</ele>
        <time>2024-11-27T13:59:54.000Z</time>
      </trkpt>
      <trkpt lat="43.73751" lon="7.06885">
        <ele>836</ele>
        <time>2024-11-27T13:59:53.000Z</time>
      </trkpt>
      <trkpt lat="43.73751" lon="7.06885">
        <ele>835.9</ele>
        <time>2024-11-27T13:59:52.000Z</time>
      </trkpt>
      <trkpt lat="43.73751" lon="7.06885">
        <ele>835.7</ele>
        <time>2024-11-27T13:59:51.000Z</time>
      </trkpt>
      <trkpt lat="43.73751" lon="7.06885">
        <ele>835.5</ele>
        <time>2024-11-27T13:59:50.000Z</time>
      </trkpt>
      <trkpt lat="43.73751" lon="7.06885">
        <ele>835.3</ele>
        <time>2024-11-27T13:59:49.000Z</time>
      </trkpt>
      <trkpt lat="43.73751" lon="7.06885">
        <ele>835.1</ele>
        <time>2024-11-27T13:59:48.000Z</time>
      </trkpt>
      <trkpt lat="43.73751" lon="7.06885">
        <ele>834.8</ele>
        <time>2024-11-27T13:59:47.000Z</time>
      </trkpt>
      <trkpt lat="43.73753" lon="7.06885">
        <ele>833.4</ele>
        <time>2024-11-27T13:59:32.000Z</time>
      </trkpt>
      <trkpt lat="43.73753" lon="7.06885">
        <ele>833.4</ele>
        <time>2024-11-27T13:59:31.000Z</time>
      </trkpt>
      <trkpt lat="43.73753" lon="7.06885">
        <ele>833.4</ele>
        <time>2024-11-27T13:59:30.000Z</time>
      </trkpt>
      <trkpt lat="43.73753" lon="7.06887">
        <ele>833.4</ele>
        <time>2024-11-27T13:59:24.000Z</time>
      </trkpt>
      <trkpt lat="43.73753" lon="7.06887">
        <ele>833.4</ele>
        <time>2024-11-27T13:59:23.000Z</time>
      </trkpt>
      <trkpt lat="43.73754" lon="7.06887">
        <ele>833.5</ele>
        <time>2024-11-27T13:59:16.000Z</time>
      </trkpt>
      <trkpt lat="43.73754" lon="7.06886">
        <ele>833.6</ele>
        <time>2024-11-27T13:59:15.000Z</time>
      </trkpt>
      <trkpt lat="43.73754" lon="7.06886">
        <ele>834.4</ele>
        <time>2024-11-27T13:59:10.000Z</time>
      </trkpt>
      <trkpt lat="43.73763" lon="7.0688">
        <ele>837.1</ele>
        <time>2024-11-27T13:59:01.000Z</time>
      </trkpt>
      <trkpt lat="43.73763" lon="7.0688">
        <ele>837.5</ele>
        <time>2024-11-27T13:59:00.000Z</time>
      </trkpt>
      <trkpt lat="43.73764" lon="7.06879">
        <ele>837.8</ele>
        <time>2024-11-27T13:58:59.000Z</time>
      </trkpt>
      <trkpt lat="43.73765" lon="7.06879">
        <ele>838.1</ele>
        <time>2024-11-27T13:58:58.000Z</time>
      </trkpt>
      <trkpt lat="43.73773" lon="7.06876">
        <ele>841.4</ele>
        <time>2024-11-27T13:58:45.000Z</time>
      </trkpt>
      <trkpt lat="43.73783" lon="7.06876">
        <ele>842.2</ele>
        <time>2024-11-27T13:58:36.000Z</time>
      </trkpt>
      <trkpt lat="43.73784" lon="7.06875">
        <ele>842.2</ele>
        <time>2024-11-27T13:58:35.000Z</time>
      </trkpt>
      <trkpt lat="43.73787" lon="7.06875">
        <ele>842.3</ele>
        <time>2024-11-27T13:58:29.000Z</time>
      </trkpt>
      <trkpt lat="43.73787" lon="7.06875">
        <ele>842.3</ele>
        <time>2024-11-27T13:58:28.000Z</time>
      </trkpt>
      <trkpt lat="43.73788" lon="7.06875">
        <ele>843.1</ele>
        <time>2024-11-27T13:58:18.000Z</time>
      </trkpt>
      <trkpt lat="43.73797" lon="7.06875">
        <ele>845.5</ele>
        <time>2024-11-27T13:58:06.000Z</time>
      </trkpt>
      <trkpt lat="43.73807" lon="7.06875">
        <ele>848.9</ele>
        <time>2024-11-27T13:57:57.000Z</time>
      </trkpt>
      <trkpt lat="43.73816" lon="7.06875">
        <ele>849.7</ele>
        <time>2024-11-27T13:57:47.000Z</time>
      </trkpt>
      <trkpt lat="43.73817" lon="7.06875">
        <ele>849.7</ele>
        <time>2024-11-27T13:57:46.000Z</time>
      </trkpt>
      <trkpt lat="43.73818" lon="7.06874">
        <ele>849.7</ele>
        <time>2024-11-27T13:57:45.000Z</time>
      </trkpt>
      <trkpt lat="43.7382" lon="7.06876">
        <ele>852.3</ele>
        <time>2024-11-27T13:57:21.000Z</time>
      </trkpt>
      <trkpt lat="43.7382" lon="7.06876">
        <ele>852.6</ele>
        <time>2024-11-27T13:57:20.000Z</time>
      </trkpt>
      <trkpt lat="43.73828" lon="7.06877">
        <ele>855.3</ele>
        <time>2024-11-27T13:57:06.000Z</time>
      </trkpt>
      <trkpt lat="43.73837" lon="7.06877">
        <ele>857.8</ele>
        <time>2024-11-27T13:56:58.000Z</time>
      </trkpt>
      <trkpt lat="43.73847" lon="7.06876">
        <ele>860.2</ele>
        <time>2024-11-27T13:56:50.000Z</time>
      </trkpt>
      <trkpt lat="43.73856" lon="7.06879">
        <ele>862.7</ele>
        <time>2024-11-27T13:56:42.000Z</time>
      </trkpt>
      <trkpt lat="43.73865" lon="7.06878">
        <ele>865.5</ele>
        <time>2024-11-27T13:56:34.000Z</time>
      </trkpt>
      <trkpt lat="43.73875" lon="7.06879">
        <ele>867.6</ele>
        <time>2024-11-27T13:56:25.000Z</time>
      </trkpt>
      <trkpt lat="43.73884" lon="7.06877">
        <ele>868.5</ele>
        <time>2024-11-27T13:56:16.000Z</time>
      </trkpt>
      <trkpt lat="43.73893" lon="7.06875">
        <ele>868.7</ele>
        <time>2024-11-27T13:56:09.000Z</time>
      </trkpt>
      <trkpt lat="43.73903" lon="7.06873">
        <ele>869.2</ele>
        <time>2024-11-27T13:55:58.000Z</time>
      </trkpt>
      <trkpt lat="43.73912" lon="7.06871">
        <ele>869.3</ele>
        <time>2024-11-27T13:55:50.000Z</time>
      </trkpt>
      <trkpt lat="43.73921" lon="7.06868">
        <ele>869.1</ele>
        <time>2024-11-27T13:55:43.000Z</time>
      </trkpt>
      <trkpt lat="43.73932" lon="7.06866">
        <ele>868.8</ele>
        <time>2024-11-27T13:55:35.000Z</time>
      </trkpt>
      <trkpt lat="43.73941" lon="7.06866">
        <ele>868.7</ele>
        <time>2024-11-27T13:55:27.000Z</time>
      </trkpt>
      <trkpt lat="43.7395" lon="7.06863">
        <ele>869</ele>
        <time>2024-11-27T13:55:19.000Z</time>
      </trkpt>
      <trkpt lat="43.7396" lon="7.06859">
        <ele>869.2</ele>
        <time>2024-11-27T13:55:11.000Z</time>
      </trkpt>
      <trkpt lat="43.73969" lon="7.06855">
        <ele>869.3</ele>
        <time>2024-11-27T13:55:04.000Z</time>
      </trkpt>
      <trkpt lat="43.73978" lon="7.0685">
        <ele>869.2</ele>
        <time>2024-11-27T13:54:56.000Z</time>
      </trkpt>
      <trkpt lat="43.73987" lon="7.06846">
        <ele>869.2</ele>
        <time>2024-11-27T13:54:48.000Z</time>
      </trkpt>
      <trkpt lat="43.73996" lon="7.0684">
        <ele>869.1</ele>
        <time>2024-11-27T13:54:41.000Z</time>
      </trkpt>
      <trkpt lat="43.74004" lon="7.06835">
        <ele>869.3</ele>
        <time>2024-11-27T13:54:34.000Z</time>
      </trkpt>
      <trkpt lat="43.74012" lon="7.06827">
        <ele>869.3</ele>
        <time>2024-11-27T13:54:26.000Z</time>
      </trkpt>
      <trkpt lat="43.7402" lon="7.06822">
        <ele>870.1</ele>
        <time>2024-11-27T13:54:17.000Z</time>
      </trkpt>
      <trkpt lat="43.74029" lon="7.06817">
        <ele>871.1</ele>
        <time>2024-11-27T13:54:09.000Z</time>
      </trkpt>
      <trkpt lat="43.74036" lon="7.06809">
        <ele>871.8</ele>
        <time>2024-11-27T13:54:01.000Z</time>
      </trkpt>
      <trkpt lat="43.74044" lon="7.06802">
        <ele>873.2</ele>
        <time>2024-11-27T13:53:52.000Z</time>
      </trkpt>
      <trkpt lat="43.7405" lon="7.06792">
        <ele>874.8</ele>
        <time>2024-11-27T13:53:44.000Z</time>
      </trkpt>
      <trkpt lat="43.74051" lon="7.06778">
        <ele>876.6</ele>
        <time>2024-11-27T13:53:35.000Z</time>
      </trkpt>
      <trkpt lat="43.74054" lon="7.06765">
        <ele>877.4</ele>
        <time>2024-11-27T13:53:22.000Z</time>
      </trkpt>
      <trkpt lat="43.74054" lon="7.06764">
        <ele>877.5</ele>
        <time>2024-11-27T13:53:21.000Z</time>
      </trkpt>
      <trkpt lat="43.74054" lon="7.06764">
        <ele>877.5</ele>
        <time>2024-11-27T13:53:20.000Z</time>
      </trkpt>
      <trkpt lat="43.7405" lon="7.06764">
        <ele>882.5</ele>
        <time>2024-11-27T13:53:05.000Z</time>
      </trkpt>
      <trkpt lat="43.74042" lon="7.06758">
        <ele>888.2</ele>
        <time>2024-11-27T13:52:53.000Z</time>
      </trkpt>
      <trkpt lat="43.74033" lon="7.06761">
        <ele>893</ele>
        <time>2024-11-27T13:52:41.000Z</time>
      </trkpt>
      <trkpt lat="43.74024" lon="7.06758">
        <ele>900</ele>
        <time>2024-11-27T13:52:26.000Z</time>
      </trkpt>
      <trkpt lat="43.74015" lon="7.06758">
        <ele>905</ele>
        <time>2024-11-27T13:52:15.000Z</time>
      </trkpt>
      <trkpt lat="43.74006" lon="7.06755">
        <ele>909.9</ele>
        <time>2024-11-27T13:52:02.000Z</time>
      </trkpt>
      <trkpt lat="43.73997" lon="7.06748">
        <ele>914.2</ele>
        <time>2024-11-27T13:51:52.000Z</time>
      </trkpt>
      <trkpt lat="43.73988" lon="7.06744">
        <ele>918.5</ele>
        <time>2024-11-27T13:51:37.000Z</time>
      </trkpt>
      <trkpt lat="43.73979" lon="7.06738">
        <ele>923.1</ele>
        <time>2024-11-27T13:51:26.000Z</time>
      </trkpt>
      <trkpt lat="43.73972" lon="7.0673">
        <ele>929.1</ele>
        <time>2024-11-27T13:51:15.000Z</time>
      </trkpt>
      <trkpt lat="43.73965" lon="7.06721">
        <ele>933.9</ele>
        <time>2024-11-27T13:51:05.000Z</time>
      </trkpt>
      <trkpt lat="43.73958" lon="7.06713">
        <ele>937.5</ele>
        <time>2024-11-27T13:50:55.000Z</time>
      </trkpt>
      <trkpt lat="43.73949" lon="7.06707">
        <ele>940</ele>
        <time>2024-11-27T13:50:44.000Z</time>
      </trkpt>
      <trkpt lat="43.73942" lon="7.06699">
        <ele>943.4</ele>
        <time>2024-11-27T13:50:32.000Z</time>
      </trkpt>
      <trkpt lat="43.73936" lon="7.06688">
        <ele>945.8</ele>
        <time>2024-11-27T13:50:21.000Z</time>
      </trkpt>
      <trkpt lat="43.73932" lon="7.06677">
        <ele>949</ele>
        <time>2024-11-27T13:50:07.000Z</time>
      </trkpt>
      <trkpt lat="43.73926" lon="7.06666">
        <ele>951.9</ele>
        <time>2024-11-27T13:49:55.000Z</time>
      </trkpt>
      <trkpt lat="43.73922" lon="7.06655">
        <ele>955.2</ele>
        <time>2024-11-27T13:49:43.000Z</time>
      </trkpt>
      <trkpt lat="43.73913" lon="7.06648">
        <ele>958.5</ele>
        <time>2024-11-27T13:49:24.000Z</time>
      </trkpt>
      <trkpt lat="43.73908" lon="7.06637">
        <ele>962.4</ele>
        <time>2024-11-27T13:49:10.000Z</time>
      </trkpt>
      <trkpt lat="43.73901" lon="7.06629">
        <ele>967</ele>
        <time>2024-11-27T13:48:56.000Z</time>
      </trkpt>
      <trkpt lat="43.73892" lon="7.06626">
        <ele>970.5</ele>
        <time>2024-11-27T13:48:45.000Z</time>
      </trkpt>
      <trkpt lat="43.73883" lon="7.0662">
        <ele>974.1</ele>
        <time>2024-11-27T13:48:33.000Z</time>
      </trkpt>
      <trkpt lat="43.73878" lon="7.06609">
        <ele>977.3</ele>
        <time>2024-11-27T13:48:22.000Z</time>
      </trkpt>
      <trkpt lat="43.73872" lon="7.06599">
        <ele>979.4</ele>
        <time>2024-11-27T13:48:11.000Z</time>
      </trkpt>
      <trkpt lat="43.73864" lon="7.06592">
        <ele>982</ele>
        <time>2024-11-27T13:48:00.000Z</time>
      </trkpt>
      <trkpt lat="43.73857" lon="7.06583">
        <ele>984.8</ele>
        <time>2024-11-27T13:47:49.000Z</time>
      </trkpt>
      <trkpt lat="43.7385" lon="7.06575">
        <ele>985.3</ele>
        <time>2024-11-27T13:47:39.000Z</time>
      </trkpt>
      <trkpt lat="43.73844" lon="7.06564">
        <ele>985.4</ele>
        <time>2024-11-27T13:47:31.000Z</time>
      </trkpt>
      <trkpt lat="43.73838" lon="7.06556">
        <ele>985.4</ele>
        <time>2024-11-27T13:47:23.000Z</time>
      </trkpt>
      <trkpt lat="43.73836" lon="7.06543">
        <ele>986.4</ele>
        <time>2024-11-27T13:47:12.000Z</time>
      </trkpt>
      <trkpt lat="43.73844" lon="7.06537">
        <ele>988</ele>
        <time>2024-11-27T13:47:03.000Z</time>
      </trkpt>
      <trkpt lat="43.73851" lon="7.06528">
        <ele>992.9</ele>
        <time>2024-11-27T13:46:49.000Z</time>
      </trkpt>
      <trkpt lat="43.73851" lon="7.06515">
        <ele>997</ele>
        <time>2024-11-27T13:46:32.000Z</time>
      </trkpt>
      <trkpt lat="43.73854" lon="7.06503">
        <ele>1002.8</ele>
        <time>2024-11-27T13:46:15.000Z</time>
      </trkpt>
      <trkpt lat="43.73858" lon="7.06491">
        <ele>1006.7</ele>
        <time>2024-11-27T13:45:55.000Z</time>
      </trkpt>
      <trkpt lat="43.73858" lon="7.0649">
        <ele>1006.8</ele>
        <time>2024-11-27T13:45:54.000Z</time>
      </trkpt>
      <trkpt lat="43.73858" lon="7.0649">
        <ele>1006.9</ele>
        <time>2024-11-27T13:45:53.000Z</time>
      </trkpt>
      <trkpt lat="43.73855" lon="7.06481">
        <ele>1009</ele>
        <time>2024-11-27T13:45:27.000Z</time>
      </trkpt>
      <trkpt lat="43.73855" lon="7.0648">
        <ele>1009</ele>
        <time>2024-11-27T13:45:26.000Z</time>
      </trkpt>
      <trkpt lat="43.73855" lon="7.06479">
        <ele>1009.6</ele>
        <time>2024-11-27T13:45:20.000Z</time>
      </trkpt>
      <trkpt lat="43.73855" lon="7.06479">
        <ele>1009.7</ele>
        <time>2024-11-27T13:45:19.000Z</time>
      </trkpt>
      <trkpt lat="43.73855" lon="7.06479">
        <ele>1009.9</ele>
        <time>2024-11-27T13:45:18.000Z</time>
      </trkpt>
      <trkpt lat="43.73855" lon="7.06475">
        <ele>1012.5</ele>
        <time>2024-11-27T13:45:08.000Z</time>
      </trkpt>
      <trkpt lat="43.73853" lon="7.06462">
        <ele>1014.3</ele>
        <time>2024-11-27T13:44:58.000Z</time>
      </trkpt>
      <trkpt lat="43.73851" lon="7.0645">
        <ele>1015.7</ele>
        <time>2024-11-27T13:44:49.000Z</time>
      </trkpt>
      <trkpt lat="43.73849" lon="7.06437">
        <ele>1016.2</ele>
        <time>2024-11-27T13:44:37.000Z</time>
      </trkpt>
      <trkpt lat="43.73843" lon="7.06426">
        <ele>1016.1</ele>
        <time>2024-11-27T13:44:22.000Z</time>
      </trkpt>
      <trkpt lat="43.73838" lon="7.06415">
        <ele>1015.1</ele>
        <time>2024-11-27T13:44:12.000Z</time>
      </trkpt>
      <trkpt lat="43.73829" lon="7.06411">
        <ele>1015.1</ele>
        <time>2024-11-27T13:44:02.000Z</time>
      </trkpt>
      <trkpt lat="43.73825" lon="7.06399">
        <ele>1015.3</ele>
        <time>2024-11-27T13:43:54.000Z</time>
      </trkpt>
      <trkpt lat="43.73819" lon="7.06388">
        <ele>1015.5</ele>
        <time>2024-11-27T13:43:45.000Z</time>
      </trkpt>
      <trkpt lat="43.73815" lon="7.06376">
        <ele>1015.7</ele>
        <time>2024-11-27T13:43:37.000Z</time>
      </trkpt>
      <trkpt lat="43.73811" lon="7.06363">
        <ele>1016.1</ele>
        <time>2024-11-27T13:43:29.000Z</time>
      </trkpt>
      <trkpt lat="43.73806" lon="7.0635">
        <ele>1016.4</ele>
        <time>2024-11-27T13:43:21.000Z</time>
      </trkpt>
      <trkpt lat="43.73803" lon="7.06338">
        <ele>1016.5</ele>
        <time>2024-11-27T13:43:13.000Z</time>
      </trkpt>
      <trkpt lat="43.738" lon="7.06324">
        <ele>1016.6</ele>
        <time>2024-11-27T13:43:04.000Z</time>
      </trkpt>
      <trkpt lat="43.73801" lon="7.06311">
        <ele>1016.4</ele>
        <time>2024-11-27T13:42:56.000Z</time>
      </trkpt>
      <trkpt lat="43.73801" lon="7.0631">
        <ele>1016.3</ele>
        <time>2024-11-27T13:42:55.000Z</time>
      </trkpt>
      <trkpt lat="43.73801" lon="7.06308">
        <ele>1013.6</ele>
        <time>2024-11-27T13:42:06.000Z</time>
      </trkpt>
      <trkpt lat="43.73801" lon="7.06307">
        <ele>1013.5</ele>
        <time>2024-11-27T13:42:05.000Z</time>
      </trkpt>
      <trkpt lat="43.738" lon="7.06307">
        <ele>1013.1</ele>
        <time>2024-11-27T13:41:58.000Z</time>
      </trkpt>
      <trkpt lat="43.73797" lon="7.06294">
        <ele>1012.3</ele>
        <time>2024-11-27T13:41:45.000Z</time>
      </trkpt>
      <trkpt lat="43.73793" lon="7.06282">
        <ele>1011.5</ele>
        <time>2024-11-27T13:41:35.000Z</time>
      </trkpt>
      <trkpt lat="43.73788" lon="7.0627">
        <ele>1010.8</ele>
        <time>2024-11-27T13:41:25.000Z</time>
      </trkpt>
      <trkpt lat="43.73784" lon="7.06258">
        <ele>1010.4</ele>
        <time>2024-11-27T13:41:16.000Z</time>
      </trkpt>
      <trkpt lat="43.73783" lon="7.06245">
        <ele>1009.9</ele>
        <time>2024-11-27T13:41:07.000Z</time>
      </trkpt>
      <trkpt lat="43.73779" lon="7.06234">
        <ele>1009.2</ele>
        <time>2024-11-27T13:40:58.000Z</time>
      </trkpt>
      <trkpt lat="43.73775" lon="7.06221">
        <ele>1007.8</ele>
        <time>2024-11-27T13:40:48.000Z</time>
      </trkpt>
      <trkpt lat="43.73773" lon="7.06208">
        <ele>1007.2</ele>
        <time>2024-11-27T13:40:39.000Z</time>
      </trkpt>
      <trkpt lat="43.73771" lon="7.06195">
        <ele>1005.6</ele>
        <time>2024-11-27T13:40:27.000Z</time>
      </trkpt>
      <trkpt lat="43.73771" lon="7.06182">
        <ele>1004.7</ele>
        <time>2024-11-27T13:40:18.000Z</time>
      </trkpt>
      <trkpt lat="43.73767" lon="7.0617">
        <ele>1003.8</ele>
        <time>2024-11-27T13:40:08.000Z</time>
      </trkpt>
      <trkpt lat="43.73764" lon="7.06157">
        <ele>1002.5</ele>
        <time>2024-11-27T13:39:58.000Z</time>
      </trkpt>
      <trkpt lat="43.73762" lon="7.06144">
        <ele>1001</ele>
        <time>2024-11-27T13:39:49.000Z</time>
      </trkpt>
      <trkpt lat="43.73756" lon="7.06134">
        <ele>1000.2</ele>
        <time>2024-11-27T13:39:41.000Z</time>
      </trkpt>
      <trkpt lat="43.73753" lon="7.06121">
        <ele>999.6</ele>
        <time>2024-11-27T13:39:33.000Z</time>
      </trkpt>
      <trkpt lat="43.73751" lon="7.06108">
        <ele>999.5</ele>
        <time>2024-11-27T13:39:25.000Z</time>
      </trkpt>
      <trkpt lat="43.7375" lon="7.06095">
        <ele>999.5</ele>
        <time>2024-11-27T13:39:16.000Z</time>
      </trkpt>
      <trkpt lat="43.73745" lon="7.06083">
        <ele>999.9</ele>
        <time>2024-11-27T13:39:08.000Z</time>
      </trkpt>
      <trkpt lat="43.73742" lon="7.0607">
        <ele>1000</ele>
        <time>2024-11-27T13:38:59.000Z</time>
      </trkpt>
      <trkpt lat="43.73737" lon="7.06059">
        <ele>999.7</ele>
        <time>2024-11-27T13:38:51.000Z</time>
      </trkpt>
      <trkpt lat="43.73736" lon="7.06046">
        <ele>998.9</ele>
        <time>2024-11-27T13:38:43.000Z</time>
      </trkpt>
      <trkpt lat="43.73734" lon="7.06033">
        <ele>997.9</ele>
        <time>2024-11-27T13:38:35.000Z</time>
      </trkpt>
      <trkpt lat="43.73734" lon="7.0602">
        <ele>997.7</ele>
        <time>2024-11-27T13:38:28.000Z</time>
      </trkpt>
      <trkpt lat="43.73736" lon="7.06006">
        <ele>997.5</ele>
        <time>2024-11-27T13:38:19.000Z</time>
      </trkpt>
      <trkpt lat="43.73738" lon="7.05993">
        <ele>996.6</ele>
        <time>2024-11-27T13:38:11.000Z</time>
      </trkpt>
      <trkpt lat="43.73739" lon="7.0598">
        <ele>996.5</ele>
        <time>2024-11-27T13:38:03.000Z</time>
      </trkpt>
      <trkpt lat="43.73741" lon="7.05967">
        <ele>996.2</ele>
        <time>2024-11-27T13:37:54.000Z</time>
      </trkpt>
      <trkpt lat="43.73743" lon="7.05955">
        <ele>996.1</ele>
        <time>2024-11-27T13:37:46.000Z</time>
      </trkpt>
      <trkpt lat="43.73746" lon="7.05943">
        <ele>995.8</ele>
        <time>2024-11-27T13:37:38.000Z</time>
      </trkpt>
      <trkpt lat="43.73752" lon="7.05932">
        <ele>995.7</ele>
        <time>2024-11-27T13:37:30.000Z</time>
      </trkpt>
      <trkpt lat="43.73758" lon="7.05922">
        <ele>996</ele>
        <time>2024-11-27T13:37:21.000Z</time>
      </trkpt>
      <trkpt lat="43.73762" lon="7.0591">
        <ele>994.8</ele>
        <time>2024-11-27T13:37:12.000Z</time>
      </trkpt>
      <trkpt lat="43.73765" lon="7.05897">
        <ele>994.1</ele>
        <time>2024-11-27T13:37:04.000Z</time>
      </trkpt>
      <trkpt lat="43.73771" lon="7.05887">
        <ele>993.2</ele>
        <time>2024-11-27T13:36:52.000Z</time>
      </trkpt>
      <trkpt lat="43.73774" lon="7.05875">
        <ele>991.9</ele>
        <time>2024-11-27T13:36:44.000Z</time>
      </trkpt>
      <trkpt lat="43.73777" lon="7.05862">
        <ele>990.7</ele>
        <time>2024-11-27T13:36:33.000Z</time>
      </trkpt>
      <trkpt lat="43.73779" lon="7.0585">
        <ele>990.1</ele>
        <time>2024-11-27T13:36:22.000Z</time>
      </trkpt>
      <trkpt lat="43.73783" lon="7.05838">
        <ele>989.5</ele>
        <time>2024-11-27T13:36:13.000Z</time>
      </trkpt>
      <trkpt lat="43.73785" lon="7.05825">
        <ele>989.2</ele>
        <time>2024-11-27T13:36:04.000Z</time>
      </trkpt>
      <trkpt lat="43.73787" lon="7.05813">
        <ele>988.9</ele>
        <time>2024-11-27T13:35:56.000Z</time>
      </trkpt>
      <trkpt lat="43.73789" lon="7.05799">
        <ele>988.8</ele>
        <time>2024-11-27T13:35:48.000Z</time>
      </trkpt>
      <trkpt lat="43.73789" lon="7.05786">
        <ele>988.9</ele>
        <time>2024-11-27T13:35:41.000Z</time>
      </trkpt>
      <trkpt lat="43.73793" lon="7.05774">
        <ele>988.8</ele>
        <time>2024-11-27T13:35:33.000Z</time>
      </trkpt>
      <trkpt lat="43.73798" lon="7.05763">
        <ele>988.8</ele>
        <time>2024-11-27T13:35:26.000Z</time>
      </trkpt>
      <trkpt lat="43.73802" lon="7.0575">
        <ele>988.7</ele>
        <time>2024-11-27T13:35:19.000Z</time>
      </trkpt>
      <trkpt lat="43.73808" lon="7.0574">
        <ele>988.6</ele>
        <time>2024-11-27T13:35:13.000Z</time>
      </trkpt>
      <trkpt lat="43.73812" lon="7.05729">
        <ele>988.4</ele>
        <time>2024-11-27T13:35:06.000Z</time>
      </trkpt>
      <trkpt lat="43.73817" lon="7.05716">
        <ele>987.5</ele>
        <time>2024-11-27T13:34:58.000Z</time>
      </trkpt>
      <trkpt lat="43.73819" lon="7.05702">
        <ele>986.7</ele>
        <time>2024-11-27T13:34:51.000Z</time>
      </trkpt>
      <trkpt lat="43.73822" lon="7.05689">
        <ele>986.7</ele>
        <time>2024-11-27T13:34:44.000Z</time>
      </trkpt>
      <trkpt lat="43.73825" lon="7.05676">
        <ele>986.6</ele>
        <time>2024-11-27T13:34:36.000Z</time>
      </trkpt>
      <trkpt lat="43.73827" lon="7.05663">
        <ele>986.7</ele>
        <time>2024-11-27T13:34:29.000Z</time>
      </trkpt>
      <trkpt lat="43.73828" lon="7.0565">
        <ele>987</ele>
        <time>2024-11-27T13:34:21.000Z</time>
      </trkpt>
      <trkpt lat="43.73829" lon="7.05636">
        <ele>987.7</ele>
        <time>2024-11-27T13:34:13.000Z</time>
      </trkpt>
      <trkpt lat="43.73829" lon="7.05623">
        <ele>987.7</ele>
        <time>2024-11-27T13:34:05.000Z</time>
      </trkpt>
      <trkpt lat="43.7383" lon="7.05609">
        <ele>987</ele>
        <time>2024-11-27T13:33:56.000Z</time>
      </trkpt>
      <trkpt lat="43.73831" lon="7.05595">
        <ele>985.4</ele>
        <time>2024-11-27T13:33:46.000Z</time>
      </trkpt>
      <trkpt lat="43.73834" lon="7.05583">
        <ele>984.2</ele>
        <time>2024-11-27T13:33:38.000Z</time>
      </trkpt>
      <trkpt lat="43.7384" lon="7.05571">
        <ele>984.7</ele>
        <time>2024-11-27T13:33:30.000Z</time>
      </trkpt>
      <trkpt lat="43.73839" lon="7.05558">
        <ele>985.7</ele>
        <time>2024-11-27T13:33:22.000Z</time>
      </trkpt>
      <trkpt lat="43.7384" lon="7.05545">
        <ele>986.2</ele>
        <time>2024-11-27T13:33:15.000Z</time>
      </trkpt>
      <trkpt lat="43.73845" lon="7.05534">
        <ele>986.2</ele>
        <time>2024-11-27T13:33:08.000Z</time>
      </trkpt>
      <trkpt lat="43.7385" lon="7.05522">
        <ele>987.7</ele>
        <time>2024-11-27T13:32:59.000Z</time>
      </trkpt>
      <trkpt lat="43.73853" lon="7.0551">
        <ele>988.7</ele>
        <time>2024-11-27T13:32:50.000Z</time>
      </trkpt>
      <trkpt lat="43.73852" lon="7.05496">
        <ele>989.4</ele>
        <time>2024-11-27T13:32:42.000Z</time>
      </trkpt>
      <trkpt lat="43.73851" lon="7.05483">
        <ele>991.8</ele>
        <time>2024-11-27T13:32:34.000Z</time>
      </trkpt>
      <trkpt lat="43.73857" lon="7.05473">
        <ele>993.9</ele>
        <time>2024-11-27T13:32:27.000Z</time>
      </trkpt>
      <trkpt lat="43.73864" lon="7.05463">
        <ele>996.2</ele>
        <time>2024-11-27T13:32:19.000Z</time>
      </trkpt>
      <trkpt lat="43.73866" lon="7.0545">
        <ele>997.4</ele>
        <time>2024-11-27T13:32:11.000Z</time>
      </trkpt>
      <trkpt lat="43.73869" lon="7.05438">
        <ele>998.7</ele>
        <time>2024-11-27T13:32:04.000Z</time>
      </trkpt>
      <trkpt lat="43.73871" lon="7.05426">
        <ele>999.9</ele>
        <time>2024-11-27T13:31:57.000Z</time>
      </trkpt>
      <trkpt lat="43.73876" lon="7.05415">
        <ele>1002.7</ele>
        <time>2024-11-27T13:31:49.000Z</time>
      </trkpt>
      <trkpt lat="43.73883" lon="7.05404">
        <ele>1005.9</ele>
        <time>2024-11-27T13:31:40.000Z</time>
      </trkpt>
      <trkpt lat="43.73888" lon="7.05394">
        <ele>1007.4</ele>
        <time>2024-11-27T13:31:32.000Z</time>
      </trkpt>
      <trkpt lat="43.73893" lon="7.05382">
        <ele>1009.2</ele>
        <time>2024-11-27T13:31:23.000Z</time>
      </trkpt>
      <trkpt lat="43.73897" lon="7.0537">
        <ele>1011.8</ele>
        <time>2024-11-27T13:31:14.000Z</time>
      </trkpt>
      <trkpt lat="43.73901" lon="7.05357">
        <ele>1014.3</ele>
        <time>2024-11-27T13:31:05.000Z</time>
      </trkpt>
      <trkpt lat="43.73908" lon="7.05349">
        <ele>1016.7</ele>
        <time>2024-11-27T13:30:56.000Z</time>
      </trkpt>
      <trkpt lat="43.73911" lon="7.05336">
        <ele>1018.6</ele>
        <time>2024-11-27T13:30:48.000Z</time>
      </trkpt>
      <trkpt lat="43.73918" lon="7.05326">
        <ele>1021.8</ele>
        <time>2024-11-27T13:30:39.000Z</time>
      </trkpt>
      <trkpt lat="43.73924" lon="7.05315">
        <ele>1024.4</ele>
        <time>2024-11-27T13:30:30.000Z</time>
      </trkpt>
      <trkpt lat="43.73931" lon="7.05306">
        <ele>1026.9</ele>
        <time>2024-11-27T13:30:21.000Z</time>
      </trkpt>
      <trkpt lat="43.73937" lon="7.05296">
        <ele>1029.6</ele>
        <time>2024-11-27T13:30:12.000Z</time>
      </trkpt>
      <trkpt lat="43.7394" lon="7.05284">
        <ele>1030.6</ele>
        <time>2024-11-27T13:30:00.000Z</time>
      </trkpt>
      <trkpt lat="43.73945" lon="7.05273">
        <ele>1033.2</ele>
        <time>2024-11-27T13:29:51.000Z</time>
      </trkpt>
      <trkpt lat="43.73949" lon="7.05261">
        <ele>1035.7</ele>
        <time>2024-11-27T13:29:39.000Z</time>
      </trkpt>
      <trkpt lat="43.7395" lon="7.05248">
        <ele>1036.1</ele>
        <time>2024-11-27T13:29:30.000Z</time>
      </trkpt>
      <trkpt lat="43.7395" lon="7.05234">
        <ele>1036</ele>
        <time>2024-11-27T13:29:22.000Z</time>
      </trkpt>
      <trkpt lat="43.73953" lon="7.05222">
        <ele>1035.3</ele>
        <time>2024-11-27T13:29:14.000Z</time>
      </trkpt>
      <trkpt lat="43.73956" lon="7.05208">
        <ele>1034.2</ele>
        <time>2024-11-27T13:29:05.000Z</time>
      </trkpt>
      <trkpt lat="43.73959" lon="7.05196">
        <ele>1034.7</ele>
        <time>2024-11-27T13:28:57.000Z</time>
      </trkpt>
      <trkpt lat="43.73963" lon="7.05184">
        <ele>1033.9</ele>
        <time>2024-11-27T13:28:48.000Z</time>
      </trkpt>
      <trkpt lat="43.73968" lon="7.05173">
        <ele>1032.2</ele>
        <time>2024-11-27T13:28:39.000Z</time>
      </trkpt>
      <trkpt lat="43.73972" lon="7.05162">
        <ele>1031.3</ele>
        <time>2024-11-27T13:28:31.000Z</time>
      </trkpt>
      <trkpt lat="43.73978" lon="7.05151">
        <ele>1031.1</ele>
        <time>2024-11-27T13:28:21.000Z</time>
      </trkpt>
      <trkpt lat="43.73985" lon="7.05142">
        <ele>1030.5</ele>
        <time>2024-11-27T13:28:12.000Z</time>
      </trkpt>
      <trkpt lat="43.73987" lon="7.05128">
        <ele>1029.5</ele>
        <time>2024-11-27T13:27:59.000Z</time>
      </trkpt>
      <trkpt lat="43.7399" lon="7.05117">
        <ele>1029.1</ele>
        <time>2024-11-27T13:27:50.000Z</time>
      </trkpt>
      <trkpt lat="43.73996" lon="7.05106">
        <ele>1029.3</ele>
        <time>2024-11-27T13:27:42.000Z</time>
      </trkpt>
      <trkpt lat="43.74002" lon="7.05095">
        <ele>1029.4</ele>
        <time>2024-11-27T13:27:34.000Z</time>
      </trkpt>
      <trkpt lat="43.74002" lon="7.05094">
        <ele>1029.4</ele>
        <time>2024-11-27T13:27:33.000Z</time>
      </trkpt>
      <trkpt lat="43.74003" lon="7.05093">
        <ele>1029.4</ele>
        <time>2024-11-27T13:27:32.000Z</time>
      </trkpt>
      <trkpt lat="43.74005" lon="7.05089">
        <ele>1029.2</ele>
        <time>2024-11-27T13:27:21.000Z</time>
      </trkpt>
      <trkpt lat="43.74005" lon="7.05089">
        <ele>1029.2</ele>
        <time>2024-11-27T13:27:20.000Z</time>
      </trkpt>
      <trkpt lat="43.74005" lon="7.05089">
        <ele>1029.2</ele>
        <time>2024-11-27T13:27:19.000Z</time>
      </trkpt>
      <trkpt lat="43.74004" lon="7.05089">
        <ele>1029.2</ele>
        <time>2024-11-27T13:27:18.000Z</time>
      </trkpt>
      <trkpt lat="43.74004" lon="7.05089">
        <ele>1029.2</ele>
        <time>2024-11-27T13:27:17.000Z</time>
      </trkpt>
      <trkpt lat="43.74004" lon="7.05089">
        <ele>1029.1</ele>
        <time>2024-11-27T13:27:16.000Z</time>
      </trkpt>
      <trkpt lat="43.74004" lon="7.05089">
        <ele>1029.2</ele>
        <time>2024-11-27T13:27:15.000Z</time>
      </trkpt>
      <trkpt lat="43.74007" lon="7.05079">
        <ele>1030.2</ele>
        <time>2024-11-27T13:26:58.000Z</time>
      </trkpt>
      <trkpt lat="43.74007" lon="7.05066">
        <ele>1031.5</ele>
        <time>2024-11-27T13:26:49.000Z</time>
      </trkpt>
      <trkpt lat="43.74007" lon="7.05054">
        <ele>1032.6</ele>
        <time>2024-11-27T13:26:42.000Z</time>
      </trkpt>
      <trkpt lat="43.74008" lon="7.0504">
        <ele>1033.7</ele>
        <time>2024-11-27T13:26:33.000Z</time>
      </trkpt>
      <trkpt lat="43.74012" lon="7.05027">
        <ele>1034.6</ele>
        <time>2024-11-27T13:26:26.000Z</time>
      </trkpt>
      <trkpt lat="43.74015" lon="7.05015">
        <ele>1035.7</ele>
        <time>2024-11-27T13:26:19.000Z</time>
      </trkpt>
      <trkpt lat="43.74018" lon="7.05002">
        <ele>1038</ele>
        <time>2024-11-27T13:26:11.000Z</time>
      </trkpt>
      <trkpt lat="43.7402" lon="7.04989">
        <ele>1039</ele>
        <time>2024-11-27T13:26:02.000Z</time>
      </trkpt>
      <trkpt lat="43.74024" lon="7.04977">
        <ele>1039.4</ele>
        <time>2024-11-27T13:25:55.000Z</time>
      </trkpt>
      <trkpt lat="43.74027" lon="7.04965">
        <ele>1040.1</ele>
        <time>2024-11-27T13:25:48.000Z</time>
      </trkpt>
      <trkpt lat="43.74031" lon="7.04954">
        <ele>1040.9</ele>
        <time>2024-11-27T13:25:40.000Z</time>
      </trkpt>
      <trkpt lat="43.74029" lon="7.04942">
        <ele>1042.5</ele>
        <time>2024-11-27T13:25:31.000Z</time>
      </trkpt>
      <trkpt lat="43.74027" lon="7.04929">
        <ele>1044.2</ele>
        <time>2024-11-27T13:25:22.000Z</time>
      </trkpt>
      <trkpt lat="43.7403" lon="7.04917">
        <ele>1046.1</ele>
        <time>2024-11-27T13:25:14.000Z</time>
      </trkpt>
      <trkpt lat="43.7403" lon="7.04904">
        <ele>1048.2</ele>
        <time>2024-11-27T13:25:05.000Z</time>
      </trkpt>
      <trkpt lat="43.74029" lon="7.04891">
        <ele>1050.5</ele>
        <time>2024-11-27T13:24:55.000Z</time>
      </trkpt>
      <trkpt lat="43.74032" lon="7.04879">
        <ele>1051.8</ele>
        <time>2024-11-27T13:24:47.000Z</time>
      </trkpt>
      <trkpt lat="43.74035" lon="7.04866">
        <ele>1053.6</ele>
        <time>2024-11-27T13:24:39.000Z</time>
      </trkpt>
      <trkpt lat="43.74037" lon="7.04853">
        <ele>1055.5</ele>
        <time>2024-11-27T13:24:31.000Z</time>
      </trkpt>
      <trkpt lat="43.74037" lon="7.0484">
        <ele>1056.8</ele>
        <time>2024-11-27T13:24:23.000Z</time>
      </trkpt>
      <trkpt lat="43.74036" lon="7.04827">
        <ele>1057.6</ele>
        <time>2024-11-27T13:24:15.000Z</time>
      </trkpt>
      <trkpt lat="43.74035" lon="7.04815">
        <ele>1058.7</ele>
        <time>2024-11-27T13:24:07.000Z</time>
      </trkpt>
      <trkpt lat="43.74034" lon="7.04802">
        <ele>1061.6</ele>
        <time>2024-11-27T13:23:58.000Z</time>
      </trkpt>
      <trkpt lat="43.74038" lon="7.0479">
        <ele>1064</ele>
        <time>2024-11-27T13:23:47.000Z</time>
      </trkpt>
      <trkpt lat="43.74036" lon="7.04776">
        <ele>1066.8</ele>
        <time>2024-11-27T13:23:37.000Z</time>
      </trkpt>
      <trkpt lat="43.74037" lon="7.04763">
        <ele>1070</ele>
        <time>2024-11-27T13:23:27.000Z</time>
      </trkpt>
      <trkpt lat="43.74036" lon="7.0475">
        <ele>1071</ele>
        <time>2024-11-27T13:23:14.000Z</time>
      </trkpt>
      <trkpt lat="43.74032" lon="7.04738">
        <ele>1074.3</ele>
        <time>2024-11-27T13:23:05.000Z</time>
      </trkpt>
      <trkpt lat="43.74031" lon="7.04725">
        <ele>1076.5</ele>
        <time>2024-11-27T13:22:56.000Z</time>
      </trkpt>
      <trkpt lat="43.7403" lon="7.04713">
        <ele>1079.5</ele>
        <time>2024-11-27T13:22:47.000Z</time>
      </trkpt>
      <trkpt lat="43.74029" lon="7.04699">
        <ele>1082.6</ele>
        <time>2024-11-27T13:22:38.000Z</time>
      </trkpt>
      <trkpt lat="43.74031" lon="7.04685">
        <ele>1084.5</ele>
        <time>2024-11-27T13:22:29.000Z</time>
      </trkpt>
      <trkpt lat="43.74027" lon="7.04673">
        <ele>1085.4</ele>
        <time>2024-11-27T13:22:20.000Z</time>
      </trkpt>
      <trkpt lat="43.74023" lon="7.04661">
        <ele>1086.6</ele>
        <time>2024-11-27T13:22:12.000Z</time>
      </trkpt>
      <trkpt lat="43.74022" lon="7.04648">
        <ele>1089.8</ele>
        <time>2024-11-27T13:22:04.000Z</time>
      </trkpt>
      <trkpt lat="43.74021" lon="7.04634">
        <ele>1092.2</ele>
        <time>2024-11-27T13:21:55.000Z</time>
      </trkpt>
      <trkpt lat="43.74021" lon="7.04621">
        <ele>1094.2</ele>
        <time>2024-11-27T13:21:47.000Z</time>
      </trkpt>
      <trkpt lat="43.7402" lon="7.04607">
        <ele>1096.3</ele>
        <time>2024-11-27T13:21:39.000Z</time>
      </trkpt>
      <trkpt lat="43.7402" lon="7.04594">
        <ele>1097.4</ele>
        <time>2024-11-27T13:21:30.000Z</time>
      </trkpt>
      <trkpt lat="43.74018" lon="7.0458">
        <ele>1097.8</ele>
        <time>2024-11-27T13:21:22.000Z</time>
      </trkpt>
      <trkpt lat="43.74013" lon="7.04569">
        <ele>1098.3</ele>
        <time>2024-11-27T13:21:14.000Z</time>
      </trkpt>
      <trkpt lat="43.74009" lon="7.04556">
        <ele>1099.3</ele>
        <time>2024-11-27T13:21:06.000Z</time>
      </trkpt>
      <trkpt lat="43.74007" lon="7.04543">
        <ele>1100.5</ele>
        <time>2024-11-27T13:20:59.000Z</time>
      </trkpt>
      <trkpt lat="43.74005" lon="7.0453">
        <ele>1101.6</ele>
        <time>2024-11-27T13:20:52.000Z</time>
      </trkpt>
      <trkpt lat="43.74003" lon="7.04518">
        <ele>1101.7</ele>
        <time>2024-11-27T13:20:46.000Z</time>
      </trkpt>
      <trkpt lat="43.74002" lon="7.04505">
        <ele>1101.4</ele>
        <time>2024-11-27T13:20:39.000Z</time>
      </trkpt>
      <trkpt lat="43.74001" lon="7.04491">
        <ele>1101.1</ele>
        <time>2024-11-27T13:20:32.000Z</time>
      </trkpt>
      <trkpt lat="43.74" lon="7.04478">
        <ele>1100.8</ele>
        <time>2024-11-27T13:20:26.000Z</time>
      </trkpt>
      <trkpt lat="43.73998" lon="7.04465">
        <ele>1100.9</ele>
        <time>2024-11-27T13:20:20.000Z</time>
      </trkpt>
      <trkpt lat="43.73997" lon="7.0445">
        <ele>1101.7</ele>
        <time>2024-11-27T13:20:13.000Z</time>
      </trkpt>
      <trkpt lat="43.73996" lon="7.04437">
        <ele>1102.3</ele>
        <time>2024-11-27T13:20:06.000Z</time>
      </trkpt>
      <trkpt lat="43.73994" lon="7.04424">
        <ele>1103</ele>
        <time>2024-11-27T13:19:59.000Z</time>
      </trkpt>
      <trkpt lat="43.73993" lon="7.0441">
        <ele>1103.8</ele>
        <time>2024-11-27T13:19:51.000Z</time>
      </trkpt>
      <trkpt lat="43.73992" lon="7.04397">
        <ele>1104.6</ele>
        <time>2024-11-27T13:19:43.000Z</time>
      </trkpt>
      <trkpt lat="43.73994" lon="7.04384">
        <ele>1105.9</ele>
        <time>2024-11-27T13:19:35.000Z</time>
      </trkpt>
      <trkpt lat="43.73994" lon="7.04372">
        <ele>1106.3</ele>
        <time>2024-11-27T13:19:27.000Z</time>
      </trkpt>
      <trkpt lat="43.73996" lon="7.04359">
        <ele>1107</ele>
        <time>2024-11-27T13:19:19.000Z</time>
      </trkpt>
      <trkpt lat="43.73994" lon="7.04346">
        <ele>1108</ele>
        <time>2024-11-27T13:19:11.000Z</time>
      </trkpt>
      <trkpt lat="43.7399" lon="7.04334">
        <ele>1108.8</ele>
        <time>2024-11-27T13:19:04.000Z</time>
      </trkpt>
      <trkpt lat="43.73988" lon="7.04321">
        <ele>1110</ele>
        <time>2024-11-27T13:18:56.000Z</time>
      </trkpt>
      <trkpt lat="43.73986" lon="7.04309">
        <ele>1111.4</ele>
        <time>2024-11-27T13:18:47.000Z</time>
      </trkpt>
      <trkpt lat="43.73987" lon="7.04296">
        <ele>1112.8</ele>
        <time>2024-11-27T13:18:39.000Z</time>
      </trkpt>
      <trkpt lat="43.73988" lon="7.04283">
        <ele>1114.6</ele>
        <time>2024-11-27T13:18:30.000Z</time>
      </trkpt>
      <trkpt lat="43.73988" lon="7.04269">
        <ele>1115.9</ele>
        <time>2024-11-27T13:18:20.000Z</time>
      </trkpt>
      <trkpt lat="43.73984" lon="7.04257">
        <ele>1116.3</ele>
        <time>2024-11-27T13:18:12.000Z</time>
      </trkpt>
      <trkpt lat="43.73986" lon="7.04244">
        <ele>1117.4</ele>
        <time>2024-11-27T13:18:03.000Z</time>
      </trkpt>
      <trkpt lat="43.73986" lon="7.04232">
        <ele>1120.1</ele>
        <time>2024-11-27T13:17:54.000Z</time>
      </trkpt>
      <trkpt lat="43.73982" lon="7.0422">
        <ele>1123.9</ele>
        <time>2024-11-27T13:17:45.000Z</time>
      </trkpt>
      <trkpt lat="43.73981" lon="7.04206">
        <ele>1127.5</ele>
        <time>2024-11-27T13:17:35.000Z</time>
      </trkpt>
      <trkpt lat="43.7398" lon="7.04193">
        <ele>1129.2</ele>
        <time>2024-11-27T13:17:27.000Z</time>
      </trkpt>
      <trkpt lat="43.73977" lon="7.0418">
        <ele>1130.3</ele>
        <time>2024-11-27T13:17:19.000Z</time>
      </trkpt>
      <trkpt lat="43.73977" lon="7.04167">
        <ele>1131.3</ele>
        <time>2024-11-27T13:17:11.000Z</time>
      </trkpt>
      <trkpt lat="43.73976" lon="7.04153">
        <ele>1132.7</ele>
        <time>2024-11-27T13:17:03.000Z</time>
      </trkpt>
      <trkpt lat="43.73976" lon="7.0414">
        <ele>1133.8</ele>
        <time>2024-11-27T13:16:56.000Z</time>
      </trkpt>
      <trkpt lat="43.73978" lon="7.04126">
        <ele>1135.9</ele>
        <time>2024-11-27T13:16:46.000Z</time>
      </trkpt>
      <trkpt lat="43.73975" lon="7.04115">
        <ele>1137.8</ele>
        <time>2024-11-27T13:16:38.000Z</time>
      </trkpt>
      <trkpt lat="43.73974" lon="7.041">
        <ele>1139.3</ele>
        <time>2024-11-27T13:16:30.000Z</time>
      </trkpt>
      <trkpt lat="43.73975" lon="7.04088">
        <ele>1140.9</ele>
        <time>2024-11-27T13:16:23.000Z</time>
      </trkpt>
      <trkpt lat="43.73976" lon="7.04075">
        <ele>1142.8</ele>
        <time>2024-11-27T13:16:16.000Z</time>
      </trkpt>
      <trkpt lat="43.73976" lon="7.04061">
        <ele>1145.7</ele>
        <time>2024-11-27T13:16:07.000Z</time>
      </trkpt>
      <trkpt lat="43.7398" lon="7.0405">
        <ele>1146.4</ele>
        <time>2024-11-27T13:15:59.000Z</time>
      </trkpt>
      <trkpt lat="43.73983" lon="7.04037">
        <ele>1147.8</ele>
        <time>2024-11-27T13:15:52.000Z</time>
      </trkpt>
      <trkpt lat="43.73983" lon="7.04024">
        <ele>1148.5</ele>
        <time>2024-11-27T13:15:45.000Z</time>
      </trkpt>
      <trkpt lat="43.73983" lon="7.04011">
        <ele>1148.9</ele>
        <time>2024-11-27T13:15:38.000Z</time>
      </trkpt>
      <trkpt lat="43.73982" lon="7.03997">
        <ele>1149.2</ele>
        <time>2024-11-27T13:15:30.000Z</time>
      </trkpt>
      <trkpt lat="43.73983" lon="7.03983">
        <ele>1149.2</ele>
        <time>2024-11-27T13:15:21.000Z</time>
      </trkpt>
      <trkpt lat="43.7398" lon="7.03972">
        <ele>1149.2</ele>
        <time>2024-11-27T13:15:14.000Z</time>
      </trkpt>
      <trkpt lat="43.73979" lon="7.03958">
        <ele>1149.5</ele>
        <time>2024-11-27T13:15:07.000Z</time>
      </trkpt>
      <trkpt lat="43.73983" lon="7.03946">
        <ele>1150.9</ele>
        <time>2024-11-27T13:14:57.000Z</time>
      </trkpt>
      <trkpt lat="43.73983" lon="7.03933">
        <ele>1152.3</ele>
        <time>2024-11-27T13:14:49.000Z</time>
      </trkpt>
      <trkpt lat="43.73984" lon="7.0392">
        <ele>1153.6</ele>
        <time>2024-11-27T13:14:41.000Z</time>
      </trkpt>
      <trkpt lat="43.73983" lon="7.03907">
        <ele>1154.8</ele>
        <time>2024-11-27T13:14:33.000Z</time>
      </trkpt>
      <trkpt lat="43.73982" lon="7.03894">
        <ele>1156</ele>
        <time>2024-11-27T13:14:25.000Z</time>
      </trkpt>
      <trkpt lat="43.7398" lon="7.03881">
        <ele>1157.2</ele>
        <time>2024-11-27T13:14:18.000Z</time>
      </trkpt>
      <trkpt lat="43.73981" lon="7.03868">
        <ele>1159.6</ele>
        <time>2024-11-27T13:14:10.000Z</time>
      </trkpt>
      <trkpt lat="43.73979" lon="7.03855">
        <ele>1161.8</ele>
        <time>2024-11-27T13:14:01.000Z</time>
      </trkpt>
      <trkpt lat="43.73976" lon="7.03842">
        <ele>1163.8</ele>
        <time>2024-11-27T13:13:53.000Z</time>
      </trkpt>
      <trkpt lat="43.73975" lon="7.0383">
        <ele>1164.6</ele>
        <time>2024-11-27T13:13:45.000Z</time>
      </trkpt>
      <trkpt lat="43.73973" lon="7.03817">
        <ele>1165.3</ele>
        <time>2024-11-27T13:13:37.000Z</time>
      </trkpt>
      <trkpt lat="43.73972" lon="7.03804">
        <ele>1166.8</ele>
        <time>2024-11-27T13:13:29.000Z</time>
      </trkpt>
      <trkpt lat="43.73972" lon="7.03791">
        <ele>1168.9</ele>
        <time>2024-11-27T13:13:20.000Z</time>
      </trkpt>
      <trkpt lat="43.73972" lon="7.03778">
        <ele>1171.7</ele>
        <time>2024-11-27T13:13:10.000Z</time>
      </trkpt>
      <trkpt lat="43.73978" lon="7.03767">
        <ele>1174.7</ele>
        <time>2024-11-27T13:12:59.000Z</time>
      </trkpt>
      <trkpt lat="43.73981" lon="7.03755">
        <ele>1177.3</ele>
        <time>2024-11-27T13:12:48.000Z</time>
      </trkpt>
      <trkpt lat="43.73984" lon="7.03742">
        <ele>1179</ele>
        <time>2024-11-27T13:12:39.000Z</time>
      </trkpt>
      <trkpt lat="43.73988" lon="7.03731">
        <ele>1180.3</ele>
        <time>2024-11-27T13:12:30.000Z</time>
      </trkpt>
      <trkpt lat="43.73988" lon="7.03717">
        <ele>1181.6</ele>
        <time>2024-11-27T13:12:22.000Z</time>
      </trkpt>
      <trkpt lat="43.73993" lon="7.03706">
        <ele>1185</ele>
        <time>2024-11-27T13:12:12.000Z</time>
      </trkpt>
      <trkpt lat="43.74" lon="7.03697">
        <ele>1188.3</ele>
        <time>2024-11-27T13:12:00.000Z</time>
      </trkpt>
      <trkpt lat="43.74004" lon="7.03685">
        <ele>1190</ele>
        <time>2024-11-27T13:11:51.000Z</time>
      </trkpt>
      <trkpt lat="43.74008" lon="7.03672">
        <ele>1191.5</ele>
        <time>2024-11-27T13:11:42.000Z</time>
      </trkpt>
      <trkpt lat="43.74012" lon="7.03661">
        <ele>1193.4</ele>
        <time>2024-11-27T13:11:33.000Z</time>
      </trkpt>
      <trkpt lat="43.74018" lon="7.0365">
        <ele>1195.8</ele>
        <time>2024-11-27T13:11:23.000Z</time>
      </trkpt>
      <trkpt lat="43.7402" lon="7.03638">
        <ele>1199.5</ele>
        <time>2024-11-27T13:11:15.000Z</time>
      </trkpt>
      <trkpt lat="43.74027" lon="7.03628">
        <ele>1202.6</ele>
        <time>2024-11-27T13:11:05.000Z</time>
      </trkpt>
      <trkpt lat="43.74032" lon="7.03617">
        <ele>1205.1</ele>
        <time>2024-11-27T13:10:55.000Z</time>
      </trkpt>
      <trkpt lat="43.74036" lon="7.03604">
        <ele>1206.6</ele>
        <time>2024-11-27T13:10:46.000Z</time>
      </trkpt>
      <trkpt lat="43.74039" lon="7.03592">
        <ele>1208.4</ele>
        <time>2024-11-27T13:10:39.000Z</time>
      </trkpt>
      <trkpt lat="43.74044" lon="7.03581">
        <ele>1209.9</ele>
        <time>2024-11-27T13:10:31.000Z</time>
      </trkpt>
      <trkpt lat="43.74047" lon="7.03568">
        <ele>1211</ele>
        <time>2024-11-27T13:10:24.000Z</time>
      </trkpt>
      <trkpt lat="43.74051" lon="7.03556">
        <ele>1212.6</ele>
        <time>2024-11-27T13:10:12.000Z</time>
      </trkpt>
      <trkpt lat="43.74056" lon="7.03544">
        <ele>1213.9</ele>
        <time>2024-11-27T13:10:04.000Z</time>
      </trkpt>
      <trkpt lat="43.7406" lon="7.03533">
        <ele>1214.6</ele>
        <time>2024-11-27T13:09:57.000Z</time>
      </trkpt>
      <trkpt lat="43.74065" lon="7.03522">
        <ele>1215.3</ele>
        <time>2024-11-27T13:09:50.000Z</time>
      </trkpt>
      <trkpt lat="43.74069" lon="7.03511">
        <ele>1215.6</ele>
        <time>2024-11-27T13:09:43.000Z</time>
      </trkpt>
      <trkpt lat="43.74072" lon="7.03498">
        <ele>1216.3</ele>
        <time>2024-11-27T13:09:36.000Z</time>
      </trkpt>
      <trkpt lat="43.74075" lon="7.03485">
        <ele>1217.8</ele>
        <time>2024-11-27T13:09:15.000Z</time>
      </trkpt>
      <trkpt lat="43.74076" lon="7.03472">
        <ele>1218.2</ele>
        <time>2024-11-27T13:09:07.000Z</time>
      </trkpt>
      <trkpt lat="43.7408" lon="7.03461">
        <ele>1218.6</ele>
        <time>2024-11-27T13:09:00.000Z</time>
      </trkpt>
      <trkpt lat="43.74084" lon="7.03448">
        <ele>1219.5</ele>
        <time>2024-11-27T13:08:52.000Z</time>
      </trkpt>
      <trkpt lat="43.74087" lon="7.03435">
        <ele>1220.4</ele>
        <time>2024-11-27T13:08:43.000Z</time>
      </trkpt>
      <trkpt lat="43.74095" lon="7.03427">
        <ele>1220.7</ele>
        <time>2024-11-27T13:08:35.000Z</time>
      </trkpt>
      <trkpt lat="43.74101" lon="7.03418">
        <ele>1220.6</ele>
        <time>2024-11-27T13:08:23.000Z</time>
      </trkpt>
      <trkpt lat="43.74107" lon="7.03407">
        <ele>1220.1</ele>
        <time>2024-11-27T13:08:15.000Z</time>
      </trkpt>
      <trkpt lat="43.74111" lon="7.03395">
        <ele>1219.4</ele>
        <time>2024-11-27T13:08:08.000Z</time>
      </trkpt>
      <trkpt lat="43.74112" lon="7.03381">
        <ele>1219.2</ele>
        <time>2024-11-27T13:08:01.000Z</time>
      </trkpt>
      <trkpt lat="43.74112" lon="7.03368">
        <ele>1219.3</ele>
        <time>2024-11-27T13:07:54.000Z</time>
      </trkpt>
      <trkpt lat="43.74112" lon="7.03354">
        <ele>1219.6</ele>
        <time>2024-11-27T13:07:46.000Z</time>
      </trkpt>
      <trkpt lat="43.74114" lon="7.03341">
        <ele>1220</ele>
        <time>2024-11-27T13:07:39.000Z</time>
      </trkpt>
      <trkpt lat="43.74113" lon="7.03328">
        <ele>1220.5</ele>
        <time>2024-11-27T13:07:31.000Z</time>
      </trkpt>
      <trkpt lat="43.74115" lon="7.03315">
        <ele>1221.1</ele>
        <time>2024-11-27T13:07:23.000Z</time>
      </trkpt>
      <trkpt lat="43.74116" lon="7.03301">
        <ele>1222</ele>
        <time>2024-11-27T13:07:14.000Z</time>
      </trkpt>
      <trkpt lat="43.74118" lon="7.03288">
        <ele>1222.6</ele>
        <time>2024-11-27T13:07:06.000Z</time>
      </trkpt>
      <trkpt lat="43.74125" lon="7.0328">
        <ele>1223.1</ele>
        <time>2024-11-27T13:06:57.000Z</time>
      </trkpt>
      <trkpt lat="43.74126" lon="7.03279">
        <ele>1223.2</ele>
        <time>2024-11-27T13:06:56.000Z</time>
      </trkpt>
      <trkpt lat="43.74125" lon="7.03277">
        <ele>1223.3</ele>
        <time>2024-11-27T13:06:55.000Z</time>
      </trkpt>
      <trkpt lat="43.74125" lon="7.03272">
        <ele>1223.7</ele>
        <time>2024-11-27T13:06:49.000Z</time>
      </trkpt>
      <trkpt lat="43.74125" lon="7.03272">
        <ele>1223.8</ele>
        <time>2024-11-27T13:06:48.000Z</time>
      </trkpt>
      <trkpt lat="43.74124" lon="7.03269">
        <ele>1224.6</ele>
        <time>2024-11-27T13:06:41.000Z</time>
      </trkpt>
      <trkpt lat="43.74121" lon="7.03256">
        <ele>1225.9</ele>
        <time>2024-11-27T13:06:32.000Z</time>
      </trkpt>
      <trkpt lat="43.74117" lon="7.03244">
        <ele>1226.9</ele>
        <time>2024-11-27T13:06:22.000Z</time>
      </trkpt>
      <trkpt lat="43.74118" lon="7.03167">
        <ele>1239.7</ele>
      </trkpt>
      <trkpt lat="43.7412" lon="7.03152">
        <ele>1242.2</ele>
      </trkpt>
      <trkpt lat="43.74131" lon="7.03124">
        <ele>1247.3</ele>
      </trkpt>
      <trkpt lat="43.7415" lon="7.03087">
        <ele>1255.3</ele>
      </trkpt>
      <trkpt lat="43.74159" lon="7.03071">
        <ele>1259.2</ele>
      </trkpt>
      <trkpt lat="43.74161" lon="7.03062">
        <ele>1260.7</ele>
      </trkpt>
      <trkpt lat="43.74158" lon="7.03044">
        <ele>1261.8</ele>
      </trkpt>
      <trkpt lat="43.74152" lon="7.03018">
        <ele>1262.3</ele>
      </trkpt>
      <trkpt lat="43.74156" lon="7.02966">
        <ele>1264.5</ele>
      </trkpt>
      <trkpt lat="43.74162" lon="7.02943">
        <ele>1265.7</ele>
      </trkpt>
      <trkpt lat="43.74164" lon="7.0293">
        <ele>1266.3</ele>
      </trkpt>
      <trkpt lat="43.74167" lon="7.02925">
        <ele>1266.7</ele>
      </trkpt>
      <trkpt lat="43.7418" lon="7.02913">
        <ele>1266.1</ele>
      </trkpt>
      <trkpt lat="43.74197" lon="7.02894">
        <ele>1265.4</ele>
        <time>2024-11-27T11:36:11.000Z</time>
      </trkpt>
      <trkpt lat="43.74163" lon="7.02927">
        <ele>1273.6</ele>
        <time>2024-11-27T11:36:02.000Z</time>
      </trkpt>
      <trkpt lat="43.74161" lon="7.02941">
        <ele>1273.1</ele>
        <time>2024-11-27T11:35:53.000Z</time>
      </trkpt>
      <trkpt lat="43.74159" lon="7.02954">
        <ele>1272.7</ele>
        <time>2024-11-27T11:35:45.000Z</time>
      </trkpt>
      <trkpt lat="43.74155" lon="7.02966">
        <ele>1272.4</ele>
        <time>2024-11-27T11:35:37.000Z</time>
      </trkpt>
      <trkpt lat="43.74154" lon="7.02979">
        <ele>1272.2</ele>
        <time>2024-11-27T11:35:29.000Z</time>
      </trkpt>
      <trkpt lat="43.74153" lon="7.02991">
        <ele>1272.3</ele>
        <time>2024-11-27T11:35:23.000Z</time>
      </trkpt>
      <trkpt lat="43.74154" lon="7.03004">
        <ele>1272.5</ele>
        <time>2024-11-27T11:35:16.000Z</time>
      </trkpt>
      <trkpt lat="43.74154" lon="7.03018">
        <ele>1262.7</ele>
        <time>2024-11-27T11:35:09.000Z</time>
      </trkpt>
      <trkpt lat="43.74158" lon="7.03038">
        <ele>1267.9</ele>
        <time>2024-11-27T11:34:10.000Z</time>
      </trkpt>
      <trkpt lat="43.74161" lon="7.03051">
        <ele>1266.8</ele>
        <time>2024-11-27T11:34:01.000Z</time>
      </trkpt>
      <trkpt lat="43.74162" lon="7.03064">
        <ele>1262.8</ele>
        <time>2024-11-27T11:33:50.000Z</time>
      </trkpt>
      <trkpt lat="43.7416" lon="7.03077">
        <ele>1260.7</ele>
        <time>2024-11-27T11:33:39.000Z</time>
      </trkpt>
      <trkpt lat="43.74152" lon="7.03081">
        <ele>1259.3</ele>
        <time>2024-11-27T11:33:27.000Z</time>
      </trkpt>
      <trkpt lat="43.74145" lon="7.03091">
        <ele>1255.5</ele>
        <time>2024-11-27T11:33:14.000Z</time>
      </trkpt>
      <trkpt lat="43.74141" lon="7.03102">
        <ele>1253.1</ele>
        <time>2024-11-27T11:33:00.000Z</time>
      </trkpt>
      <trkpt lat="43.74135" lon="7.03112">
        <ele>1251.3</ele>
        <time>2024-11-27T11:32:48.000Z</time>
      </trkpt>
      <trkpt lat="43.74129" lon="7.03122">
        <ele>1249.1</ele>
        <time>2024-11-27T11:32:37.000Z</time>
      </trkpt>
      <trkpt lat="43.74125" lon="7.03133">
        <ele>1247.7</ele>
        <time>2024-11-27T11:32:26.000Z</time>
      </trkpt>
      <trkpt lat="43.74121" lon="7.03144">
        <ele>1246.4</ele>
        <time>2024-11-27T11:32:15.000Z</time>
      </trkpt>
      <trkpt lat="43.74118" lon="7.03157">
        <ele>1245.1</ele>
        <time>2024-11-27T11:32:03.000Z</time>
      </trkpt>
      <trkpt lat="43.74117" lon="7.0317">
        <ele>1242.7</ele>
        <time>2024-11-27T11:31:50.000Z</time>
      </trkpt>
      <trkpt lat="43.74118" lon="7.03183">
        <ele>1240.6</ele>
        <time>2024-11-27T11:31:38.000Z</time>
      </trkpt>
      <trkpt lat="43.74118" lon="7.03196">
        <ele>1238.3</ele>
        <time>2024-11-27T11:31:26.000Z</time>
      </trkpt>
      <trkpt lat="43.74116" lon="7.03208">
        <ele>1236.7</ele>
        <time>2024-11-27T11:31:15.000Z</time>
      </trkpt>
      <trkpt lat="43.74116" lon="7.03221">
        <ele>1235.4</ele>
        <time>2024-11-27T11:31:04.000Z</time>
      </trkpt>
      <trkpt lat="43.74118" lon="7.03234">
        <ele>1233.8</ele>
        <time>2024-11-27T11:30:54.000Z</time>
      </trkpt>
      <trkpt lat="43.74118" lon="7.03247">
        <ele>1232.5</ele>
        <time>2024-11-27T11:30:44.000Z</time>
      </trkpt>
      <trkpt lat="43.74121" lon="7.03259">
        <ele>1231.5</ele>
        <time>2024-11-27T11:30:34.000Z</time>
      </trkpt>
      <trkpt lat="43.74124" lon="7.03272">
        <ele>1230.7</ele>
        <time>2024-11-27T11:30:25.000Z</time>
      </trkpt>
      <trkpt lat="43.74118" lon="7.03281">
        <ele>1230.1</ele>
        <time>2024-11-27T11:30:17.000Z</time>
      </trkpt>
      <trkpt lat="43.74115" lon="7.03294">
        <ele>1228.2</ele>
        <time>2024-11-27T11:30:07.000Z</time>
      </trkpt>
      <trkpt lat="43.74115" lon="7.03307">
        <ele>1227.6</ele>
        <time>2024-11-27T11:29:58.000Z</time>
      </trkpt>
      <trkpt lat="43.74112" lon="7.0332">
        <ele>1226.6</ele>
        <time>2024-11-27T11:29:48.000Z</time>
      </trkpt>
      <trkpt lat="43.74113" lon="7.03333">
        <ele>1226.1</ele>
        <time>2024-11-27T11:29:39.000Z</time>
      </trkpt>
      <trkpt lat="43.74112" lon="7.03346">
        <ele>1225.9</ele>
        <time>2024-11-27T11:29:31.000Z</time>
      </trkpt>
      <trkpt lat="43.74111" lon="7.03359">
        <ele>1225.8</ele>
        <time>2024-11-27T11:29:23.000Z</time>
      </trkpt>
      <trkpt lat="43.7411" lon="7.03372">
        <ele>1225.7</ele>
        <time>2024-11-27T11:29:15.000Z</time>
      </trkpt>
      <trkpt lat="43.74108" lon="7.03386">
        <ele>1225.5</ele>
        <time>2024-11-27T11:29:07.000Z</time>
      </trkpt>
      <trkpt lat="43.74105" lon="7.03398">
        <ele>1225.5</ele>
        <time>2024-11-27T11:29:00.000Z</time>
      </trkpt>
      <trkpt lat="43.741" lon="7.03409">
        <ele>1225.1</ele>
        <time>2024-11-27T11:28:53.000Z</time>
      </trkpt>
      <trkpt lat="43.74094" lon="7.03419">
        <ele>1223.9</ele>
        <time>2024-11-27T11:28:46.000Z</time>
      </trkpt>
      <trkpt lat="43.74087" lon="7.03428">
        <ele>1221.5</ele>
        <time>2024-11-27T11:28:39.000Z</time>
      </trkpt>
      <trkpt lat="43.74083" lon="7.0344">
        <ele>1220.7</ele>
        <time>2024-11-27T11:28:32.000Z</time>
      </trkpt>
      <trkpt lat="43.7408" lon="7.03452">
        <ele>1220.5</ele>
        <time>2024-11-27T11:28:25.000Z</time>
      </trkpt>
      <trkpt lat="43.74076" lon="7.03464">
        <ele>1220.6</ele>
        <time>2024-11-27T11:28:17.000Z</time>
      </trkpt>
      <trkpt lat="43.74074" lon="7.03477">
        <ele>1220.7</ele>
        <time>2024-11-27T11:28:10.000Z</time>
      </trkpt>
      <trkpt lat="43.74073" lon="7.03491">
        <ele>1220.6</ele>
        <time>2024-11-27T11:28:02.000Z</time>
      </trkpt>
      <trkpt lat="43.7407" lon="7.03504">
        <ele>1220.4</ele>
        <time>2024-11-27T11:27:54.000Z</time>
      </trkpt>
      <trkpt lat="43.74066" lon="7.03515">
        <ele>1219.7</ele>
        <time>2024-11-27T11:27:46.000Z</time>
      </trkpt>
      <trkpt lat="43.74035" lon="7.03621">
        <ele>1208.6</ele>
      </trkpt>
      <trkpt lat="43.74014" lon="7.03673">
        <ele>1198.6</ele>
      </trkpt>
      <trkpt lat="43.73993" lon="7.03724">
        <ele>1188.7</ele>
      </trkpt>
      <trkpt lat="43.73979" lon="7.0378">
        <ele>1178.9</ele>
      </trkpt>
      <trkpt lat="43.73977" lon="7.03811">
        <ele>1174.5</ele>
      </trkpt>
      <trkpt lat="43.73989" lon="7.0392">
        <ele>1162.8</ele>
      </trkpt>
      <trkpt lat="43.73988" lon="7.04023">
        <ele>1150.7</ele>
      </trkpt>
      <trkpt lat="43.73978" lon="7.04109">
        <ele>1140.7</ele>
      </trkpt>
      <trkpt lat="43.73998" lon="7.04416">
        <ele>1108.7</ele>
      </trkpt>
      <trkpt lat="43.74014" lon="7.04548">
        <ele>1096.8</ele>
      </trkpt>
      <trkpt lat="43.74025" lon="7.04625">
        <ele>1088.9</ele>
      </trkpt>
      <trkpt lat="43.74024" lon="7.04629">
        <ele>1088.3</ele>
      </trkpt>
      <trkpt lat="43.74025" lon="7.04635">
        <ele>1087.5</ele>
      </trkpt>
      <trkpt lat="43.74027" lon="7.04643">
        <ele>1086.3</ele>
      </trkpt>
      <trkpt lat="43.74035" lon="7.04695">
        <ele>1078.1</ele>
      </trkpt>
      <trkpt lat="43.74016" lon="7.05058">
        <ele>1030.2</ele>
      </trkpt>
      <trkpt lat="43.74009" lon="7.05101">
        <ele>1029.4</ele>
      </trkpt>
      <trkpt lat="43.7402" lon="7.05112">
        <ele>1031.9</ele>
      </trkpt>
      <trkpt lat="43.74045" lon="7.05113">
        <ele>1033.8</ele>
      </trkpt>
      <trkpt lat="43.74055" lon="7.05132">
        <ele>1036.3</ele>
      </trkpt>
      <trkpt lat="43.7411" lon="7.05123">
        <ele>1033.6</ele>
      </trkpt>
      <trkpt lat="43.74134" lon="7.05103">
        <ele>1034.6</ele>
      </trkpt>
      <trkpt lat="43.74137" lon="7.05073">
        <ele>1037.2</ele>
      </trkpt>
      <trkpt lat="43.74193" lon="7.05106">
        <ele>1028.3</ele>
      </trkpt>
      <trkpt lat="43.74264" lon="7.05058">
        <ele>1022.1</ele>
      </trkpt>
      <trkpt lat="43.7429" lon="7.04996">
        <ele>1024.5</ele>
      </trkpt>
      <trkpt lat="43.74332" lon="7.04994">
        <ele>1022.3</ele>
      </trkpt>
      <trkpt lat="43.74454" lon="7.0498">
        <ele>1028.8</ele>
        <time>2024-11-27T10:55:15.000Z</time>
      </trkpt>
      <trkpt lat="43.7446" lon="7.04991">
        <ele>1028.4</ele>
        <time>2024-11-27T10:55:06.000Z</time>
      </trkpt>
      <trkpt lat="43.74467" lon="7.04999">
        <ele>1027.6</ele>
        <time>2024-11-27T10:54:59.000Z</time>
      </trkpt>
      <trkpt lat="43.74474" lon="7.05006">
        <ele>1027</ele>
        <time>2024-11-27T10:54:52.000Z</time>
      </trkpt>
      <trkpt lat="43.74482" lon="7.05011">
        <ele>1026.7</ele>
        <time>2024-11-27T10:54:46.000Z</time>
      </trkpt>
      <trkpt lat="43.74491" lon="7.05008">
        <ele>1026.3</ele>
        <time>2024-11-27T10:54:39.000Z</time>
      </trkpt>
      <trkpt lat="43.745" lon="7.05004">
        <ele>1025.9</ele>
        <time>2024-11-27T10:54:33.000Z</time>
      </trkpt>
      <trkpt lat="43.74509" lon="7.05">
        <ele>1025.7</ele>
        <time>2024-11-27T10:54:26.000Z</time>
      </trkpt>
      <trkpt lat="43.74518" lon="7.04996">
        <ele>1025.9</ele>
        <time>2024-11-27T10:54:20.000Z</time>
      </trkpt>
      <trkpt lat="43.74527" lon="7.04996">
        <ele>1025.8</ele>
        <time>2024-11-27T10:54:13.000Z</time>
      </trkpt>
      <trkpt lat="43.74537" lon="7.04998">
        <ele>1025.8</ele>
        <time>2024-11-27T10:54:06.000Z</time>
      </trkpt>
      <trkpt lat="43.74546" lon="7.05">
        <ele>1025.6</ele>
        <time>2024-11-27T10:53:59.000Z</time>
      </trkpt>
      <trkpt lat="43.74555" lon="7.05004">
        <ele>1025.2</ele>
        <time>2024-11-27T10:53:51.000Z</time>
      </trkpt>
      <trkpt lat="43.74565" lon="7.05007">
        <ele>1023.7</ele>
        <time>2024-11-27T10:53:43.000Z</time>
      </trkpt>
      <trkpt lat="43.74575" lon="7.05005">
        <ele>1021.6</ele>
        <time>2024-11-27T10:53:35.000Z</time>
      </trkpt>
      <trkpt lat="43.74585" lon="7.05003">
        <ele>1021</ele>
        <time>2024-11-27T10:53:28.000Z</time>
      </trkpt>
      <trkpt lat="43.74595" lon="7.05004">
        <ele>1021.7</ele>
        <time>2024-11-27T10:53:19.000Z</time>
      </trkpt>
      <trkpt lat="43.74604" lon="7.05008">
        <ele>1021.6</ele>
        <time>2024-11-27T10:53:10.000Z</time>
      </trkpt>
      <trkpt lat="43.74612" lon="7.05012">
        <ele>1019.2</ele>
        <time>2024-11-27T10:53:01.000Z</time>
      </trkpt>
      <trkpt lat="43.74622" lon="7.05017">
        <ele>1017.5</ele>
        <time>2024-11-27T10:52:52.000Z</time>
      </trkpt>
      <trkpt lat="43.74631" lon="7.05021">
        <ele>1016.9</ele>
        <time>2024-11-27T10:52:43.000Z</time>
      </trkpt>
      <trkpt lat="43.74639" lon="7.05029">
        <ele>1017.3</ele>
        <time>2024-11-27T10:52:33.000Z</time>
      </trkpt>
      <trkpt lat="43.74647" lon="7.05036">
        <ele>1017.5</ele>
        <time>2024-11-27T10:52:23.000Z</time>
      </trkpt>
      <trkpt lat="43.74655" lon="7.05043">
        <ele>1018</ele>
        <time>2024-11-27T10:52:15.000Z</time>
      </trkpt>
      <trkpt lat="43.74663" lon="7.05049">
        <ele>1017.7</ele>
        <time>2024-11-27T10:52:06.000Z</time>
      </trkpt>
      <trkpt lat="43.7467" lon="7.05058">
        <ele>1015.8</ele>
        <time>2024-11-27T10:51:59.000Z</time>
      </trkpt>
      <trkpt lat="43.74676" lon="7.05068">
        <ele>1014.1</ele>
        <time>2024-11-27T10:51:50.000Z</time>
      </trkpt>
      <trkpt lat="43.74684" lon="7.05076">
        <ele>1013.4</ele>
        <time>2024-11-27T10:51:41.000Z</time>
      </trkpt>
      <trkpt lat="43.7469" lon="7.05086">
        <ele>1012.9</ele>
        <time>2024-11-27T10:51:33.000Z</time>
      </trkpt>
      <trkpt lat="43.74696" lon="7.05096">
        <ele>1012.7</ele>
        <time>2024-11-27T10:51:25.000Z</time>
      </trkpt>
      <trkpt lat="43.74701" lon="7.05106">
        <ele>1012.5</ele>
        <time>2024-11-27T10:51:18.000Z</time>
      </trkpt>
      <trkpt lat="43.74706" lon="7.05118">
        <ele>1011.7</ele>
        <time>2024-11-27T10:51:10.000Z</time>
      </trkpt>
      <trkpt lat="43.74713" lon="7.05127">
        <ele>1010.6</ele>
        <time>2024-11-27T10:51:02.000Z</time>
      </trkpt>
      <trkpt lat="43.74718" lon="7.05138">
        <ele>1009.8</ele>
        <time>2024-11-27T10:50:53.000Z</time>
      </trkpt>
      <trkpt lat="43.74724" lon="7.05149">
        <ele>1009.3</ele>
        <time>2024-11-27T10:50:44.000Z</time>
      </trkpt>
      <trkpt lat="43.74732" lon="7.05156">
        <ele>1007.1</ele>
        <time>2024-11-27T10:50:33.000Z</time>
      </trkpt>
      <trkpt lat="43.74741" lon="7.05158">
        <ele>1004.7</ele>
        <time>2024-11-27T10:50:22.000Z</time>
      </trkpt>
      <trkpt lat="43.74748" lon="7.05167">
        <ele>1003.2</ele>
        <time>2024-11-27T10:50:10.000Z</time>
      </trkpt>
      <trkpt lat="43.74751" lon="7.05179">
        <ele>1002.8</ele>
        <time>2024-11-27T10:50:01.000Z</time>
      </trkpt>
      <trkpt lat="43.74752" lon="7.05192">
        <ele>1002.4</ele>
        <time>2024-11-27T10:49:52.000Z</time>
      </trkpt>
      <trkpt lat="43.74751" lon="7.05206">
        <ele>1001.9</ele>
        <time>2024-11-27T10:49:44.000Z</time>
      </trkpt>
      <trkpt lat="43.74753" lon="7.05219">
        <ele>999.9</ele>
        <time>2024-11-27T10:49:35.000Z</time>
      </trkpt>
      <trkpt lat="43.74757" lon="7.05231">
        <ele>998.9</ele>
        <time>2024-11-27T10:49:27.000Z</time>
      </trkpt>
      <trkpt lat="43.74761" lon="7.05243">
        <ele>998.6</ele>
        <time>2024-11-27T10:49:18.000Z</time>
      </trkpt>
      <trkpt lat="43.74766" lon="7.05254">
        <ele>997.4</ele>
        <time>2024-11-27T10:49:09.000Z</time>
      </trkpt>
      <trkpt lat="43.74768" lon="7.05267">
        <ele>996.1</ele>
        <time>2024-11-27T10:49:01.000Z</time>
      </trkpt>
      <trkpt lat="43.74768" lon="7.0528">
        <ele>995.8</ele>
        <time>2024-11-27T10:48:54.000Z</time>
      </trkpt>
      <trkpt lat="43.74767" lon="7.05293">
        <ele>994.8</ele>
        <time>2024-11-27T10:48:46.000Z</time>
      </trkpt>
      <trkpt lat="43.74767" lon="7.05306">
        <ele>992.7</ele>
        <time>2024-11-27T10:48:38.000Z</time>
      </trkpt>
      <trkpt lat="43.74769" lon="7.05318">
        <ele>991.2</ele>
        <time>2024-11-27T10:48:28.000Z</time>
      </trkpt>
      <trkpt lat="43.74772" lon="7.05331">
        <ele>989</ele>
        <time>2024-11-27T10:48:18.000Z</time>
      </trkpt>
      <trkpt lat="43.74775" lon="7.05344">
        <ele>988</ele>
        <time>2024-11-27T10:48:08.000Z</time>
      </trkpt>
      <trkpt lat="43.74777" lon="7.05357">
        <ele>987.1</ele>
        <time>2024-11-27T10:47:58.000Z</time>
      </trkpt>
      <trkpt lat="43.74779" lon="7.0537">
        <ele>986.7</ele>
        <time>2024-11-27T10:47:49.000Z</time>
      </trkpt>
      <trkpt lat="43.74781" lon="7.05383">
        <ele>986.1</ele>
        <time>2024-11-27T10:47:39.000Z</time>
      </trkpt>
      <trkpt lat="43.74787" lon="7.05393">
        <ele>984.1</ele>
        <time>2024-11-27T10:47:31.000Z</time>
      </trkpt>
      <trkpt lat="43.74796" lon="7.054">
        <ele>982.7</ele>
        <time>2024-11-27T10:47:24.000Z</time>
      </trkpt>
      <trkpt lat="43.74805" lon="7.05406">
        <ele>981.8</ele>
        <time>2024-11-27T10:47:16.000Z</time>
      </trkpt>
      <trkpt lat="43.74814" lon="7.0541">
        <ele>981.4</ele>
        <time>2024-11-27T10:47:09.000Z</time>
      </trkpt>
      <trkpt lat="43.74825" lon="7.05411">
        <ele>980.8</ele>
        <time>2024-11-27T10:47:01.000Z</time>
      </trkpt>
      <trkpt lat="43.74834" lon="7.05415">
        <ele>978.6</ele>
        <time>2024-11-27T10:46:52.000Z</time>
      </trkpt>
      <trkpt lat="43.74843" lon="7.05417">
        <ele>976.9</ele>
        <time>2024-11-27T10:46:42.000Z</time>
      </trkpt>
      <trkpt lat="43.74852" lon="7.05417">
        <ele>976.1</ele>
        <time>2024-11-27T10:46:34.000Z</time>
      </trkpt>
      <trkpt lat="43.74862" lon="7.05419">
        <ele>976</ele>
        <time>2024-11-27T10:46:26.000Z</time>
      </trkpt>
      <trkpt lat="43.74871" lon="7.05422">
        <ele>976.2</ele>
        <time>2024-11-27T10:46:18.000Z</time>
      </trkpt>
      <trkpt lat="43.7488" lon="7.05426">
        <ele>976</ele>
        <time>2024-11-27T10:46:11.000Z</time>
      </trkpt>
      <trkpt lat="43.74888" lon="7.05433">
        <ele>975.9</ele>
        <time>2024-11-27T10:46:04.000Z</time>
      </trkpt>
      <trkpt lat="43.74895" lon="7.05443">
        <ele>977</ele>
        <time>2024-11-27T10:45:56.000Z</time>
      </trkpt>
      <trkpt lat="43.74903" lon="7.05451">
        <ele>977.5</ele>
        <time>2024-11-27T10:45:48.000Z</time>
      </trkpt>
      <trkpt lat="43.7491" lon="7.05461">
        <ele>977.6</ele>
        <time>2024-11-27T10:45:40.000Z</time>
      </trkpt>
      <trkpt lat="43.74911" lon="7.05474">
        <ele>976.8</ele>
        <time>2024-11-27T10:45:32.000Z</time>
      </trkpt>
      <trkpt lat="43.74909" lon="7.05486">
        <ele>975.8</ele>
        <time>2024-11-27T10:45:26.000Z</time>
      </trkpt>
      <trkpt lat="43.74903" lon="7.05497">
        <ele>974.7</ele>
        <time>2024-11-27T10:45:19.000Z</time>
      </trkpt>
      <trkpt lat="43.74898" lon="7.05507">
        <ele>973.7</ele>
        <time>2024-11-27T10:45:12.000Z</time>
      </trkpt>
      <trkpt lat="43.74893" lon="7.05519">
        <ele>972.6</ele>
        <time>2024-11-27T10:45:05.000Z</time>
      </trkpt>
      <trkpt lat="43.7489" lon="7.05531">
        <ele>972.1</ele>
        <time>2024-11-27T10:44:58.000Z</time>
      </trkpt>
      <trkpt lat="43.74889" lon="7.05544">
        <ele>971.3</ele>
        <time>2024-11-27T10:44:51.000Z</time>
      </trkpt>
      <trkpt lat="43.7489" lon="7.05558">
        <ele>970.9</ele>
        <time>2024-11-27T10:44:44.000Z</time>
      </trkpt>
      <trkpt lat="43.74893" lon="7.0557">
        <ele>970.4</ele>
        <time>2024-11-27T10:44:37.000Z</time>
      </trkpt>
      <trkpt lat="43.74895" lon="7.05583">
        <ele>969.8</ele>
        <time>2024-11-27T10:44:30.000Z</time>
      </trkpt>
      <trkpt lat="43.74896" lon="7.05595">
        <ele>969.4</ele>
        <time>2024-11-27T10:44:23.000Z</time>
      </trkpt>
      <trkpt lat="43.74898" lon="7.05609">
        <ele>968.9</ele>
        <time>2024-11-27T10:44:15.000Z</time>
      </trkpt>
      <trkpt lat="43.74898" lon="7.05622">
        <ele>967.4</ele>
        <time>2024-11-27T10:44:08.000Z</time>
      </trkpt>
      <trkpt lat="43.74898" lon="7.05635">
        <ele>965.3</ele>
        <time>2024-11-27T10:44:01.000Z</time>
      </trkpt>
      <trkpt lat="43.74898" lon="7.05648">
        <ele>963.9</ele>
        <time>2024-11-27T10:43:54.000Z</time>
      </trkpt>
      <trkpt lat="43.74897" lon="7.0566">
        <ele>963.5</ele>
        <time>2024-11-27T10:43:47.000Z</time>
      </trkpt>
      <trkpt lat="43.74893" lon="7.05672">
        <ele>963.7</ele>
        <time>2024-11-27T10:43:40.000Z</time>
      </trkpt>
      <trkpt lat="43.7489" lon="7.05684">
        <ele>963.1</ele>
        <time>2024-11-27T10:43:32.000Z</time>
      </trkpt>
      <trkpt lat="43.74886" lon="7.05696">
        <ele>962.4</ele>
        <time>2024-11-27T10:43:24.000Z</time>
      </trkpt>
      <trkpt lat="43.74885" lon="7.05709">
        <ele>960.6</ele>
        <time>2024-11-27T10:43:14.000Z</time>
      </trkpt>
      <trkpt lat="43.74889" lon="7.05722">
        <ele>960.2</ele>
        <time>2024-11-27T10:43:06.000Z</time>
      </trkpt>
      <trkpt lat="43.74892" lon="7.05736">
        <ele>960.5</ele>
        <time>2024-11-27T10:42:59.000Z</time>
      </trkpt>
      <trkpt lat="43.74894" lon="7.05748">
        <ele>960.7</ele>
        <time>2024-11-27T10:42:52.000Z</time>
      </trkpt>
      <trkpt lat="43.74898" lon="7.05761">
        <ele>960.7</ele>
        <time>2024-11-27T10:42:44.000Z</time>
      </trkpt>
      <trkpt lat="43.74904" lon="7.05771">
        <ele>960.7</ele>
        <time>2024-11-27T10:42:37.000Z</time>
      </trkpt>
      <trkpt lat="43.74913" lon="7.05779">
        <ele>960.7</ele>
        <time>2024-11-27T10:42:30.000Z</time>
      </trkpt>
      <trkpt lat="43.74922" lon="7.05784">
        <ele>960.9</ele>
        <time>2024-11-27T10:42:23.000Z</time>
      </trkpt>
      <trkpt lat="43.74932" lon="7.05787">
        <ele>961.3</ele>
        <time>2024-11-27T10:42:16.000Z</time>
      </trkpt>
      <trkpt lat="43.7494" lon="7.05782">
        <ele>961.6</ele>
        <time>2024-11-27T10:42:09.000Z</time>
      </trkpt>
      <trkpt lat="43.74949" lon="7.05776">
        <ele>962.1</ele>
        <time>2024-11-27T10:42:01.000Z</time>
      </trkpt>
      <trkpt lat="43.74959" lon="7.05778">
        <ele>963</ele>
        <time>2024-11-27T10:41:52.000Z</time>
      </trkpt>
      <trkpt lat="43.74968" lon="7.05783">
        <ele>963.5</ele>
        <time>2024-11-27T10:41:45.000Z</time>
      </trkpt>
      <trkpt lat="43.74974" lon="7.05793">
        <ele>963.8</ele>
        <time>2024-11-27T10:41:38.000Z</time>
      </trkpt>
      <trkpt lat="43.74982" lon="7.05799">
        <ele>963.9</ele>
        <time>2024-11-27T10:41:31.000Z</time>
      </trkpt>
      <trkpt lat="43.74989" lon="7.05808">
        <ele>963.9</ele>
        <time>2024-11-27T10:41:24.000Z</time>
      </trkpt>
      <trkpt lat="43.74992" lon="7.0582">
        <ele>963.9</ele>
        <time>2024-11-27T10:41:17.000Z</time>
      </trkpt>
      <trkpt lat="43.74994" lon="7.05833">
        <ele>963.8</ele>
        <time>2024-11-27T10:41:10.000Z</time>
      </trkpt>
      <trkpt lat="43.74999" lon="7.05845">
        <ele>963.7</ele>
        <time>2024-11-27T10:41:03.000Z</time>
      </trkpt>
      <trkpt lat="43.75004" lon="7.05856">
        <ele>963.1</ele>
        <time>2024-11-27T10:40:56.000Z</time>
      </trkpt>
      <trkpt lat="43.75005" lon="7.05868">
        <ele>962.1</ele>
        <time>2024-11-27T10:40:49.000Z</time>
      </trkpt>
      <trkpt lat="43.75006" lon="7.05882">
        <ele>960.7</ele>
        <time>2024-11-27T10:40:40.000Z</time>
      </trkpt>
      <trkpt lat="43.75007" lon="7.05896">
        <ele>958.9</ele>
        <time>2024-11-27T10:40:30.000Z</time>
      </trkpt>
      <trkpt lat="43.75009" lon="7.05909">
        <ele>958.9</ele>
        <time>2024-11-27T10:40:20.000Z</time>
      </trkpt>
      <trkpt lat="43.75013" lon="7.0592">
        <ele>959.2</ele>
        <time>2024-11-27T10:40:10.000Z</time>
      </trkpt>
      <trkpt lat="43.75016" lon="7.05933">
        <ele>959.4</ele>
        <time>2024-11-27T10:40:03.000Z</time>
      </trkpt>
      <trkpt lat="43.7502" lon="7.05945">
        <ele>959.3</ele>
        <time>2024-11-27T10:39:56.000Z</time>
      </trkpt>
      <trkpt lat="43.75023" lon="7.05958">
        <ele>959.2</ele>
        <time>2024-11-27T10:39:49.000Z</time>
      </trkpt>
      <trkpt lat="43.75025" lon="7.05971">
        <ele>958.9</ele>
        <time>2024-11-27T10:39:43.000Z</time>
      </trkpt>
      <trkpt lat="43.75026" lon="7.05983">
        <ele>958.8</ele>
        <time>2024-11-27T10:39:37.000Z</time>
      </trkpt>
      <trkpt lat="43.75026" lon="7.05996">
        <ele>958.7</ele>
        <time>2024-11-27T10:39:31.000Z</time>
      </trkpt>
      <trkpt lat="43.75027" lon="7.06009">
        <ele>959.5</ele>
        <time>2024-11-27T10:39:24.000Z</time>
      </trkpt>
      <trkpt lat="43.75033" lon="7.06021">
        <ele>960.2</ele>
        <time>2024-11-27T10:39:17.000Z</time>
      </trkpt>
      <trkpt lat="43.75041" lon="7.06025">
        <ele>960.3</ele>
        <time>2024-11-27T10:39:11.000Z</time>
      </trkpt>
      <trkpt lat="43.7505" lon="7.06031">
        <ele>959.8</ele>
        <time>2024-11-27T10:39:04.000Z</time>
      </trkpt>
      <trkpt lat="43.75056" lon="7.06041">
        <ele>959.7</ele>
        <time>2024-11-27T10:38:58.000Z</time>
      </trkpt>
      <trkpt lat="43.75066" lon="7.06046">
        <ele>960.2</ele>
        <time>2024-11-27T10:38:51.000Z</time>
      </trkpt>
      <trkpt lat="43.75072" lon="7.06055">
        <ele>960.6</ele>
        <time>2024-11-27T10:38:43.000Z</time>
      </trkpt>
      <trkpt lat="43.75077" lon="7.06066">
        <ele>961.9</ele>
        <time>2024-11-27T10:38:37.000Z</time>
      </trkpt>
      <trkpt lat="43.75087" lon="7.06068">
        <ele>962.8</ele>
        <time>2024-11-27T10:38:31.000Z</time>
      </trkpt>
      <trkpt lat="43.75095" lon="7.06071">
        <ele>964.6</ele>
        <time>2024-11-27T10:38:23.000Z</time>
      </trkpt>
      <trkpt lat="43.75104" lon="7.06074">
        <ele>965.5</ele>
        <time>2024-11-27T10:38:16.000Z</time>
      </trkpt>
      <trkpt lat="43.75112" lon="7.06082">
        <ele>966.3</ele>
        <time>2024-11-27T10:38:10.000Z</time>
      </trkpt>
      <trkpt lat="43.7512" lon="7.06089">
        <ele>966.8</ele>
        <time>2024-11-27T10:38:03.000Z</time>
      </trkpt>
      <trkpt lat="43.75128" lon="7.06099">
        <ele>967.3</ele>
        <time>2024-11-27T10:37:56.000Z</time>
      </trkpt>
      <trkpt lat="43.75136" lon="7.06105">
        <ele>968.4</ele>
        <time>2024-11-27T10:37:50.000Z</time>
      </trkpt>
      <trkpt lat="43.75144" lon="7.06111">
        <ele>969.1</ele>
        <time>2024-11-27T10:37:44.000Z</time>
      </trkpt>
      <trkpt lat="43.75153" lon="7.0612">
        <ele>969.2</ele>
        <time>2024-11-27T10:37:37.000Z</time>
      </trkpt>
      <trkpt lat="43.75158" lon="7.06129">
        <ele>969.3</ele>
        <time>2024-11-27T10:37:31.000Z</time>
      </trkpt>
      <trkpt lat="43.75164" lon="7.0614">
        <ele>969.3</ele>
        <time>2024-11-27T10:37:25.000Z</time>
      </trkpt>
      <trkpt lat="43.75171" lon="7.06148">
        <ele>969.4</ele>
        <time>2024-11-27T10:37:19.000Z</time>
      </trkpt>
      <trkpt lat="43.75176" lon="7.06158">
        <ele>969.9</ele>
        <time>2024-11-27T10:37:13.000Z</time>
      </trkpt>
      <trkpt lat="43.75183" lon="7.06168">
        <ele>970.3</ele>
        <time>2024-11-27T10:37:06.000Z</time>
      </trkpt>
      <trkpt lat="43.75191" lon="7.06177">
        <ele>970.2</ele>
        <time>2024-11-27T10:37:00.000Z</time>
      </trkpt>
      <trkpt lat="43.75198" lon="7.06185">
        <ele>970.5</ele>
        <time>2024-11-27T10:36:54.000Z</time>
      </trkpt>
      <trkpt lat="43.75203" lon="7.06195">
        <ele>971.2</ele>
        <time>2024-11-27T10:36:48.000Z</time>
      </trkpt>
      <trkpt lat="43.75209" lon="7.06206">
        <ele>973.2</ele>
        <time>2024-11-27T10:36:41.000Z</time>
      </trkpt>
      <trkpt lat="43.75217" lon="7.06213">
        <ele>973.9</ele>
        <time>2024-11-27T10:36:35.000Z</time>
      </trkpt>
      <trkpt lat="43.75222" lon="7.06223">
        <ele>974.1</ele>
        <time>2024-11-27T10:36:28.000Z</time>
      </trkpt>
      <trkpt lat="43.75224" lon="7.06236">
        <ele>973.9</ele>
        <time>2024-11-27T10:36:21.000Z</time>
      </trkpt>
      <trkpt lat="43.75226" lon="7.06249">
        <ele>973.4</ele>
        <time>2024-11-27T10:36:14.000Z</time>
      </trkpt>
      <trkpt lat="43.75227" lon="7.06263">
        <ele>973</ele>
        <time>2024-11-27T10:36:07.000Z</time>
      </trkpt>
      <trkpt lat="43.75228" lon="7.06277">
        <ele>972.1</ele>
        <time>2024-11-27T10:36:00.000Z</time>
      </trkpt>
      <trkpt lat="43.75224" lon="7.0629">
        <ele>971.6</ele>
        <time>2024-11-27T10:35:53.000Z</time>
      </trkpt>
      <trkpt lat="43.75229" lon="7.06302">
        <ele>972.9</ele>
        <time>2024-11-27T10:35:46.000Z</time>
      </trkpt>
      <trkpt lat="43.75235" lon="7.06313">
        <ele>974.5</ele>
        <time>2024-11-27T10:35:39.000Z</time>
      </trkpt>
      <trkpt lat="43.7524" lon="7.06325">
        <ele>975.3</ele>
        <time>2024-11-27T10:35:32.000Z</time>
      </trkpt>
      <trkpt lat="43.75245" lon="7.06338">
        <ele>976</ele>
        <time>2024-11-27T10:35:25.000Z</time>
      </trkpt>
      <trkpt lat="43.7525" lon="7.0635">
        <ele>976.7</ele>
        <time>2024-11-27T10:35:18.000Z</time>
      </trkpt>
      <trkpt lat="43.75257" lon="7.06359">
        <ele>977.1</ele>
        <time>2024-11-27T10:35:11.000Z</time>
      </trkpt>
      <trkpt lat="43.75265" lon="7.06367">
        <ele>977.3</ele>
        <time>2024-11-27T10:35:04.000Z</time>
      </trkpt>
      <trkpt lat="43.75272" lon="7.06376">
        <ele>977.4</ele>
        <time>2024-11-27T10:34:57.000Z</time>
      </trkpt>
      <trkpt lat="43.75281" lon="7.06381">
        <ele>976.4</ele>
        <time>2024-11-27T10:34:49.000Z</time>
      </trkpt>
      <trkpt lat="43.75289" lon="7.06389">
        <ele>974.1</ele>
        <time>2024-11-27T10:34:42.000Z</time>
      </trkpt>
      <trkpt lat="43.75298" lon="7.06391">
        <ele>973</ele>
        <time>2024-11-27T10:34:35.000Z</time>
      </trkpt>
      <trkpt lat="43.75313" lon="7.06402">
        <ele>972.8</ele>
      </trkpt>
      <trkpt lat="43.75351" lon="7.06402">
        <ele>971.7</ele>
      </trkpt>
      <trkpt lat="43.75361" lon="7.06415">
        <ele>970.2</ele>
      </trkpt>
      <trkpt lat="43.75373" lon="7.06433">
        <ele>967.8</ele>
      </trkpt>
      <trkpt lat="43.75418" lon="7.06448">
        <ele>965.6</ele>
      </trkpt>
      <trkpt lat="43.75435" lon="7.06437">
        <ele>966</ele>
      </trkpt>
      <trkpt lat="43.75461" lon="7.06437">
        <ele>964.2</ele>
      </trkpt>
      <trkpt lat="43.75484" lon="7.06449">
        <ele>962.5</ele>
      </trkpt>
      <trkpt lat="43.75506" lon="7.06479">
        <ele>962.2</ele>
      </trkpt>
      <trkpt lat="43.75547" lon="7.06531">
        <ele>962.8</ele>
      </trkpt>
      <trkpt lat="43.75595" lon="7.06632">
        <ele>958.9</ele>
      </trkpt>
      <trkpt lat="43.75605" lon="7.0668">
        <ele>957</ele>
      </trkpt>
      <trkpt lat="43.75609" lon="7.06721">
        <ele>955.9</ele>
      </trkpt>
      <trkpt lat="43.75602" lon="7.06745">
        <ele>955.9</ele>
      </trkpt>
      <trkpt lat="43.75598" lon="7.06767">
        <ele>955.2</ele>
      </trkpt>
      <trkpt lat="43.75602" lon="7.06813">
        <ele>956.6</ele>
      </trkpt>
      <trkpt lat="43.75603" lon="7.06861">
        <ele>958.1</ele>
      </trkpt>
      <trkpt lat="43.75585" lon="7.06898">
        <ele>956.8</ele>
      </trkpt>
      <trkpt lat="43.75581" lon="7.06928">
        <ele>954.4</ele>
      </trkpt>
      <trkpt lat="43.75591" lon="7.06945">
        <ele>953.8</ele>
      </trkpt>
      <trkpt lat="43.75599" lon="7.06965">
        <ele>952.5</ele>
      </trkpt>
      <trkpt lat="43.75607" lon="7.0699">
        <ele>951.2</ele>
      </trkpt>
      <trkpt lat="43.75607" lon="7.07007">
        <ele>950.2</ele>
      </trkpt>
      <trkpt lat="43.75616" lon="7.07054">
        <ele>949.2</ele>
      </trkpt>
      <trkpt lat="43.75621" lon="7.07066">
        <ele>948.7</ele>
      </trkpt>
      <trkpt lat="43.75625" lon="7.07077">
        <ele>948.3</ele>
      </trkpt>
      <trkpt lat="43.7563" lon="7.07086">
        <ele>948.2</ele>
      </trkpt>
      <trkpt lat="43.75636" lon="7.07095">
        <ele>948</ele>
      </trkpt>
      <trkpt lat="43.75638" lon="7.07101">
        <ele>947.7</ele>
      </trkpt>
      <trkpt lat="43.75642" lon="7.07113">
        <ele>947.1</ele>
      </trkpt>
      <trkpt lat="43.75644" lon="7.07123">
        <ele>946.6</ele>
      </trkpt>
      <trkpt lat="43.75645" lon="7.07134">
        <ele>946</ele>
      </trkpt>
      <trkpt lat="43.75646" lon="7.0715">
        <ele>944.7</ele>
      </trkpt>
      <trkpt lat="43.75648" lon="7.0716">
        <ele>944</ele>
      </trkpt>
      <trkpt lat="43.75652" lon="7.0717">
        <ele>943.3</ele>
      </trkpt>
      <trkpt lat="43.75656" lon="7.07178">
        <ele>942.4</ele>
      </trkpt>
      <trkpt lat="43.75662" lon="7.07186">
        <ele>941.8</ele>
      </trkpt>
      <trkpt lat="43.75668" lon="7.07191">
        <ele>941.7</ele>
      </trkpt>
      <trkpt lat="43.75674" lon="7.07194">
        <ele>941.3</ele>
      </trkpt>
      <trkpt lat="43.75682" lon="7.07194">
        <ele>941.6</ele>
      </trkpt>
      <trkpt lat="43.75691" lon="7.07192">
        <ele>942.3</ele>
      </trkpt>
      <trkpt lat="43.75699" lon="7.07192">
        <ele>942.4</ele>
      </trkpt>
      <trkpt lat="43.75712" lon="7.07191">
        <ele>942.6</ele>
      </trkpt>
      <trkpt lat="43.7572" lon="7.0719">
        <ele>942.8</ele>
      </trkpt>
      <trkpt lat="43.75726" lon="7.0719">
        <ele>943.1</ele>
      </trkpt>
      <trkpt lat="43.75731" lon="7.07192">
        <ele>943.1</ele>
      </trkpt>
      <trkpt lat="43.75735" lon="7.07195">
        <ele>942.9</ele>
      </trkpt>
      <trkpt lat="43.75736" lon="7.07198">
        <ele>942.7</ele>
      </trkpt>
      <trkpt lat="43.75737" lon="7.07201">
        <ele>942.5</ele>
      </trkpt>
      <trkpt lat="43.75737" lon="7.07206">
        <ele>942</ele>
      </trkpt>
      <trkpt lat="43.75735" lon="7.07213">
        <ele>941.2</ele>
      </trkpt>
      <trkpt lat="43.75731" lon="7.07223">
        <ele>939.9</ele>
      </trkpt>
      <trkpt lat="43.7573" lon="7.07229">
        <ele>939.7</ele>
      </trkpt>
      <trkpt lat="43.7573" lon="7.07241">
        <ele>939.4</ele>
      </trkpt>
      <trkpt lat="43.7573" lon="7.07249">
        <ele>939.1</ele>
      </trkpt>
      <trkpt lat="43.75729" lon="7.07251">
        <ele>938.9</ele>
      </trkpt>
      <trkpt lat="43.75727" lon="7.07258">
        <ele>938.4</ele>
      </trkpt>
      <trkpt lat="43.75724" lon="7.07267">
        <ele>937.6</ele>
      </trkpt>
      <trkpt lat="43.75719" lon="7.07279">
        <ele>936.5</ele>
      </trkpt>
      <trkpt lat="43.75716" lon="7.07288">
        <ele>935.5</ele>
      </trkpt>
      <trkpt lat="43.75714" lon="7.07296">
        <ele>934.7</ele>
      </trkpt>
      <trkpt lat="43.75714" lon="7.07298">
        <ele>934.6</ele>
      </trkpt>
      <trkpt lat="43.75713" lon="7.07304">
        <ele>934.1</ele>
      </trkpt>
      <trkpt lat="43.75713" lon="7.07313">
        <ele>933.6</ele>
      </trkpt>
      <trkpt lat="43.75714" lon="7.07322">
        <ele>933.2</ele>
      </trkpt>
      <trkpt lat="43.75715" lon="7.0733">
        <ele>932.9</ele>
      </trkpt>
      <trkpt lat="43.75716" lon="7.07336">
        <ele>932.7</ele>
      </trkpt>
      <trkpt lat="43.75716" lon="7.07341">
        <ele>932.5</ele>
      </trkpt>
      <trkpt lat="43.75714" lon="7.07353">
        <ele>931.4</ele>
      </trkpt>
      <trkpt lat="43.75712" lon="7.07364">
        <ele>930.2</ele>
      </trkpt>
      <trkpt lat="43.75711" lon="7.07372">
        <ele>929.4</ele>
      </trkpt>
      <trkpt lat="43.75712" lon="7.07386">
        <ele>928.6</ele>
      </trkpt>
      <trkpt lat="43.75713" lon="7.07403">
        <ele>927.5</ele>
      </trkpt>
      <trkpt lat="43.75714" lon="7.07415">
        <ele>926.8</ele>
      </trkpt>
      <trkpt lat="43.75714" lon="7.07418">
        <ele>926.5</ele>
      </trkpt>
      <trkpt lat="43.75715" lon="7.07424">
        <ele>926.2</ele>
      </trkpt>
      <trkpt lat="43.75718" lon="7.0743">
        <ele>926.4</ele>
      </trkpt>
      <trkpt lat="43.75723" lon="7.07435">
        <ele>927.3</ele>
      </trkpt>
      <trkpt lat="43.75727" lon="7.0744">
        <ele>927.9</ele>
      </trkpt>
      <trkpt lat="43.75732" lon="7.07445">
        <ele>928.8</ele>
      </trkpt>
      <trkpt lat="43.75733" lon="7.07448">
        <ele>928.7</ele>
      </trkpt>
      <trkpt lat="43.75733" lon="7.07454">
        <ele>928.1</ele>
      </trkpt>
      <trkpt lat="43.75728" lon="7.0745">
        <ele>927.1</ele>
      </trkpt>
      <trkpt lat="43.75722" lon="7.0745">
        <ele>925.3</ele>
      </trkpt>
      <trkpt lat="43.75717" lon="7.07453">
        <ele>923.8</ele>
      </trkpt>
      <trkpt lat="43.75713" lon="7.07457">
        <ele>922.5</ele>
      </trkpt>
      <trkpt lat="43.75711" lon="7.07464">
        <ele>921.3</ele>
      </trkpt>
      <trkpt lat="43.75711" lon="7.07473">
        <ele>920.5</ele>
      </trkpt>
      <trkpt lat="43.75712" lon="7.07481">
        <ele>920.2</ele>
      </trkpt>
      <trkpt lat="43.75713" lon="7.07488">
        <ele>919.9</ele>
      </trkpt>
      <trkpt lat="43.7572" lon="7.07529">
        <ele>921.3</ele>
      </trkpt>
      <trkpt lat="43.7572" lon="7.07536">
        <ele>921.1</ele>
      </trkpt>
      <trkpt lat="43.7572" lon="7.0754">
        <ele>921</ele>
      </trkpt>
      <trkpt lat="43.75719" lon="7.07551">
        <ele>920.3</ele>
      </trkpt>
      <trkpt lat="43.75717" lon="7.07575">
        <ele>919.6</ele>
      </trkpt>
      <trkpt lat="43.75716" lon="7.07597">
        <ele>919.2</ele>
      </trkpt>
      <trkpt lat="43.75714" lon="7.07608">
        <ele>918.6</ele>
      </trkpt>
      <trkpt lat="43.75711" lon="7.0762">
        <ele>917.9</ele>
      </trkpt>
      <trkpt lat="43.75706" lon="7.07635">
        <ele>916.8</ele>
      </trkpt>
      <trkpt lat="43.757" lon="7.07652">
        <ele>915.4</ele>
      </trkpt>
      <trkpt lat="43.75693" lon="7.07673">
        <ele>913.9</ele>
      </trkpt>
      <trkpt lat="43.75687" lon="7.07692">
        <ele>913</ele>
      </trkpt>
      <trkpt lat="43.75682" lon="7.07707">
        <ele>911.9</ele>
      </trkpt>
      <trkpt lat="43.75678" lon="7.07718">
        <ele>910.9</ele>
      </trkpt>
      <trkpt lat="43.75675" lon="7.07729">
        <ele>910.1</ele>
      </trkpt>
      <trkpt lat="43.75673" lon="7.07741">
        <ele>909.6</ele>
      </trkpt>
      <trkpt lat="43.7567" lon="7.07755">
        <ele>908.6</ele>
      </trkpt>
      <trkpt lat="43.75668" lon="7.07769">
        <ele>907.6</ele>
      </trkpt>
      <trkpt lat="43.75667" lon="7.07781">
        <ele>907</ele>
      </trkpt>
      <trkpt lat="43.75667" lon="7.078">
        <ele>906.3</ele>
      </trkpt>
      <trkpt lat="43.75668" lon="7.07822">
        <ele>905.1</ele>
      </trkpt>
      <trkpt lat="43.75669" lon="7.07844">
        <ele>903.8</ele>
      </trkpt>
      <trkpt lat="43.7567" lon="7.07863">
        <ele>902.7</ele>
      </trkpt>
      <trkpt lat="43.75671" lon="7.07883">
        <ele>901.5</ele>
      </trkpt>
      <trkpt lat="43.75673" lon="7.07904">
        <ele>900.5</ele>
      </trkpt>
      <trkpt lat="43.75676" lon="7.07931">
        <ele>899.3</ele>
      </trkpt>
      <trkpt lat="43.75677" lon="7.07942">
        <ele>898.8</ele>
      </trkpt>
      <trkpt lat="43.75678" lon="7.07958">
        <ele>897.7</ele>
      </trkpt>
      <trkpt lat="43.7568" lon="7.07977">
        <ele>896.3</ele>
      </trkpt>
      <trkpt lat="43.75675" lon="7.07968">
        <ele>896.1</ele>
      </trkpt>
      <trkpt lat="43.75671" lon="7.07968">
        <ele>895.3</ele>
        <extensions>
          <visugpx:TrkExtension xmlns:visugpx="https://www.visugpx.com/editgpx/">
            <visugpx:node>1</visugpx:node>
            </visugpx:TrkExtension>
        </extensions>
      </trkpt>
      <trkpt lat="43.75666" lon="7.07968">
        <ele>894.1</ele>
      </trkpt>
      <trkpt lat="43.75661" lon="7.07972">
        <ele>892.4</ele>
      </trkpt>
      <trkpt lat="43.75659" lon="7.07972">
        <ele>891.8</ele>
      </trkpt>
      <trkpt lat="43.75654" lon="7.07966">
        <ele>890.8</ele>
      </trkpt>
      <trkpt lat="43.75651" lon="7.0796">
        <ele>890.4</ele>
      </trkpt>
      <trkpt lat="43.75647" lon="7.07957">
        <ele>889.4</ele>
      </trkpt>
      <trkpt lat="43.75646" lon="7.07955">
        <ele>889.3</ele>
      </trkpt>
      <trkpt lat="43.75644" lon="7.0795">
        <ele>889.1</ele>
      </trkpt>
      <trkpt lat="43.75641" lon="7.07947">
        <ele>888.4</ele>
      </trkpt>
      <trkpt lat="43.75638" lon="7.0794">
        <ele>888.2</ele>
      </trkpt>
      <trkpt lat="43.75635" lon="7.0794">
        <ele>887.5</ele>
      </trkpt>
      <trkpt lat="43.7563" lon="7.07944">
        <ele>885.8</ele>
      </trkpt>
      <trkpt lat="43.75626" lon="7.07947">
        <ele>884.6</ele>
      </trkpt>
      <trkpt lat="43.7562" lon="7.07945">
        <ele>883.2</ele>
      </trkpt>
      <trkpt lat="43.75614" lon="7.07946">
        <ele>881.6</ele>
      </trkpt>
      <trkpt lat="43.75607" lon="7.07948">
        <ele>879.7</ele>
      </trkpt>
      <trkpt lat="43.756" lon="7.07949">
        <ele>877.8</ele>
      </trkpt>
      <trkpt lat="43.75596" lon="7.07951">
        <ele>876.6</ele>
      </trkpt>
      <trkpt lat="43.75591" lon="7.07948">
        <ele>875.6</ele>
      </trkpt>
      <trkpt lat="43.75584" lon="7.07951">
        <ele>873.5</ele>
      </trkpt>
      <trkpt lat="43.75577" lon="7.07953">
        <ele>871.8</ele>
      </trkpt>
      <trkpt lat="43.75571" lon="7.07955">
        <ele>870.5</ele>
      </trkpt>
      <trkpt lat="43.75569" lon="7.0796">
        <ele>869.8</ele>
      </trkpt>
      <trkpt lat="43.75568" lon="7.07965">
        <ele>869.3</ele>
      </trkpt>
      <trkpt lat="43.75568" lon="7.07969">
        <ele>869</ele>
      </trkpt>
      <trkpt lat="43.75565" lon="7.07977">
        <ele>868.1</ele>
      </trkpt>
      <trkpt lat="43.75566" lon="7.07981">
        <ele>868.1</ele>
      </trkpt>
      <trkpt lat="43.75567" lon="7.07985">
        <ele>868.1</ele>
      </trkpt>
      <trkpt lat="43.75565" lon="7.0799">
        <ele>867.5</ele>
      </trkpt>
      <trkpt lat="43.7556" lon="7.07993">
        <ele>866.4</ele>
      </trkpt>
      <trkpt lat="43.75558" lon="7.07991">
        <ele>866.1</ele>
      </trkpt>
      <trkpt lat="43.75555" lon="7.07989">
        <ele>865.7</ele>
      </trkpt>
      <trkpt lat="43.75552" lon="7.07987">
        <ele>865</ele>
      </trkpt>
      <trkpt lat="43.7555" lon="7.07984">
        <ele>864.8</ele>
      </trkpt>
      <trkpt lat="43.75546" lon="7.07984">
        <ele>863.7</ele>
      </trkpt>
      <trkpt lat="43.75543" lon="7.07983">
        <ele>863.1</ele>
      </trkpt>
      <trkpt lat="43.75536" lon="7.07982">
        <ele>861.4</ele>
      </trkpt>
      <trkpt lat="43.75533" lon="7.0798">
        <ele>860.8</ele>
      </trkpt>
      <trkpt lat="43.75529" lon="7.07976">
        <ele>860</ele>
      </trkpt>
      <trkpt lat="43.75529" lon="7.07982">
        <ele>859.6</ele>
      </trkpt>
      <trkpt lat="43.75528" lon="7.07985">
        <ele>859.1</ele>
      </trkpt>
      <trkpt lat="43.75527" lon="7.07986">
        <ele>858.8</ele>
      </trkpt>
      <trkpt lat="43.75518" lon="7.0799">
        <ele>856.5</ele>
      </trkpt>
      <trkpt lat="43.75512" lon="7.07991">
        <ele>855.1</ele>
      </trkpt>
      <trkpt lat="43.75506" lon="7.07992">
        <ele>853.6</ele>
      </trkpt>
      <trkpt lat="43.755" lon="7.07992">
        <ele>852.3</ele>
      </trkpt>
      <trkpt lat="43.75497" lon="7.07993">
        <ele>851.5</ele>
      </trkpt>
      <trkpt lat="43.75493" lon="7.07995">
        <ele>850.4</ele>
      </trkpt>
      <trkpt lat="43.7549" lon="7.07999">
        <ele>849.5</ele>
      </trkpt>
      <trkpt lat="43.75487" lon="7.08004">
        <ele>848.6</ele>
      </trkpt>
      <trkpt lat="43.75484" lon="7.08008">
        <ele>847.7</ele>
      </trkpt>
      <trkpt lat="43.75479" lon="7.08012">
        <ele>846.5</ele>
      </trkpt>
      <trkpt lat="43.7547" lon="7.08018">
        <ele>844.6</ele>
      </trkpt>
      <trkpt lat="43.75461" lon="7.08023">
        <ele>843</ele>
      </trkpt>
      <trkpt lat="43.75452" lon="7.08029">
        <ele>841.3</ele>
      </trkpt>
      <trkpt lat="43.75444" lon="7.08033">
        <ele>839.7</ele>
      </trkpt>
      <trkpt lat="43.75437" lon="7.08039">
        <ele>838.3</ele>
      </trkpt>
      <trkpt lat="43.75433" lon="7.08043">
        <ele>837.4</ele>
      </trkpt>
      <trkpt lat="43.75428" lon="7.08049">
        <ele>836.3</ele>
      </trkpt>
      <trkpt lat="43.75425" lon="7.08051">
        <ele>835.7</ele>
      </trkpt>
      <trkpt lat="43.75421" lon="7.08053">
        <ele>834.9</ele>
      </trkpt>
      <trkpt lat="43.75416" lon="7.08054">
        <ele>833.9</ele>
      </trkpt>
      <trkpt lat="43.75412" lon="7.08055">
        <ele>833.2</ele>
      </trkpt>
      <trkpt lat="43.75405" lon="7.08055">
        <ele>831.9</ele>
      </trkpt>
      <trkpt lat="43.75398" lon="7.08055">
        <ele>830.6</ele>
      </trkpt>
      <trkpt lat="43.75392" lon="7.08056">
        <ele>829.6</ele>
      </trkpt>
      <trkpt lat="43.75389" lon="7.08058">
        <ele>829.1</ele>
      </trkpt>
      <trkpt lat="43.75384" lon="7.08061">
        <ele>828.3</ele>
      </trkpt>
      <trkpt lat="43.75378" lon="7.08063">
        <ele>827.3</ele>
      </trkpt>
      <trkpt lat="43.7537" lon="7.08064">
        <ele>825.9</ele>
      </trkpt>
      <trkpt lat="43.7536" lon="7.08064">
        <ele>824.1</ele>
      </trkpt>
      <trkpt lat="43.75351" lon="7.08064">
        <ele>822.6</ele>
      </trkpt>
      <trkpt lat="43.75345" lon="7.08063">
        <ele>821.5</ele>
      </trkpt>
      <trkpt lat="43.75338" lon="7.08061">
        <ele>820.2</ele>
      </trkpt>
      <trkpt lat="43.75335" lon="7.0806">
        <ele>819.6</ele>
      </trkpt>
      <trkpt lat="43.75328" lon="7.0806">
        <ele>818.7</ele>
      </trkpt>
      <trkpt lat="43.75323" lon="7.08059">
        <ele>818.1</ele>
      </trkpt>
      <trkpt lat="43.75319" lon="7.08058">
        <ele>817.6</ele>
      </trkpt>
      <trkpt lat="43.75312" lon="7.08055">
        <ele>816.6</ele>
      </trkpt>
      <trkpt lat="43.75307" lon="7.08052">
        <ele>815.8</ele>
      </trkpt>
      <trkpt lat="43.75304" lon="7.08051">
        <ele>815.3</ele>
      </trkpt>
      <trkpt lat="43.75297" lon="7.08052">
        <ele>814.7</ele>
      </trkpt>
      <trkpt lat="43.75278" lon="7.08054">
        <ele>812.9</ele>
      </trkpt>
      <trkpt lat="43.75272" lon="7.08053">
        <ele>812.4</ele>
      </trkpt>
      <trkpt lat="43.75273" lon="7.08046">
        <ele>812</ele>
      </trkpt>
      <trkpt lat="43.75275" lon="7.08036">
        <ele>811.5</ele>
      </trkpt>
      <trkpt lat="43.75276" lon="7.08027">
        <ele>810.9</ele>
      </trkpt>
      <trkpt lat="43.75275" lon="7.08017">
        <ele>809.7</ele>
      </trkpt>
      <trkpt lat="43.75274" lon="7.08011">
        <ele>809.1</ele>
      </trkpt>
      <trkpt lat="43.75274" lon="7.08003">
        <ele>808.2</ele>
      </trkpt>
      <trkpt lat="43.75273" lon="7.07992">
        <ele>806.5</ele>
      </trkpt>
      <trkpt lat="43.75274" lon="7.07982">
        <ele>804.8</ele>
      </trkpt>
      <trkpt lat="43.75274" lon="7.07974">
        <ele>803.4</ele>
      </trkpt>
      <trkpt lat="43.75274" lon="7.07968">
        <ele>802.5</ele>
      </trkpt>
      <trkpt lat="43.75272" lon="7.07961">
        <ele>801.5</ele>
      </trkpt>
      <trkpt lat="43.75267" lon="7.07952">
        <ele>800.2</ele>
      </trkpt>
      <trkpt lat="43.75261" lon="7.07941">
        <ele>798.3</ele>
      </trkpt>
      <trkpt lat="43.75259" lon="7.07937">
        <ele>797.6</ele>
      </trkpt>
      <trkpt lat="43.75258" lon="7.07934">
        <ele>797</ele>
      </trkpt>
      <trkpt lat="43.75258" lon="7.0793">
        <ele>796.3</ele>
      </trkpt>
      <trkpt lat="43.75256" lon="7.07928">
        <ele>795.9</ele>
      </trkpt>
      <trkpt lat="43.75254" lon="7.07926">
        <ele>795.6</ele>
      </trkpt>
      <trkpt lat="43.75253" lon="7.07924">
        <ele>795.2</ele>
      </trkpt>
      <trkpt lat="43.75253" lon="7.07919">
        <ele>794.3</ele>
      </trkpt>
      <trkpt lat="43.75253" lon="7.07911">
        <ele>792.8</ele>
      </trkpt>
      <trkpt lat="43.75252" lon="7.07904">
        <ele>791.6</ele>
      </trkpt>
      <trkpt lat="43.7525" lon="7.07896">
        <ele>790.3</ele>
      </trkpt>
      <trkpt lat="43.75245" lon="7.07885">
        <ele>787.6</ele>
      </trkpt>
      <trkpt lat="43.7524" lon="7.07876">
        <ele>785.3</ele>
      </trkpt>
      <trkpt lat="43.75236" lon="7.07869">
        <ele>783.6</ele>
      </trkpt>
      <trkpt lat="43.75232" lon="7.07863">
        <ele>782.1</ele>
      </trkpt>
      <trkpt lat="43.75227" lon="7.07858">
        <ele>780.7</ele>
      </trkpt>
      <trkpt lat="43.75221" lon="7.07852">
        <ele>778.8</ele>
      </trkpt>
      <trkpt lat="43.75216" lon="7.07846">
        <ele>776.9</ele>
      </trkpt>
      <trkpt lat="43.75213" lon="7.0784">
        <ele>775.3</ele>
      </trkpt>
      <trkpt lat="43.75211" lon="7.07834">
        <ele>773.9</ele>
      </trkpt>
      <trkpt lat="43.75205" lon="7.07827">
        <ele>771.8</ele>
      </trkpt>
      <trkpt lat="43.75199" lon="7.07822">
        <ele>770.3</ele>
      </trkpt>
      <trkpt lat="43.75194" lon="7.0782">
        <ele>769.5</ele>
      </trkpt>
      <trkpt lat="43.75185" lon="7.07817">
        <ele>767.6</ele>
      </trkpt>
      <trkpt lat="43.75174" lon="7.07813">
        <ele>765.2</ele>
      </trkpt>
      <trkpt lat="43.75162" lon="7.07811">
        <ele>763.2</ele>
      </trkpt>
      <trkpt lat="43.75141" lon="7.07805">
        <ele>760.1</ele>
      </trkpt>
      <trkpt lat="43.7512" lon="7.078">
        <ele>756.1</ele>
      </trkpt>
      <trkpt lat="43.75114" lon="7.07799">
        <ele>755</ele>
      </trkpt>
      <trkpt lat="43.75111" lon="7.07794">
        <ele>754.2</ele>
      </trkpt>
      <trkpt lat="43.75106" lon="7.07789">
        <ele>753.1</ele>
      </trkpt>
      <trkpt lat="43.75104" lon="7.07788">
        <ele>752.7</ele>
        <extensions>
          <visugpx:TrkExtension xmlns:visugpx="https://www.visugpx.com/editgpx/">
            <visugpx:node>2</visugpx:node>
            </visugpx:TrkExtension>
        </extensions>
      </trkpt>
      <trkpt lat="43.75099" lon="7.07785">
        <ele>751.8</ele>
      </trkpt>
      <trkpt lat="43.75091" lon="7.07782">
        <ele>750.4</ele>
      </trkpt>
      <trkpt lat="43.75081" lon="7.07782">
        <ele>749.1</ele>
      </trkpt>
      <trkpt lat="43.7508" lon="7.07782">
        <ele>749</ele>
      </trkpt>
      <trkpt lat="43.75074" lon="7.07782">
        <ele>748.3</ele>
      </trkpt>
      <trkpt lat="43.75068" lon="7.07785">
        <ele>748</ele>
      </trkpt>
      <trkpt lat="43.75059" lon="7.0779">
        <ele>747.6</ele>
      </trkpt>
      <trkpt lat="43.75047" lon="7.07794">
        <ele>747.5</ele>
      </trkpt>
      <trkpt lat="43.75041" lon="7.07793">
        <ele>747.2</ele>
      </trkpt>
      <trkpt lat="43.7503" lon="7.0779">
        <ele>746.3</ele>
      </trkpt>
      <trkpt lat="43.75029" lon="7.07789">
        <ele>746.1</ele>
      </trkpt>
      <trkpt lat="43.75018" lon="7.07785">
        <ele>744.8</ele>
      </trkpt>
      <trkpt lat="43.75009" lon="7.07783">
        <ele>743.8</ele>
      </trkpt>
      <trkpt lat="43.75006" lon="7.07782">
        <ele>743.4</ele>
      </trkpt>
      <trkpt lat="43.74993" lon="7.07779">
        <ele>741.6</ele>
      </trkpt>
      <trkpt lat="43.74983" lon="7.07776">
        <ele>740</ele>
      </trkpt>
      <trkpt lat="43.7498" lon="7.07775">
        <ele>739.6</ele>
      </trkpt>
      <trkpt lat="43.74969" lon="7.07772">
        <ele>738.1</ele>
      </trkpt>
      <trkpt lat="43.74963" lon="7.07773">
        <ele>737.2</ele>
      </trkpt>
      <trkpt lat="43.7495" lon="7.07778">
        <ele>735.1</ele>
      </trkpt>
      <trkpt lat="43.74932" lon="7.07785">
        <ele>734.3</ele>
      </trkpt>
      <trkpt lat="43.7492" lon="7.07793">
        <ele>734.4</ele>
      </trkpt>
      <trkpt lat="43.74908" lon="7.07797">
        <ele>733.4</ele>
      </trkpt>
      <trkpt lat="43.74898" lon="7.07803">
        <ele>732.6</ele>
      </trkpt>
      <trkpt lat="43.74891" lon="7.07806">
        <ele>731.6</ele>
      </trkpt>
      <trkpt lat="43.74883" lon="7.07811">
        <ele>731.6</ele>
      </trkpt>
      <trkpt lat="43.74874" lon="7.07816">
        <ele>731.3</ele>
      </trkpt>
      <trkpt lat="43.74865" lon="7.07819">
        <ele>730.2</ele>
      </trkpt>
      <trkpt lat="43.74856" lon="7.07825">
        <ele>729.8</ele>
      </trkpt>
      <trkpt lat="43.74847" lon="7.07831">
        <ele>729</ele>
      </trkpt>
      <trkpt lat="43.74837" lon="7.0784">
        <ele>728.2</ele>
      </trkpt>
      <trkpt lat="43.74834" lon="7.07844">
        <ele>728.1</ele>
      </trkpt>
      <trkpt lat="43.7483" lon="7.07849">
        <ele>728.5</ele>
      </trkpt>
      <trkpt lat="43.74822" lon="7.07851">
        <ele>728</ele>
      </trkpt>
      <trkpt lat="43.74815" lon="7.07853">
        <ele>727.6</ele>
      </trkpt>
      <trkpt lat="43.74812" lon="7.07852">
        <ele>727.1</ele>
      </trkpt>
      <trkpt lat="43.74806" lon="7.07847">
        <ele>725.5</ele>
      </trkpt>
      <trkpt lat="43.748" lon="7.07845">
        <ele>724.7</ele>
      </trkpt>
      <trkpt lat="43.74796" lon="7.07845">
        <ele>724.4</ele>
      </trkpt>
      <trkpt lat="43.74791" lon="7.07846">
        <ele>724.2</ele>
      </trkpt>
      <trkpt lat="43.74778" lon="7.07845">
        <ele>723</ele>
      </trkpt>
      <trkpt lat="43.74759" lon="7.07843">
        <ele>721.3</ele>
      </trkpt>
      <trkpt lat="43.74746" lon="7.07841">
        <ele>720.1</ele>
      </trkpt>
      <trkpt lat="43.74727" lon="7.0784">
        <ele>719.1</ele>
      </trkpt>
      <trkpt lat="43.74711" lon="7.07839">
        <ele>717.4</ele>
      </trkpt>
      <trkpt lat="43.74695" lon="7.0784">
        <ele>716</ele>
      </trkpt>
      <trkpt lat="43.74685" lon="7.0784">
        <ele>714.8</ele>
      </trkpt>
      <trkpt lat="43.74673" lon="7.07841">
        <ele>713.7</ele>
      </trkpt>
      <trkpt lat="43.74664" lon="7.07843">
        <ele>713</ele>
      </trkpt>
      <trkpt lat="43.74655" lon="7.07845">
        <ele>712</ele>
      </trkpt>
      <trkpt lat="43.74647" lon="7.07849">
        <ele>711.2</ele>
      </trkpt>
      <trkpt lat="43.74637" lon="7.07856">
        <ele>710.2</ele>
      </trkpt>
      <trkpt lat="43.7463" lon="7.07862">
        <ele>709.7</ele>
      </trkpt>
      <trkpt lat="43.74624" lon="7.07865">
        <ele>709.4</ele>
      </trkpt>
      <trkpt lat="43.74618" lon="7.07865">
        <ele>708.2</ele>
      </trkpt>
      <trkpt lat="43.7461" lon="7.07868">
        <ele>707.4</ele>
      </trkpt>
      <trkpt lat="43.74603" lon="7.0787">
        <ele>706.9</ele>
      </trkpt>
      <trkpt lat="43.74598" lon="7.07869">
        <ele>706.1</ele>
      </trkpt>
      <trkpt lat="43.74592" lon="7.07868">
        <ele>705.3</ele>
      </trkpt>
      <trkpt lat="43.74581" lon="7.07873">
        <ele>704.2</ele>
      </trkpt>
      <trkpt lat="43.74574" lon="7.07875">
        <ele>703.7</ele>
      </trkpt>
      <trkpt lat="43.74566" lon="7.07883">
        <ele>703</ele>
      </trkpt>
      <trkpt lat="43.74559" lon="7.07891">
        <ele>702.6</ele>
      </trkpt>
      <trkpt lat="43.74551" lon="7.07894">
        <ele>702</ele>
      </trkpt>
      <trkpt lat="43.74545" lon="7.07896">
        <ele>701.8</ele>
      </trkpt>
      <trkpt lat="43.7454" lon="7.07902">
        <ele>701.8</ele>
      </trkpt>
      <trkpt lat="43.7454" lon="7.07902">
        <ele>701.8</ele>
      </trkpt>
      <trkpt lat="43.74527" lon="7.07917">
        <ele>701.9</ele>
      </trkpt>
      <trkpt lat="43.74515" lon="7.0793">
        <ele>701.6</ele>
      </trkpt>
      <trkpt lat="43.74505" lon="7.0794">
        <ele>701.2</ele>
      </trkpt>
      <trkpt lat="43.74496" lon="7.07948">
        <ele>700.7</ele>
      </trkpt>
      <trkpt lat="43.74486" lon="7.07956">
        <ele>699.8</ele>
      </trkpt>
      <trkpt lat="43.74477" lon="7.07962">
        <ele>699</ele>
      </trkpt>
      <trkpt lat="43.74469" lon="7.07968">
        <ele>698.2</ele>
      </trkpt>
      <trkpt lat="43.7446" lon="7.07976">
        <ele>697.7</ele>
      </trkpt>
      <trkpt lat="43.74451" lon="7.07984">
        <ele>697</ele>
      </trkpt>
      <trkpt lat="43.74444" lon="7.07986">
        <ele>695.9</ele>
      </trkpt>
      <trkpt lat="43.74439" lon="7.07988">
        <ele>694.7</ele>
      </trkpt>
      <trkpt lat="43.74435" lon="7.07991">
        <ele>693.9</ele>
      </trkpt>
      <trkpt lat="43.74431" lon="7.07992">
        <ele>692.9</ele>
      </trkpt>
      <trkpt lat="43.74424" lon="7.07992">
        <ele>691.1</ele>
      </trkpt>
      <trkpt lat="43.74419" lon="7.07995">
        <ele>690.1</ele>
      </trkpt>
      <trkpt lat="43.74418" lon="7.07998">
        <ele>690.1</ele>
      </trkpt>
      <trkpt lat="43.74416" lon="7.08001">
        <ele>689.9</ele>
      </trkpt>
      <trkpt lat="43.74413" lon="7.08003">
        <ele>689.3</ele>
      </trkpt>
      <trkpt lat="43.74408" lon="7.08007">
        <ele>688.3</ele>
      </trkpt>
      <trkpt lat="43.74404" lon="7.08008">
        <ele>687.3</ele>
      </trkpt>
      <trkpt lat="43.744" lon="7.08006">
        <ele>686</ele>
      </trkpt>
      <trkpt lat="43.74398" lon="7.08002">
        <ele>684.9</ele>
      </trkpt>
      <trkpt lat="43.74394" lon="7.07997">
        <ele>683.1</ele>
      </trkpt>
      <trkpt lat="43.74391" lon="7.07992">
        <ele>681.5</ele>
      </trkpt>
      <trkpt lat="43.74387" lon="7.07982">
        <ele>678.8</ele>
      </trkpt>
      <trkpt lat="43.74385" lon="7.0798">
        <ele>678</ele>
      </trkpt>
      <trkpt lat="43.74383" lon="7.07979">
        <ele>677.2</ele>
      </trkpt>
      <trkpt lat="43.74377" lon="7.07982">
        <ele>675.8</ele>
      </trkpt>
      <trkpt lat="43.74371" lon="7.07983">
        <ele>674.2</ele>
      </trkpt>
      <trkpt lat="43.74368" lon="7.07982">
        <ele>673.1</ele>
      </trkpt>
      <trkpt lat="43.74364" lon="7.0798">
        <ele>671.7</ele>
      </trkpt>
      <trkpt lat="43.74359" lon="7.07984">
        <ele>670.5</ele>
      </trkpt>
      <trkpt lat="43.74354" lon="7.07987">
        <ele>668.9</ele>
      </trkpt>
      <trkpt lat="43.74353" lon="7.07988">
        <ele>668.7</ele>
      </trkpt>
      <trkpt lat="43.74351" lon="7.07991">
        <ele>668.3</ele>
      </trkpt>
      <trkpt lat="43.7435" lon="7.07992">
        <ele>668</ele>
      </trkpt>
      <trkpt lat="43.74343" lon="7.07992">
        <ele>665.4</ele>
      </trkpt>
      <trkpt lat="43.74338" lon="7.0799">
        <ele>663.3</ele>
      </trkpt>
      <trkpt lat="43.74335" lon="7.0799">
        <ele>662.2</ele>
      </trkpt>
      <trkpt lat="43.74328" lon="7.07991">
        <ele>659.3</ele>
      </trkpt>
      <trkpt lat="43.74322" lon="7.07995">
        <ele>657</ele>
      </trkpt>
      <trkpt lat="43.74319" lon="7.08">
        <ele>656.3</ele>
      </trkpt>
      <trkpt lat="43.74312" lon="7.0801">
        <ele>654.7</ele>
      </trkpt>
      <trkpt lat="43.74306" lon="7.08019">
        <ele>653.6</ele>
      </trkpt>
      <trkpt lat="43.74295" lon="7.0803">
        <ele>651.5</ele>
      </trkpt>
      <trkpt lat="43.74282" lon="7.0804">
        <ele>649.6</ele>
      </trkpt>
      <trkpt lat="43.74268" lon="7.08051">
        <ele>648.4</ele>
      </trkpt>
      <trkpt lat="43.74266" lon="7.08053">
        <ele>648.4</ele>
      </trkpt>
      <trkpt lat="43.74259" lon="7.08057">
        <ele>647.4</ele>
      </trkpt>
      <trkpt lat="43.74255" lon="7.08059">
        <ele>646.7</ele>
      </trkpt>
      <trkpt lat="43.74252" lon="7.08059">
        <ele>645.8</ele>
      </trkpt>
      <trkpt lat="43.74246" lon="7.08059">
        <ele>644.1</ele>
      </trkpt>
      <trkpt lat="43.74241" lon="7.08062">
        <ele>643.6</ele>
      </trkpt>
      <trkpt lat="43.74234" lon="7.08065">
        <ele>642.4</ele>
      </trkpt>
      <trkpt lat="43.74225" lon="7.08068">
        <ele>640.5</ele>
      </trkpt>
      <trkpt lat="43.74216" lon="7.08073">
        <ele>638.6</ele>
      </trkpt>
      <trkpt lat="43.74214" lon="7.08075">
        <ele>638.3</ele>
      </trkpt>
      <trkpt lat="43.7421" lon="7.08079">
        <ele>637.7</ele>
      </trkpt>
      <trkpt lat="43.74206" lon="7.08079">
        <ele>636.3</ele>
      </trkpt>
      <trkpt lat="43.74203" lon="7.0808">
        <ele>635.4</ele>
      </trkpt>
      <trkpt lat="43.74202" lon="7.08081">
        <ele>635.3</ele>
      </trkpt>
      <trkpt lat="43.74199" lon="7.08087">
        <ele>635.3</ele>
      </trkpt>
      <trkpt lat="43.74195" lon="7.08091">
        <ele>634.6</ele>
      </trkpt>
      <trkpt lat="43.74187" lon="7.08095">
        <ele>633</ele>
      </trkpt>
      <trkpt lat="43.7419" lon="7.08085">
        <ele>632</ele>
      </trkpt>
      <trkpt lat="43.74195" lon="7.08077">
        <ele>632.1</ele>
      </trkpt>
      <trkpt lat="43.74201" lon="7.08067">
        <ele>632.3</ele>
      </trkpt>
      <trkpt lat="43.74206" lon="7.08056">
        <ele>631.8</ele>
      </trkpt>
      <trkpt lat="43.74208" lon="7.08046">
        <ele>631.2</ele>
      </trkpt>
      <trkpt lat="43.74209" lon="7.08039">
        <ele>630.6</ele>
      </trkpt>
      <trkpt lat="43.74212" lon="7.08033">
        <ele>630.5</ele>
      </trkpt>
      <trkpt lat="43.74214" lon="7.08023">
        <ele>629.5</ele>
      </trkpt>
      <trkpt lat="43.74218" lon="7.08015">
        <ele>629.2</ele>
      </trkpt>
      <trkpt lat="43.74222" lon="7.08006">
        <ele>628.8</ele>
      </trkpt>
      <trkpt lat="43.74225" lon="7.08001">
        <ele>628.4</ele>
      </trkpt>
      <trkpt lat="43.74229" lon="7.07996">
        <ele>628.3</ele>
      </trkpt>
      <trkpt lat="43.74232" lon="7.07989">
        <ele>627.9</ele>
      </trkpt>
      <trkpt lat="43.74235" lon="7.07979">
        <ele>627.1</ele>
      </trkpt>
      <trkpt lat="43.74237" lon="7.07971">
        <ele>626.4</ele>
      </trkpt>
      <trkpt lat="43.7424" lon="7.07968">
        <ele>626.5</ele>
      </trkpt>
      <trkpt lat="43.74238" lon="7.07962">
        <ele>625.5</ele>
      </trkpt>
      <trkpt lat="43.74235" lon="7.07952">
        <ele>623.7</ele>
      </trkpt>
      <trkpt lat="43.74234" lon="7.07945">
        <ele>622.6</ele>
      </trkpt>
      <trkpt lat="43.74234" lon="7.07934">
        <ele>622</ele>
      </trkpt>
      <trkpt lat="43.74234" lon="7.07926">
        <ele>621.5</ele>
      </trkpt>
      <trkpt lat="43.74231" lon="7.07916">
        <ele>620.3</ele>
      </trkpt>
      <trkpt lat="43.74228" lon="7.07909">
        <ele>620.3</ele>
      </trkpt>
      <trkpt lat="43.74228" lon="7.07905">
        <ele>620.7</ele>
      </trkpt>
      <trkpt lat="43.74228" lon="7.079">
        <ele>621.3</ele>
      </trkpt>
      <trkpt lat="43.74228" lon="7.07895">
        <ele>621.8</ele>
      </trkpt>
      <trkpt lat="43.74227" lon="7.07888">
        <ele>622.2</ele>
      </trkpt>
      <trkpt lat="43.74229" lon="7.07881">
        <ele>623</ele>
      </trkpt>
      <trkpt lat="43.74228" lon="7.07876">
        <ele>622.8</ele>
      </trkpt>
      <trkpt lat="43.74229" lon="7.07865">
        <ele>623.5</ele>
      </trkpt>
      <trkpt lat="43.74232" lon="7.07856">
        <ele>624.9</ele>
      </trkpt>
      <trkpt lat="43.74234" lon="7.07847">
        <ele>625.7</ele>
      </trkpt>
      <trkpt lat="43.74238" lon="7.07834">
        <ele>627.2</ele>
      </trkpt>
      <trkpt lat="43.7424" lon="7.07829">
        <ele>627.9</ele>
      </trkpt>
      <trkpt lat="43.7424" lon="7.07826">
        <ele>627.8</ele>
      </trkpt>
      <trkpt lat="43.7424" lon="7.07823">
        <ele>627.8</ele>
      </trkpt>
      <trkpt lat="43.74242" lon="7.0782">
        <ele>628.2</ele>
      </trkpt>
      <trkpt lat="43.74247" lon="7.07813">
        <ele>628.6</ele>
      </trkpt>
      <trkpt lat="43.74254" lon="7.07806">
        <ele>628.6</ele>
      </trkpt>
      <trkpt lat="43.74262" lon="7.07798">
        <ele>629.7</ele>
      </trkpt>
      <trkpt lat="43.74262" lon="7.07794">
        <ele>629.7</ele>
      </trkpt>
      <trkpt lat="43.74262" lon="7.07791">
        <ele>629.7</ele>
      </trkpt>
      <trkpt lat="43.74262" lon="7.07788">
        <ele>629.6</ele>
      </trkpt>
      <trkpt lat="43.7426" lon="7.07786">
        <ele>629.2</ele>
      </trkpt>
      <trkpt lat="43.74257" lon="7.07785">
        <ele>628.6</ele>
      </trkpt>
      <trkpt lat="43.74253" lon="7.07783">
        <ele>627.8</ele>
      </trkpt>
      <trkpt lat="43.74247" lon="7.07778">
        <ele>627.6</ele>
      </trkpt>
      <trkpt lat="43.74243" lon="7.07777">
        <ele>628.6</ele>
      </trkpt>
      <trkpt lat="43.74239" lon="7.07778">
        <ele>629.4</ele>
      </trkpt>
      <trkpt lat="43.74237" lon="7.07779">
        <ele>629.7</ele>
      </trkpt>
      <trkpt lat="43.7423" lon="7.07783">
        <ele>630.4</ele>
      </trkpt>
      <trkpt lat="43.74226" lon="7.07789">
        <ele>629.8</ele>
      </trkpt>
      <trkpt lat="43.7422" lon="7.07802">
        <ele>627.3</ele>
      </trkpt>
      <trkpt lat="43.74212" lon="7.07812">
        <ele>626.3</ele>
      </trkpt>
      <trkpt lat="43.742" lon="7.07825">
        <ele>623.7</ele>
      </trkpt>
      <trkpt lat="43.7419" lon="7.07833">
        <ele>621.8</ele>
      </trkpt>
      <trkpt lat="43.74184" lon="7.07837">
        <ele>621.7</ele>
      </trkpt>
      <trkpt lat="43.74178" lon="7.07838">
        <ele>622.4</ele>
      </trkpt>
      <trkpt lat="43.74165" lon="7.07839">
        <ele>624</ele>
      </trkpt>
      <trkpt lat="43.74155" lon="7.07841">
        <ele>625</ele>
      </trkpt>
      <trkpt lat="43.74146" lon="7.07843">
        <ele>625.9</ele>
      </trkpt>
      <trkpt lat="43.7414" lon="7.07844">
        <ele>626.5</ele>
      </trkpt>
      <trkpt lat="43.74134" lon="7.07849">
        <ele>626.9</ele>
      </trkpt>
      <trkpt lat="43.74127" lon="7.07861">
        <ele>626</ele>
      </trkpt>
      <trkpt lat="43.74122" lon="7.07871">
        <ele>624.7</ele>
      </trkpt>
      <trkpt lat="43.74116" lon="7.07881">
        <ele>623.3</ele>
      </trkpt>
      <trkpt lat="43.74107" lon="7.07889">
        <ele>623.1</ele>
      </trkpt>
      <trkpt lat="43.74098" lon="7.07898">
        <ele>622.8</ele>
      </trkpt>
      <trkpt lat="43.74091" lon="7.07903">
        <ele>623.2</ele>
      </trkpt>
      <trkpt lat="43.74086" lon="7.07906">
        <ele>623.7</ele>
      </trkpt>
      <trkpt lat="43.74084" lon="7.07908">
        <ele>623.6</ele>
      </trkpt>
      <trkpt lat="43.7408" lon="7.07913">
        <ele>622.7</ele>
      </trkpt>
      <trkpt lat="43.74073" lon="7.07919">
        <ele>621.8</ele>
      </trkpt>
      <trkpt lat="43.74064" lon="7.07923">
        <ele>621.9</ele>
      </trkpt>
      <trkpt lat="43.7406" lon="7.07924">
        <ele>622.2</ele>
      </trkpt>
      <trkpt lat="43.74056" lon="7.07924">
        <ele>622.8</ele>
      </trkpt>
      <trkpt lat="43.74049" lon="7.07928">
        <ele>621.9</ele>
      </trkpt>
      <trkpt lat="43.74045" lon="7.0793">
        <ele>621.4</ele>
      </trkpt>
      <trkpt lat="43.74042" lon="7.0793">
        <ele>621.4</ele>
      </trkpt>
      <trkpt lat="43.74038" lon="7.0793">
        <ele>621.5</ele>
      </trkpt>
      <trkpt lat="43.74034" lon="7.07932">
        <ele>620.9</ele>
      </trkpt>
      <trkpt lat="43.74031" lon="7.07933">
        <ele>620.7</ele>
      </trkpt>
      <trkpt lat="43.74023" lon="7.07934">
        <ele>620.8</ele>
      </trkpt>
      <trkpt lat="43.74013" lon="7.07936">
        <ele>621</ele>
      </trkpt>
      <trkpt lat="43.74003" lon="7.07939">
        <ele>621.1</ele>
      </trkpt>
      <trkpt lat="43.74002" lon="7.0794">
        <ele>620.9</ele>
      </trkpt>
      <trkpt lat="43.73992" lon="7.07943">
        <ele>621.2</ele>
      </trkpt>
      <trkpt lat="43.73987" lon="7.0794">
        <ele>622.4</ele>
      </trkpt>
      <trkpt lat="43.73981" lon="7.0794">
        <ele>623</ele>
      </trkpt>
      <trkpt lat="43.73965" lon="7.07935">
        <ele>624.3</ele>
      </trkpt>
      <trkpt lat="43.73957" lon="7.07936">
        <ele>623.6</ele>
      </trkpt>
      <trkpt lat="43.73935" lon="7.07931">
        <ele>623.2</ele>
      </trkpt>
      <trkpt lat="43.73927" lon="7.07931">
        <ele>622.6</ele>
      </trkpt>
      <trkpt lat="43.73918" lon="7.07933">
        <ele>621.6</ele>
      </trkpt>
      <trkpt lat="43.73892" lon="7.0793">
        <ele>622.1</ele>
      </trkpt>
      <trkpt lat="43.73885" lon="7.07926">
        <ele>622.7</ele>
      </trkpt>
      <trkpt lat="43.73873" lon="7.07923">
        <ele>622.5</ele>
      </trkpt>
      <trkpt lat="43.7387" lon="7.0792">
        <ele>622.9</ele>
      </trkpt>
      <trkpt lat="43.73869" lon="7.07916">
        <ele>623.7</ele>
      </trkpt>
      <trkpt lat="43.73853" lon="7.07913">
        <ele>623.7</ele>
      </trkpt>
      <trkpt lat="43.73837" lon="7.07903">
        <ele>625.1</ele>
      </trkpt>
      <trkpt lat="43.73829" lon="7.07901">
        <ele>625.2</ele>
      </trkpt>
      <trkpt lat="43.73804" lon="7.07899">
        <ele>625</ele>
      </trkpt>
      <trkpt lat="43.73796" lon="7.07894">
        <ele>624.8</ele>
      </trkpt>
      <trkpt lat="43.73792" lon="7.07892">
        <ele>624.5</ele>
      </trkpt>
      <trkpt lat="43.7378" lon="7.07885">
        <ele>623.9</ele>
      </trkpt>
      <trkpt lat="43.73774" lon="7.07879">
        <ele>623.9</ele>
      </trkpt>
      <trkpt lat="43.73769" lon="7.07871">
        <ele>624.3</ele>
      </trkpt>
      <trkpt lat="43.73754" lon="7.07862">
        <ele>623.4</ele>
      </trkpt>
      <trkpt lat="43.73739" lon="7.07858">
        <ele>623.7</ele>
      </trkpt>
      <trkpt lat="43.73727" lon="7.07859">
        <ele>623.5</ele>
      </trkpt>
      <trkpt lat="43.73721" lon="7.07861">
        <ele>623.1</ele>
      </trkpt>
      <trkpt lat="43.73717" lon="7.07864">
        <ele>622.7</ele>
      </trkpt>
      <trkpt lat="43.73715" lon="7.07869">
        <ele>621.7</ele>
      </trkpt>
      <trkpt lat="43.73696" lon="7.07885">
        <ele>618.9</ele>
      </trkpt>
      <trkpt lat="43.73688" lon="7.07886">
        <ele>618.8</ele>
      </trkpt>
      <trkpt lat="43.73677" lon="7.07892">
        <ele>617.1</ele>
      </trkpt>
      <trkpt lat="43.73664" lon="7.07895">
        <ele>616.4</ele>
      </trkpt>
      <trkpt lat="43.73656" lon="7.079">
        <ele>615.3</ele>
      </trkpt>
      <trkpt lat="43.73644" lon="7.0791">
        <ele>613.4</ele>
      </trkpt>
      <trkpt lat="43.73636" lon="7.0792">
        <ele>611</ele>
      </trkpt>
      <trkpt lat="43.73631" lon="7.07931">
        <ele>608.5</ele>
      </trkpt>
      <trkpt lat="43.73623" lon="7.0795">
        <ele>605.3</ele>
      </trkpt>
      <trkpt lat="43.7362" lon="7.07953">
        <ele>605</ele>
      </trkpt>
      <trkpt lat="43.73613" lon="7.07948">
        <ele>605.7</ele>
      </trkpt>
      <trkpt lat="43.73609" lon="7.07951">
        <ele>605.4</ele>
      </trkpt>
      <trkpt lat="43.73605" lon="7.07955">
        <ele>604.9</ele>
      </trkpt>
      <trkpt lat="43.73603" lon="7.07957">
        <ele>604.7</ele>
      </trkpt>
      <trkpt lat="43.73602" lon="7.0797">
        <ele>604.4</ele>
      </trkpt>
      <trkpt lat="43.73599" lon="7.07971">
        <ele>604.4</ele>
      </trkpt>
      <trkpt lat="43.73596" lon="7.07967">
        <ele>604.5</ele>
      </trkpt>
      <trkpt lat="43.73592" lon="7.07961">
        <ele>604.4</ele>
        <extensions>
          <visugpx:TrkExtension xmlns:visugpx="https://www.visugpx.com/editgpx/">
            <visugpx:node>3</visugpx:node>
            </visugpx:TrkExtension>
        </extensions>
      </trkpt>
      <trkpt lat="43.73592" lon="7.07961">
        <ele>604.4</ele>
      </trkpt>
      <trkpt lat="43.73596" lon="7.07967">
        <ele>604.5</ele>
      </trkpt>
      <trkpt lat="43.73599" lon="7.07971">
        <ele>604.4</ele>
      </trkpt>
      <trkpt lat="43.73602" lon="7.0797">
        <ele>604.4</ele>
      </trkpt>
      <trkpt lat="43.73603" lon="7.07957">
        <ele>604.7</ele>
      </trkpt>
      <trkpt lat="43.73605" lon="7.07955">
        <ele>604.9</ele>
      </trkpt>
      <trkpt lat="43.73609" lon="7.07951">
        <ele>605.4</ele>
      </trkpt>
      <trkpt lat="43.73591" lon="7.07936">
        <ele>604.1</ele>
      </trkpt>
      <trkpt lat="43.73579" lon="7.07928">
        <ele>601.8</ele>
      </trkpt>
      <trkpt lat="43.73574" lon="7.07921">
        <ele>600.4</ele>
      </trkpt>
      <trkpt lat="43.73559" lon="7.07905">
        <ele>596.8</ele>
      </trkpt>
      <trkpt lat="43.73543" lon="7.07896">
        <ele>592.3</ele>
      </trkpt>
      <trkpt lat="43.7353" lon="7.07882">
        <ele>589.9</ele>
      </trkpt>
      <trkpt lat="43.73511" lon="7.07866">
        <ele>587.2</ele>
      </trkpt>
      <trkpt lat="43.7349" lon="7.07848">
        <ele>585.4</ele>
      </trkpt>
      <trkpt lat="43.73482" lon="7.07842">
        <ele>585.4</ele>
      </trkpt>
      <trkpt lat="43.73477" lon="7.0784">
        <ele>585.2</ele>
      </trkpt>
      <trkpt lat="43.73469" lon="7.07842">
        <ele>584.1</ele>
      </trkpt>
      <trkpt lat="43.73437" lon="7.07862">
        <ele>579.4</ele>
      </trkpt>
      <trkpt lat="43.73413" lon="7.07877">
        <ele>578.6</ele>
      </trkpt>
      <trkpt lat="43.73405" lon="7.07882">
        <ele>578.8</ele>
      </trkpt>
      <trkpt lat="43.73398" lon="7.07889">
        <ele>578.7</ele>
      </trkpt>
      <trkpt lat="43.73392" lon="7.07901">
        <ele>577.7</ele>
      </trkpt>
      <trkpt lat="43.73391" lon="7.07916">
        <ele>575.6</ele>
      </trkpt>
      <trkpt lat="43.73387" lon="7.07925">
        <ele>574.6</ele>
      </trkpt>
      <trkpt lat="43.73384" lon="7.07933">
        <ele>573.5</ele>
      </trkpt>
      <trkpt lat="43.73374" lon="7.0795">
        <ele>571.7</ele>
      </trkpt>
      <trkpt lat="43.73363" lon="7.07976">
        <ele>566.3</ele>
      </trkpt>
      <trkpt lat="43.73348" lon="7.07983">
        <ele>564.1</ele>
      </trkpt>
      <trkpt lat="43.73339" lon="7.07985">
        <ele>563.4</ele>
      </trkpt>
      <trkpt lat="43.7333" lon="7.07984">
        <ele>563.2</ele>
      </trkpt>
      <trkpt lat="43.73313" lon="7.07975">
        <ele>564</ele>
      </trkpt>
      <trkpt lat="43.73295" lon="7.07968">
        <ele>563.8</ele>
      </trkpt>
      <trkpt lat="43.73285" lon="7.07964">
        <ele>563.6</ele>
      </trkpt>
      <trkpt lat="43.73273" lon="7.07958">
        <ele>563.6</ele>
      </trkpt>
      <trkpt lat="43.7326" lon="7.07949">
        <ele>564.4</ele>
      </trkpt>
      <trkpt lat="43.73253" lon="7.07949">
        <ele>562.8</ele>
      </trkpt>
      <trkpt lat="43.73239" lon="7.07953">
        <ele>558.2</ele>
      </trkpt>
      <trkpt lat="43.7322" lon="7.07951">
        <ele>555</ele>
      </trkpt>
      <trkpt lat="43.73204" lon="7.07951">
        <ele>551.8</ele>
      </trkpt>
      <trkpt lat="43.73176" lon="7.07973">
        <ele>540.1</ele>
      </trkpt>
      <trkpt lat="43.73152" lon="7.07977">
        <ele>535.6</ele>
      </trkpt>
      <trkpt lat="43.73139" lon="7.07978">
        <ele>533.6</ele>
      </trkpt>
      <trkpt lat="43.73123" lon="7.07981">
        <ele>530.5</ele>
      </trkpt>
      <trkpt lat="43.73081" lon="7.0796">
        <ele>529.6</ele>
      </trkpt>
      <trkpt lat="43.73069" lon="7.07947">
        <ele>530.3</ele>
      </trkpt>
      <trkpt lat="43.73049" lon="7.07933">
        <ele>528.4</ele>
      </trkpt>
      <trkpt lat="43.73036" lon="7.07916">
        <ele>528.2</ele>
      </trkpt>
      <trkpt lat="43.73021" lon="7.07903">
        <ele>526.9</ele>
      </trkpt>
      <trkpt lat="43.7301" lon="7.07906">
        <ele>523.8</ele>
      </trkpt>
      <trkpt lat="43.72996" lon="7.07902">
        <ele>521.2</ele>
      </trkpt>
      <trkpt lat="43.72986" lon="7.07897">
        <ele>519.8</ele>
      </trkpt>
      <trkpt lat="43.72977" lon="7.0789">
        <ele>518.9</ele>
      </trkpt>
      <trkpt lat="43.72969" lon="7.07874">
        <ele>519.3</ele>
      </trkpt>
      <trkpt lat="43.7296" lon="7.07858">
        <ele>519.1</ele>
      </trkpt>
      <trkpt lat="43.72946" lon="7.07842">
        <ele>517.3</ele>
      </trkpt>
      <trkpt lat="43.72943" lon="7.07827">
        <ele>518.8</ele>
      </trkpt>
      <trkpt lat="43.72938" lon="7.07819">
        <ele>518.5</ele>
      </trkpt>
      <trkpt lat="43.72935" lon="7.0781">
        <ele>519.1</ele>
      </trkpt>
      <trkpt lat="43.72929" lon="7.07784">
        <ele>522</ele>
      </trkpt>
      <trkpt lat="43.72911" lon="7.07756">
        <ele>519.6</ele>
      </trkpt>
      <trkpt lat="43.72904" lon="7.07735">
        <ele>519.9</ele>
      </trkpt>
      <trkpt lat="43.72899" lon="7.07711">
        <ele>521</ele>
      </trkpt>
      <trkpt lat="43.72896" lon="7.07698">
        <ele>521.6</ele>
      </trkpt>
      <trkpt lat="43.72886" lon="7.07675">
        <ele>520.7</ele>
      </trkpt>
      <trkpt lat="43.7288" lon="7.07663">
        <ele>520.1</ele>
      </trkpt>
      <trkpt lat="43.72856" lon="7.07632">
        <ele>515.4</ele>
      </trkpt>
      <trkpt lat="43.72847" lon="7.0761">
        <ele>513.5</ele>
      </trkpt>
      <trkpt lat="43.72837" lon="7.07592">
        <ele>510.7</ele>
      </trkpt>
      <trkpt lat="43.72833" lon="7.07576">
        <ele>510.4</ele>
      </trkpt>
      <trkpt lat="43.7282" lon="7.07558">
        <ele>506.5</ele>
      </trkpt>
      <trkpt lat="43.72811" lon="7.07551">
        <ele>503.6</ele>
      </trkpt>
      <trkpt lat="43.72787" lon="7.0753">
        <ele>497.6</ele>
      </trkpt>
      <trkpt lat="43.72782" lon="7.0752">
        <ele>497.1</ele>
      </trkpt>
      <trkpt lat="43.72785" lon="7.07495">
        <ele>500.6</ele>
      </trkpt>
      <trkpt lat="43.72786" lon="7.07488">
        <ele>501.8</ele>
      </trkpt>
      <trkpt lat="43.72785" lon="7.07487">
        <ele>501.8</ele>
      </trkpt>
      <trkpt lat="43.72784" lon="7.07481">
        <ele>502.5</ele>
      </trkpt>
      <trkpt lat="43.72781" lon="7.0748">
        <ele>502.2</ele>
      </trkpt>
      <trkpt lat="43.72771" lon="7.07482">
        <ele>501</ele>
      </trkpt>
      <trkpt lat="43.7276" lon="7.07495">
        <ele>498.3</ele>
      </trkpt>
      <trkpt lat="43.7275" lon="7.07509">
        <ele>495.4</ele>
      </trkpt>
      <trkpt lat="43.72743" lon="7.07515">
        <ele>494.6</ele>
      </trkpt>
      <trkpt lat="43.72739" lon="7.07515">
        <ele>494.7</ele>
      </trkpt>
      <trkpt lat="43.72738" lon="7.07516">
        <ele>494.6</ele>
      </trkpt>
      <trkpt lat="43.72727" lon="7.07517">
        <ele>495</ele>
      </trkpt>
      <trkpt lat="43.72703" lon="7.07517">
        <ele>494.2</ele>
      </trkpt>
      <trkpt lat="43.72686" lon="7.0752">
        <ele>492.6</ele>
      </trkpt>
      <trkpt lat="43.72669" lon="7.07518">
        <ele>491</ele>
      </trkpt>
      <trkpt lat="43.72664" lon="7.07517">
        <ele>490.5</ele>
      </trkpt>
      <trkpt lat="43.72656" lon="7.07516">
        <ele>489.9</ele>
      </trkpt>
      <trkpt lat="43.7263" lon="7.07513">
        <ele>487.3</ele>
      </trkpt>
      <trkpt lat="43.72621" lon="7.07512">
        <ele>486.2</ele>
      </trkpt>
      <trkpt lat="43.72609" lon="7.07512">
        <ele>484.5</ele>
      </trkpt>
      <trkpt lat="43.726" lon="7.07507">
        <ele>483.7</ele>
      </trkpt>
      <trkpt lat="43.7258" lon="7.07502">
        <ele>481</ele>
      </trkpt>
      <trkpt lat="43.72578" lon="7.075">
        <ele>481</ele>
      </trkpt>
      <trkpt lat="43.7257" lon="7.0749">
        <ele>481.2</ele>
      </trkpt>
      <trkpt lat="43.72539" lon="7.0744">
        <ele>481.4</ele>
      </trkpt>
      <trkpt lat="43.72517" lon="7.07403">
        <ele>480.8</ele>
      </trkpt>
      <trkpt lat="43.72514" lon="7.07397">
        <ele>480.9</ele>
      </trkpt>
      <trkpt lat="43.72498" lon="7.07364">
        <ele>481.1</ele>
      </trkpt>
      <trkpt lat="43.72486" lon="7.07343">
        <ele>479.9</ele>
      </trkpt>
      <trkpt lat="43.7248" lon="7.07334">
        <ele>479.2</ele>
      </trkpt>
      <trkpt lat="43.72478" lon="7.0733">
        <ele>478.8</ele>
      </trkpt>
      <trkpt lat="43.72477" lon="7.07326">
        <ele>478.7</ele>
      </trkpt>
      <trkpt lat="43.72476" lon="7.07317">
        <ele>478.8</ele>
      </trkpt>
      <trkpt lat="43.72472" lon="7.0729">
        <ele>478.5</ele>
      </trkpt>
      <trkpt lat="43.72466" lon="7.07263">
        <ele>476.8</ele>
      </trkpt>
      <trkpt lat="43.72462" lon="7.07247">
        <ele>475.3</ele>
      </trkpt>
      <trkpt lat="43.72461" lon="7.0724">
        <ele>475</ele>
      </trkpt>
      <trkpt lat="43.7246" lon="7.07234">
        <ele>474.6</ele>
      </trkpt>
      <trkpt lat="43.7246" lon="7.07225">
        <ele>474.6</ele>
      </trkpt>
      <trkpt lat="43.72461" lon="7.07215">
        <ele>475</ele>
      </trkpt>
      <trkpt lat="43.72463" lon="7.07157">
        <ele>474.4</ele>
      </trkpt>
      <trkpt lat="43.72464" lon="7.07142">
        <ele>473.8</ele>
      </trkpt>
      <trkpt lat="43.72463" lon="7.07137">
        <ele>473.3</ele>
      </trkpt>
      <trkpt lat="43.72463" lon="7.07131">
        <ele>473.1</ele>
      </trkpt>
      <trkpt lat="43.72464" lon="7.07123">
        <ele>473.1</ele>
      </trkpt>
      <trkpt lat="43.72471" lon="7.07088">
        <ele>473</ele>
      </trkpt>
      <trkpt lat="43.72473" lon="7.07068">
        <ele>473.3</ele>
      </trkpt>
      <trkpt lat="43.72472" lon="7.07051">
        <ele>473.3</ele>
      </trkpt>
      <trkpt lat="43.72472" lon="7.07043">
        <ele>473.8</ele>
      </trkpt>
      <trkpt lat="43.72468" lon="7.07032">
        <ele>473.6</ele>
      </trkpt>
      <trkpt lat="43.72455" lon="7.07">
        <ele>473.7</ele>
      </trkpt>
      <trkpt lat="43.72431" lon="7.06942">
        <ele>474.7</ele>
      </trkpt>
      <trkpt lat="43.72425" lon="7.06928">
        <ele>474.1</ele>
      </trkpt>
      <trkpt lat="43.72421" lon="7.06917">
        <ele>473.8</ele>
      </trkpt>
      <trkpt lat="43.72418" lon="7.06913">
        <ele>473</ele>
      </trkpt>
      <trkpt lat="43.72413" lon="7.0691">
        <ele>471.9</ele>
      </trkpt>
      <trkpt lat="43.72406" lon="7.06905">
        <ele>470.2</ele>
      </trkpt>
      <trkpt lat="43.72396" lon="7.06901">
        <ele>468.2</ele>
      </trkpt>
      <trkpt lat="43.72388" lon="7.069">
        <ele>466.7</ele>
      </trkpt>
      <trkpt lat="43.72382" lon="7.06902">
        <ele>466</ele>
      </trkpt>
      <trkpt lat="43.72374" lon="7.06906">
        <ele>465.1</ele>
      </trkpt>
      <trkpt lat="43.72365" lon="7.06913">
        <ele>464.3</ele>
      </trkpt>
      <trkpt lat="43.72353" lon="7.06925">
        <ele>463.1</ele>
      </trkpt>
      <trkpt lat="43.72334" lon="7.06946">
        <ele>461</ele>
      </trkpt>
      <trkpt lat="43.72323" lon="7.06957">
        <ele>459.6</ele>
      </trkpt>
      <trkpt lat="43.72313" lon="7.06965">
        <ele>458.6</ele>
      </trkpt>
      <trkpt lat="43.72307" lon="7.06954">
        <ele>458.1</ele>
      </trkpt>
      <trkpt lat="43.72302" lon="7.06946">
        <ele>457.6</ele>
      </trkpt>
      <trkpt lat="43.72299" lon="7.06941">
        <ele>457</ele>
      </trkpt>
      <trkpt lat="43.72278" lon="7.06925">
        <ele>452.9</ele>
      </trkpt>
      <trkpt lat="43.72266" lon="7.0692">
        <ele>451.5</ele>
      </trkpt>
      <trkpt lat="43.72243" lon="7.0691">
        <ele>449.3</ele>
      </trkpt>
      <trkpt lat="43.7224" lon="7.06909">
        <ele>449</ele>
      </trkpt>
      <trkpt lat="43.72234" lon="7.06906">
        <ele>448.5</ele>
      </trkpt>
      <trkpt lat="43.72221" lon="7.06897">
        <ele>447.2</ele>
      </trkpt>
      <trkpt lat="43.72217" lon="7.06892">
        <ele>446.5</ele>
      </trkpt>
      <trkpt lat="43.72212" lon="7.06883">
        <ele>445.9</ele>
      </trkpt>
      <trkpt lat="43.72207" lon="7.0687">
        <ele>445.4</ele>
      </trkpt>
      <trkpt lat="43.72203" lon="7.06846">
        <ele>445.3</ele>
      </trkpt>
      <trkpt lat="43.72201" lon="7.06831">
        <ele>445.5</ele>
      </trkpt>
      <trkpt lat="43.72199" lon="7.06809">
        <ele>445.5</ele>
      </trkpt>
      <trkpt lat="43.72194" lon="7.06791">
        <ele>444.4</ele>
      </trkpt>
      <trkpt lat="43.72183" lon="7.06728">
        <ele>441</ele>
      </trkpt>
      <trkpt lat="43.72181" lon="7.06714">
        <ele>440.3</ele>
      </trkpt>
      <trkpt lat="43.7217" lon="7.06709">
        <ele>438.9</ele>
      </trkpt>
      <trkpt lat="43.72147" lon="7.06695">
        <ele>435.9</ele>
      </trkpt>
      <trkpt lat="43.72137" lon="7.06689">
        <ele>434.7</ele>
      </trkpt>
      <trkpt lat="43.72111" lon="7.06683">
        <ele>432.6</ele>
      </trkpt>
      <trkpt lat="43.72093" lon="7.06681">
        <ele>431.2</ele>
      </trkpt>
      <trkpt lat="43.72063" lon="7.06678">
        <ele>428.9</ele>
      </trkpt>
      <trkpt lat="43.72062" lon="7.06678">
        <ele>428.9</ele>
      </trkpt>
      <trkpt lat="43.72038" lon="7.06681">
        <ele>426.9</ele>
      </trkpt>
      <trkpt lat="43.72037" lon="7.06681">
        <ele>426.9</ele>
      </trkpt>
      <trkpt lat="43.72019" lon="7.06677">
        <ele>425</ele>
      </trkpt>
      <trkpt lat="43.71965" lon="7.06626">
        <ele>418.4</ele>
      </trkpt>
      <trkpt lat="43.71952" lon="7.06611">
        <ele>417.3</ele>
      </trkpt>
      <trkpt lat="43.71944" lon="7.06555">
        <ele>415</ele>
      </trkpt>
      <trkpt lat="43.71941" lon="7.06541">
        <ele>414</ele>
      </trkpt>
      <trkpt lat="43.71929" lon="7.06501">
        <ele>411.5</ele>
      </trkpt>
      <trkpt lat="43.71894" lon="7.06406">
        <ele>405.8</ele>
      </trkpt>
      <trkpt lat="43.71885" lon="7.06377">
        <ele>404</ele>
        <extensions>
          <visugpx:TrkExtension xmlns:visugpx="https://www.visugpx.com/editgpx/">
            <visugpx:node>4</visugpx:node>
            </visugpx:TrkExtension>
        </extensions>
      </trkpt>
    </trkseg>
  </trk>
</gpx>